<?xml version="1.0" encoding="UTF-8" standalone="no"?>
<gpx xmlns="http://www.topografix.com/GPX/1/1" creator="GPS-Track-Analyse.NET 4.7.3.2" version="1.1" xmlns:xsi="http://www.w3.org/2001/XMLSchema-instance" xsi:schemaLocation="http://www.topografix.com/GPX/1/1 http://www.topografix.com/GPX/1/1/gpx.xsd">
<metadata>
<link href="http://www.gps-freeware.de">
<text>Download GPS-Track-Analyse</text>
</link>
<time>2009-03-09T09:31:11Z</time>
<bounds maxlat="47.200115" maxlon="8.672740" minlat="46.471985" minlon="7.505647" />
</metadata>
<trk>
<name>Unbenannt</name>
<trkseg>
<trkpt lat="46.922270" lon="7.505647">
<ele>566.000000</ele>
<time>2008-08-10T03:36:25.000Z</time>
<sat>0</sat>
<fix>3d</fix>
<hdop>0.00</hdop>
<vdop>0.00</vdop>
<pdop>0.00</pdop>
</trkpt>
<trkpt lat="46.892283" lon="7.542333">
<ele>524.700000</ele>
<time>2008-08-10T03:41:57.000Z</time>
<sat>0</sat>
<fix>3d</fix>
<hdop>0.00</hdop>
<vdop>0.00</vdop>
<pdop>0.00</pdop>
</trkpt>
<trkpt lat="46.894425" lon="7.544648">
<ele>527.900000</ele>
<time>2008-08-10T03:42:07.000Z</time>
<sat>0</sat>
<fix>3d</fix>
<hdop>0.00</hdop>
<vdop>0.00</vdop>
<pdop>0.00</pdop>
</trkpt>
<trkpt lat="46.894247" lon="7.547262">
<ele>540.500000</ele>
<time>2008-08-10T03:42:23.000Z</time>
<sat>0</sat>
<fix>3d</fix>
<hdop>0.00</hdop>
<vdop>0.00</vdop>
<pdop>0.00</pdop>
</trkpt>
<trkpt lat="46.886105" lon="7.556005">
<ele>541.800000</ele>
<time>2008-08-10T03:43:19.000Z</time>
<sat>0</sat>
<fix>3d</fix>
<hdop>0.00</hdop>
<vdop>0.00</vdop>
<pdop>0.00</pdop>
</trkpt>
<trkpt lat="46.881397" lon="7.558487">
<ele>541.600000</ele>
<time>2008-08-10T03:43:47.000Z</time>
<sat>0</sat>
<fix>3d</fix>
<hdop>0.00</hdop>
<vdop>0.00</vdop>
<pdop>0.00</pdop>
</trkpt>
<trkpt lat="46.878433" lon="7.561225">
<ele>544.400000</ele>
<time>2008-08-10T03:44:11.000Z</time>
<sat>0</sat>
<fix>3d</fix>
<hdop>0.00</hdop>
<vdop>0.00</vdop>
<pdop>0.00</pdop>
</trkpt>
<trkpt lat="46.874753" lon="7.562848">
<ele>543.500000</ele>
<time>2008-08-10T03:44:39.000Z</time>
<sat>0</sat>
<fix>3d</fix>
<hdop>0.00</hdop>
<vdop>0.00</vdop>
<pdop>0.00</pdop>
</trkpt>
<trkpt lat="46.872210" lon="7.562425">
<ele>537.800000</ele>
<time>2008-08-10T03:44:59.000Z</time>
<sat>0</sat>
<fix>3d</fix>
<hdop>0.00</hdop>
<vdop>0.00</vdop>
<pdop>0.00</pdop>
</trkpt>
<trkpt lat="46.864433" lon="7.565000">
<ele>532.600000</ele>
<time>2008-08-10T03:45:59.000Z</time>
<sat>0</sat>
<fix>3d</fix>
<hdop>0.00</hdop>
<vdop>0.00</vdop>
<pdop>0.00</pdop>
</trkpt>
<trkpt lat="46.858955" lon="7.567847">
<ele>533.500000</ele>
<time>2008-08-10T03:46:27.000Z</time>
<sat>0</sat>
<fix>3d</fix>
<hdop>0.00</hdop>
<vdop>0.00</vdop>
<pdop>0.00</pdop>
</trkpt>
<trkpt lat="46.849828" lon="7.575947">
<ele>542.700000</ele>
<time>2008-08-10T03:47:31.000Z</time>
<sat>0</sat>
<fix>3d</fix>
<hdop>0.00</hdop>
<vdop>0.00</vdop>
<pdop>0.00</pdop>
</trkpt>
<trkpt lat="46.847143" lon="7.576762">
<ele>545.600000</ele>
<time>2008-08-10T03:47:51.000Z</time>
<sat>0</sat>
<fix>3d</fix>
<hdop>0.00</hdop>
<vdop>0.00</vdop>
<pdop>0.00</pdop>
</trkpt>
<trkpt lat="46.841333" lon="7.576807">
<ele>540.800000</ele>
<time>2008-08-10T03:48:31.000Z</time>
<sat>0</sat>
<fix>3d</fix>
<hdop>0.00</hdop>
<vdop>0.00</vdop>
<pdop>0.00</pdop>
</trkpt>
<trkpt lat="46.829058" lon="7.580117">
<ele>539.500000</ele>
<time>2008-08-10T03:49:43.000Z</time>
<sat>0</sat>
<fix>3d</fix>
<hdop>0.00</hdop>
<vdop>0.00</vdop>
<pdop>0.00</pdop>
</trkpt>
<trkpt lat="46.810803" lon="7.593813">
<ele>567.300000</ele>
<time>2008-08-10T03:51:51.000Z</time>
<sat>0</sat>
<fix>3d</fix>
<hdop>0.00</hdop>
<vdop>0.00</vdop>
<pdop>0.00</pdop>
</trkpt>
<trkpt lat="46.806330" lon="7.594743">
<ele>567.200000</ele>
<time>2008-08-10T03:52:11.000Z</time>
<sat>0</sat>
<fix>3d</fix>
<hdop>0.00</hdop>
<vdop>0.00</vdop>
<pdop>0.00</pdop>
</trkpt>
<trkpt lat="46.802250" lon="7.597005">
<ele>568.200000</ele>
<time>2008-08-10T03:52:31.000Z</time>
<sat>0</sat>
<fix>3d</fix>
<hdop>0.00</hdop>
<vdop>0.00</vdop>
<pdop>0.00</pdop>
</trkpt>
<trkpt lat="46.801762" lon="7.597913">
<ele>566.900000</ele>
<time>2008-08-10T03:52:35.000Z</time>
<sat>0</sat>
<fix>3d</fix>
<hdop>0.00</hdop>
<vdop>0.00</vdop>
<pdop>0.00</pdop>
</trkpt>
<trkpt lat="46.802198" lon="7.602733">
<ele>579.700000</ele>
<time>2008-08-10T03:52:51.000Z</time>
<sat>0</sat>
<fix>3d</fix>
<hdop>0.00</hdop>
<vdop>0.00</vdop>
<pdop>0.00</pdop>
</trkpt>
<trkpt lat="46.801082" lon="7.603948">
<ele>581.200000</ele>
<time>2008-08-10T03:52:59.000Z</time>
<sat>0</sat>
<fix>3d</fix>
<hdop>0.00</hdop>
<vdop>0.00</vdop>
<pdop>0.00</pdop>
</trkpt>
<trkpt lat="46.795015" lon="7.603583">
<ele>560.000000</ele>
<time>2008-08-10T03:53:27.000Z</time>
<sat>0</sat>
<fix>3d</fix>
<hdop>0.00</hdop>
<vdop>0.00</vdop>
<pdop>0.00</pdop>
</trkpt>
<trkpt lat="46.788807" lon="7.608600">
<ele>559.500000</ele>
<time>2008-08-10T03:54:19.000Z</time>
<sat>0</sat>
<fix>3d</fix>
<hdop>0.00</hdop>
<vdop>0.00</vdop>
<pdop>0.00</pdop>
</trkpt>
<trkpt lat="46.783562" lon="7.609240">
<ele>559.400000</ele>
<time>2008-08-10T03:54:51.000Z</time>
<sat>0</sat>
<fix>3d</fix>
<hdop>0.00</hdop>
<vdop>0.00</vdop>
<pdop>0.00</pdop>
</trkpt>
<trkpt lat="46.769922" lon="7.619237">
<ele>570.100000</ele>
<time>2008-08-10T03:56:31.000Z</time>
<sat>0</sat>
<fix>3d</fix>
<hdop>0.00</hdop>
<vdop>0.00</vdop>
<pdop>0.00</pdop>
</trkpt>
<trkpt lat="46.763752" lon="7.627808">
<ele>567.300000</ele>
<time>2008-08-10T03:57:35.000Z</time>
<sat>0</sat>
<fix>3d</fix>
<hdop>0.00</hdop>
<vdop>0.00</vdop>
<pdop>0.00</pdop>
</trkpt>
<trkpt lat="46.761368" lon="7.628850">
<ele>583.600000</ele>
<time>2008-08-10T03:57:59.000Z</time>
<sat>0</sat>
<fix>3d</fix>
<hdop>0.00</hdop>
<vdop>0.00</vdop>
<pdop>0.00</pdop>
</trkpt>
<trkpt lat="46.758912" lon="7.632670">
<ele>574.900000</ele>
<time>2008-08-10T03:58:27.000Z</time>
<sat>0</sat>
<fix>3d</fix>
<hdop>0.00</hdop>
<vdop>0.00</vdop>
<pdop>0.00</pdop>
</trkpt>
<trkpt lat="46.757612" lon="7.632717">
<ele>561.000000</ele>
<time>2008-08-10T03:58:43.000Z</time>
<sat>0</sat>
<fix>3d</fix>
<hdop>0.00</hdop>
<vdop>0.00</vdop>
<pdop>0.00</pdop>
</trkpt>
<trkpt lat="46.754473" lon="7.636200">
<ele>566.400000</ele>
<time>2008-08-10T03:59:15.000Z</time>
<sat>0</sat>
<fix>3d</fix>
<hdop>0.00</hdop>
<vdop>0.00</vdop>
<pdop>0.00</pdop>
</trkpt>
<trkpt lat="46.750537" lon="7.637383">
<ele>568.000000</ele>
<time>2008-08-10T03:59:43.000Z</time>
<sat>0</sat>
<fix>3d</fix>
<hdop>0.00</hdop>
<vdop>0.00</vdop>
<pdop>0.00</pdop>
</trkpt>
<trkpt lat="46.747218" lon="7.640298">
<ele>563.700000</ele>
<time>2008-08-10T04:00:11.000Z</time>
<sat>0</sat>
<fix>3d</fix>
<hdop>0.00</hdop>
<vdop>0.00</vdop>
<pdop>0.00</pdop>
</trkpt>
<trkpt lat="46.741558" lon="7.651480">
<ele>565.700000</ele>
<time>2008-08-10T04:01:15.000Z</time>
<sat>0</sat>
<fix>3d</fix>
<hdop>0.00</hdop>
<vdop>0.00</vdop>
<pdop>0.00</pdop>
</trkpt>
<trkpt lat="46.737528" lon="7.654213">
<ele>563.800000</ele>
<time>2008-08-10T04:01:43.000Z</time>
<sat>0</sat>
<fix>3d</fix>
<hdop>0.00</hdop>
<vdop>0.00</vdop>
<pdop>0.00</pdop>
</trkpt>
<trkpt lat="46.736372" lon="7.657195">
<ele>564.300000</ele>
<time>2008-08-10T04:01:59.000Z</time>
<sat>0</sat>
<fix>3d</fix>
<hdop>0.00</hdop>
<vdop>0.00</vdop>
<pdop>0.00</pdop>
</trkpt>
<trkpt lat="46.731753" lon="7.663263">
<ele>564.900000</ele>
<time>2008-08-10T04:02:43.000Z</time>
<sat>0</sat>
<fix>3d</fix>
<hdop>0.00</hdop>
<vdop>0.00</vdop>
<pdop>0.00</pdop>
</trkpt>
<trkpt lat="46.731028" lon="7.669025">
<ele>566.200000</ele>
<time>2008-08-10T04:03:11.000Z</time>
<sat>0</sat>
<fix>3d</fix>
<hdop>0.00</hdop>
<vdop>0.00</vdop>
<pdop>0.00</pdop>
</trkpt>
<trkpt lat="46.728687" lon="7.671233">
<ele>576.500000</ele>
<time>2008-08-10T04:03:31.000Z</time>
<sat>0</sat>
<fix>3d</fix>
<hdop>0.00</hdop>
<vdop>0.00</vdop>
<pdop>0.00</pdop>
</trkpt>
<trkpt lat="46.727618" lon="7.676742">
<ele>561.400000</ele>
<time>2008-08-10T04:03:55.000Z</time>
<sat>0</sat>
<fix>3d</fix>
<hdop>0.00</hdop>
<vdop>0.00</vdop>
<pdop>0.00</pdop>
</trkpt>
<trkpt lat="46.724448" lon="7.681887">
<ele>560.100000</ele>
<time>2008-08-10T04:04:23.000Z</time>
<sat>0</sat>
<fix>3d</fix>
<hdop>0.00</hdop>
<vdop>0.00</vdop>
<pdop>0.00</pdop>
</trkpt>
<trkpt lat="46.716890" lon="7.688253">
<ele>562.500000</ele>
<time>2008-08-10T04:05:15.000Z</time>
<sat>0</sat>
<fix>3d</fix>
<hdop>0.00</hdop>
<vdop>0.00</vdop>
<pdop>0.00</pdop>
</trkpt>
<trkpt lat="46.716235" lon="7.691598">
<ele>562.400000</ele>
<time>2008-08-10T04:05:31.000Z</time>
<sat>0</sat>
<fix>3d</fix>
<hdop>0.00</hdop>
<vdop>0.00</vdop>
<pdop>0.00</pdop>
</trkpt>
<trkpt lat="46.714388" lon="7.695143">
<ele>563.400000</ele>
<time>2008-08-10T04:05:51.000Z</time>
<sat>0</sat>
<fix>3d</fix>
<hdop>0.00</hdop>
<vdop>0.00</vdop>
<pdop>0.00</pdop>
</trkpt>
<trkpt lat="46.714425" lon="7.696845">
<ele>563.400000</ele>
<time>2008-08-10T04:05:59.000Z</time>
<sat>0</sat>
<fix>3d</fix>
<hdop>0.00</hdop>
<vdop>0.00</vdop>
<pdop>0.00</pdop>
</trkpt>
<trkpt lat="46.712745" lon="7.702342">
<ele>567.100000</ele>
<time>2008-08-10T04:06:27.000Z</time>
<sat>0</sat>
<fix>3d</fix>
<hdop>0.00</hdop>
<vdop>0.00</vdop>
<pdop>0.00</pdop>
</trkpt>
<trkpt lat="46.713065" lon="7.703920">
<ele>567.300000</ele>
<time>2008-08-10T04:06:35.000Z</time>
<sat>0</sat>
<fix>3d</fix>
<hdop>0.00</hdop>
<vdop>0.00</vdop>
<pdop>0.00</pdop>
</trkpt>
<trkpt lat="46.711033" lon="7.710300">
<ele>560.400000</ele>
<time>2008-08-10T04:07:03.000Z</time>
<sat>0</sat>
<fix>3d</fix>
<hdop>0.00</hdop>
<vdop>0.00</vdop>
<pdop>0.00</pdop>
</trkpt>
<trkpt lat="46.710862" lon="7.712673">
<ele>561.400000</ele>
<time>2008-08-10T04:07:11.000Z</time>
<sat>0</sat>
<fix>3d</fix>
<hdop>0.00</hdop>
<vdop>0.00</vdop>
<pdop>0.00</pdop>
</trkpt>
<trkpt lat="46.707378" lon="7.725052">
<ele>560.900000</ele>
<time>2008-08-10T04:07:59.000Z</time>
<sat>0</sat>
<fix>3d</fix>
<hdop>0.00</hdop>
<vdop>0.00</vdop>
<pdop>0.00</pdop>
</trkpt>
<trkpt lat="46.700205" lon="7.735915">
<ele>568.500000</ele>
<time>2008-08-10T04:09:07.000Z</time>
<sat>0</sat>
<fix>3d</fix>
<hdop>0.00</hdop>
<vdop>0.00</vdop>
<pdop>0.00</pdop>
</trkpt>
<trkpt lat="46.695425" lon="7.738895">
<ele>575.000000</ele>
<time>2008-08-10T04:09:43.000Z</time>
<sat>0</sat>
<fix>3d</fix>
<hdop>0.00</hdop>
<vdop>0.00</vdop>
<pdop>0.00</pdop>
</trkpt>
<trkpt lat="46.693788" lon="7.743270">
<ele>563.800000</ele>
<time>2008-08-10T04:10:07.000Z</time>
<sat>0</sat>
<fix>3d</fix>
<hdop>0.00</hdop>
<vdop>0.00</vdop>
<pdop>0.00</pdop>
</trkpt>
<trkpt lat="46.690503" lon="7.743230">
<ele>566.200000</ele>
<time>2008-08-10T04:10:27.000Z</time>
<sat>0</sat>
<fix>3d</fix>
<hdop>0.00</hdop>
<vdop>0.00</vdop>
<pdop>0.00</pdop>
</trkpt>
<trkpt lat="46.688107" lon="7.744398">
<ele>565.000000</ele>
<time>2008-08-10T04:10:39.000Z</time>
<sat>0</sat>
<fix>3d</fix>
<hdop>0.00</hdop>
<vdop>0.00</vdop>
<pdop>0.00</pdop>
</trkpt>
<trkpt lat="46.685240" lon="7.747637">
<ele>571.900000</ele>
<time>2008-08-10T04:10:59.000Z</time>
<sat>0</sat>
<fix>3d</fix>
<hdop>0.00</hdop>
<vdop>0.00</vdop>
<pdop>0.00</pdop>
</trkpt>
<trkpt lat="46.684362" lon="7.746817">
<ele>576.900000</ele>
<time>2008-08-10T04:11:07.000Z</time>
<sat>0</sat>
<fix>3d</fix>
<hdop>0.00</hdop>
<vdop>0.00</vdop>
<pdop>0.00</pdop>
</trkpt>
<trkpt lat="46.683257" lon="7.747412">
<ele>589.300000</ele>
<time>2008-08-10T04:11:15.000Z</time>
<sat>0</sat>
<fix>3d</fix>
<hdop>0.00</hdop>
<vdop>0.00</vdop>
<pdop>0.00</pdop>
</trkpt>
<trkpt lat="46.681690" lon="7.751700">
<ele>606.900000</ele>
<time>2008-08-10T04:11:35.000Z</time>
<sat>0</sat>
<fix>3d</fix>
<hdop>0.00</hdop>
<vdop>0.00</vdop>
<pdop>0.00</pdop>
</trkpt>
<trkpt lat="46.681925" lon="7.753383">
<ele>612.600000</ele>
<time>2008-08-10T04:11:43.000Z</time>
<sat>0</sat>
<fix>3d</fix>
<hdop>0.00</hdop>
<vdop>0.00</vdop>
<pdop>0.00</pdop>
</trkpt>
<trkpt lat="46.680753" lon="7.757832">
<ele>614.700000</ele>
<time>2008-08-10T04:12:03.000Z</time>
<sat>0</sat>
<fix>3d</fix>
<hdop>0.00</hdop>
<vdop>0.00</vdop>
<pdop>0.00</pdop>
</trkpt>
<trkpt lat="46.683217" lon="7.764303">
<ele>624.400000</ele>
<time>2008-08-10T04:12:35.000Z</time>
<sat>0</sat>
<fix>3d</fix>
<hdop>0.00</hdop>
<vdop>0.00</vdop>
<pdop>0.00</pdop>
</trkpt>
<trkpt lat="46.682723" lon="7.767392">
<ele>624.900000</ele>
<time>2008-08-10T04:12:47.000Z</time>
<sat>0</sat>
<fix>3d</fix>
<hdop>0.00</hdop>
<vdop>0.00</vdop>
<pdop>0.00</pdop>
</trkpt>
<trkpt lat="46.682793" lon="7.775203">
<ele>616.300000</ele>
<time>2008-08-10T04:13:19.000Z</time>
<sat>0</sat>
<fix>3d</fix>
<hdop>0.00</hdop>
<vdop>0.00</vdop>
<pdop>0.00</pdop>
</trkpt>
<trkpt lat="46.683692" lon="7.783228">
<ele>624.100000</ele>
<time>2008-08-10T04:13:51.000Z</time>
<sat>0</sat>
<fix>3d</fix>
<hdop>0.00</hdop>
<vdop>0.00</vdop>
<pdop>0.00</pdop>
</trkpt>
<trkpt lat="46.687753" lon="7.794563">
<ele>612.200000</ele>
<time>2008-08-10T04:15:43.000Z</time>
<sat>0</sat>
<fix>3d</fix>
<hdop>0.00</hdop>
<vdop>0.00</vdop>
<pdop>0.00</pdop>
</trkpt>
<trkpt lat="46.686863" lon="7.798172">
<ele>607.400000</ele>
<time>2008-08-10T04:16:03.000Z</time>
<sat>0</sat>
<fix>3d</fix>
<hdop>0.00</hdop>
<vdop>0.00</vdop>
<pdop>0.00</pdop>
</trkpt>
<trkpt lat="46.684972" lon="7.801770">
<ele>584.500000</ele>
<time>2008-08-10T04:16:23.000Z</time>
<sat>0</sat>
<fix>3d</fix>
<hdop>0.00</hdop>
<vdop>0.00</vdop>
<pdop>0.00</pdop>
</trkpt>
<trkpt lat="46.683835" lon="7.802738">
<ele>575.500000</ele>
<time>2008-08-10T04:16:31.000Z</time>
<sat>0</sat>
<fix>3d</fix>
<hdop>0.00</hdop>
<vdop>0.00</vdop>
<pdop>0.00</pdop>
</trkpt>
<trkpt lat="46.683310" lon="7.805943">
<ele>559.400000</ele>
<time>2008-08-10T04:16:47.000Z</time>
<sat>0</sat>
<fix>3d</fix>
<hdop>0.00</hdop>
<vdop>0.00</vdop>
<pdop>0.00</pdop>
</trkpt>
<trkpt lat="46.682788" lon="7.806190">
<ele>557.900000</ele>
<time>2008-08-10T04:16:51.000Z</time>
<sat>0</sat>
<fix>3d</fix>
<hdop>0.00</hdop>
<vdop>0.00</vdop>
<pdop>0.00</pdop>
</trkpt>
<trkpt lat="46.682202" lon="7.814428">
<ele>564.700000</ele>
<time>2008-08-10T04:17:27.000Z</time>
<sat>0</sat>
<fix>3d</fix>
<hdop>0.00</hdop>
<vdop>0.00</vdop>
<pdop>0.00</pdop>
</trkpt>
<trkpt lat="46.680273" lon="7.816338">
<ele>569.400000</ele>
<time>2008-08-10T04:17:43.000Z</time>
<sat>0</sat>
<fix>3d</fix>
<hdop>0.00</hdop>
<vdop>0.00</vdop>
<pdop>0.00</pdop>
</trkpt>
<trkpt lat="46.679367" lon="7.818513">
<ele>567.600000</ele>
<time>2008-08-10T04:17:55.000Z</time>
<sat>0</sat>
<fix>3d</fix>
<hdop>0.00</hdop>
<vdop>0.00</vdop>
<pdop>0.00</pdop>
</trkpt>
<trkpt lat="46.680028" lon="7.824577">
<ele>567.600000</ele>
<time>2008-08-10T04:18:23.000Z</time>
<sat>0</sat>
<fix>3d</fix>
<hdop>0.00</hdop>
<vdop>0.00</vdop>
<pdop>0.00</pdop>
</trkpt>
<trkpt lat="46.680433" lon="7.824772">
<ele>567.700000</ele>
<time>2008-08-10T04:18:27.000Z</time>
<sat>0</sat>
<fix>3d</fix>
<hdop>0.00</hdop>
<vdop>0.00</vdop>
<pdop>0.00</pdop>
</trkpt>
<trkpt lat="46.681082" lon="7.838645">
<ele>570.300000</ele>
<time>2008-08-10T04:19:19.000Z</time>
<sat>0</sat>
<fix>3d</fix>
<hdop>0.00</hdop>
<vdop>0.00</vdop>
<pdop>0.00</pdop>
</trkpt>
<trkpt lat="46.682625" lon="7.843358">
<ele>571.100000</ele>
<time>2008-08-10T04:19:43.000Z</time>
<sat>0</sat>
<fix>3d</fix>
<hdop>0.00</hdop>
<vdop>0.00</vdop>
<pdop>0.00</pdop>
</trkpt>
<trkpt lat="46.685230" lon="7.848417">
<ele>569.100000</ele>
<time>2008-08-10T04:20:15.000Z</time>
<sat>0</sat>
<fix>3d</fix>
<hdop>0.00</hdop>
<vdop>0.00</vdop>
<pdop>0.00</pdop>
</trkpt>
<trkpt lat="46.683785" lon="7.852108">
<ele>568.800000</ele>
<time>2008-08-10T04:20:39.000Z</time>
<sat>0</sat>
<fix>3d</fix>
<hdop>0.00</hdop>
<vdop>0.00</vdop>
<pdop>0.00</pdop>
</trkpt>
<trkpt lat="46.680888" lon="7.851647">
<ele>567.800000</ele>
<time>2008-08-10T04:21:27.000Z</time>
<sat>0</sat>
<fix>3d</fix>
<hdop>0.00</hdop>
<vdop>0.00</vdop>
<pdop>0.00</pdop>
</trkpt>
<trkpt lat="46.683058" lon="7.857145">
<ele>569.800000</ele>
<time>2008-08-10T04:22:11.000Z</time>
<sat>0</sat>
<fix>3d</fix>
<hdop>0.00</hdop>
<vdop>0.00</vdop>
<pdop>0.00</pdop>
</trkpt>
<trkpt lat="46.684325" lon="7.857847">
<ele>579.000000</ele>
<time>2008-08-10T04:22:27.000Z</time>
<sat>0</sat>
<fix>3d</fix>
<hdop>0.00</hdop>
<vdop>0.00</vdop>
<pdop>0.00</pdop>
</trkpt>
<trkpt lat="46.684670" lon="7.861403">
<ele>573.700000</ele>
<time>2008-08-10T04:22:47.000Z</time>
<sat>0</sat>
<fix>3d</fix>
<hdop>0.00</hdop>
<vdop>0.00</vdop>
<pdop>0.00</pdop>
</trkpt>
<trkpt lat="46.686268" lon="7.863497">
<ele>567.600000</ele>
<time>2008-08-10T04:23:07.000Z</time>
<sat>0</sat>
<fix>3d</fix>
<hdop>0.00</hdop>
<vdop>0.00</vdop>
<pdop>0.00</pdop>
</trkpt>
<trkpt lat="46.688490" lon="7.877038">
<ele>568.400000</ele>
<time>2008-08-10T04:24:19.000Z</time>
<sat>0</sat>
<fix>3d</fix>
<hdop>0.00</hdop>
<vdop>0.00</vdop>
<pdop>0.00</pdop>
</trkpt>
<trkpt lat="46.689280" lon="7.876415">
<ele>567.900000</ele>
<time>2008-08-10T04:24:27.000Z</time>
<sat>0</sat>
<fix>3d</fix>
<hdop>0.00</hdop>
<vdop>0.00</vdop>
<pdop>0.00</pdop>
</trkpt>
<trkpt lat="46.689350" lon="7.874650">
<ele>571.200000</ele>
<time>2008-08-10T04:24:35.000Z</time>
<sat>0</sat>
<fix>3d</fix>
<hdop>0.00</hdop>
<vdop>0.00</vdop>
<pdop>0.00</pdop>
</trkpt>
<trkpt lat="46.691055" lon="7.872722">
<ele>581.200000</ele>
<time>2008-08-10T04:24:47.000Z</time>
<sat>0</sat>
<fix>3d</fix>
<hdop>0.00</hdop>
<vdop>0.00</vdop>
<pdop>0.00</pdop>
</trkpt>
<trkpt lat="46.694488" lon="7.871272">
<ele>594.100000</ele>
<time>2008-08-10T04:25:07.000Z</time>
<sat>0</sat>
<fix>3d</fix>
<hdop>0.00</hdop>
<vdop>0.00</vdop>
<pdop>0.00</pdop>
</trkpt>
<trkpt lat="46.695708" lon="7.873377">
<ele>601.800000</ele>
<time>2008-08-10T04:25:19.000Z</time>
<sat>0</sat>
<fix>3d</fix>
<hdop>0.00</hdop>
<vdop>0.00</vdop>
<pdop>0.00</pdop>
</trkpt>
<trkpt lat="46.695465" lon="7.875087">
<ele>609.300000</ele>
<time>2008-08-10T04:25:27.000Z</time>
<sat>0</sat>
<fix>3d</fix>
<hdop>0.00</hdop>
<vdop>0.00</vdop>
<pdop>0.00</pdop>
</trkpt>
<trkpt lat="46.697122" lon="7.877205">
<ele>618.300000</ele>
<time>2008-08-10T04:25:43.000Z</time>
<sat>0</sat>
<fix>3d</fix>
<hdop>0.00</hdop>
<vdop>0.00</vdop>
<pdop>0.00</pdop>
</trkpt>
<trkpt lat="46.700955" lon="7.894018">
<ele>608.300000</ele>
<time>2008-08-10T04:27:03.000Z</time>
<sat>0</sat>
<fix>3d</fix>
<hdop>0.00</hdop>
<vdop>0.00</vdop>
<pdop>0.00</pdop>
</trkpt>
<trkpt lat="46.705095" lon="7.900365">
<ele>594.900000</ele>
<time>2008-08-10T04:27:47.000Z</time>
<sat>0</sat>
<fix>3d</fix>
<hdop>0.00</hdop>
<vdop>0.00</vdop>
<pdop>0.00</pdop>
</trkpt>
<trkpt lat="46.708017" lon="7.912647">
<ele>604.400000</ele>
<time>2008-08-10T04:28:43.000Z</time>
<sat>0</sat>
<fix>3d</fix>
<hdop>0.00</hdop>
<vdop>0.00</vdop>
<pdop>0.00</pdop>
</trkpt>
<trkpt lat="46.711732" lon="7.917500">
<ele>596.300000</ele>
<time>2008-08-10T04:29:07.000Z</time>
<sat>0</sat>
<fix>3d</fix>
<hdop>0.00</hdop>
<vdop>0.00</vdop>
<pdop>0.00</pdop>
</trkpt>
<trkpt lat="46.712533" lon="7.921002">
<ele>595.200000</ele>
<time>2008-08-10T04:29:19.000Z</time>
<sat>0</sat>
<fix>3d</fix>
<hdop>0.00</hdop>
<vdop>0.00</vdop>
<pdop>0.00</pdop>
</trkpt>
<trkpt lat="46.718418" lon="7.930323">
<ele>590.300000</ele>
<time>2008-08-10T04:30:11.000Z</time>
<sat>0</sat>
<fix>3d</fix>
<hdop>0.00</hdop>
<vdop>0.00</vdop>
<pdop>0.00</pdop>
</trkpt>
<trkpt lat="46.719103" lon="7.932660">
<ele>588.700000</ele>
<time>2008-08-10T04:30:23.000Z</time>
<sat>0</sat>
<fix>3d</fix>
<hdop>0.00</hdop>
<vdop>0.00</vdop>
<pdop>0.00</pdop>
</trkpt>
<trkpt lat="46.721577" lon="7.935853">
<ele>598.100000</ele>
<time>2008-08-10T04:30:43.000Z</time>
<sat>0</sat>
<fix>3d</fix>
<hdop>0.00</hdop>
<vdop>0.00</vdop>
<pdop>0.00</pdop>
</trkpt>
<trkpt lat="46.723095" lon="7.936615">
<ele>602.200000</ele>
<time>2008-08-10T04:30:51.000Z</time>
<sat>0</sat>
<fix>3d</fix>
<hdop>0.00</hdop>
<vdop>0.00</vdop>
<pdop>0.00</pdop>
</trkpt>
<trkpt lat="46.728322" lon="7.947742">
<ele>598.000000</ele>
<time>2008-08-10T04:31:39.000Z</time>
<sat>0</sat>
<fix>3d</fix>
<hdop>0.00</hdop>
<vdop>0.00</vdop>
<pdop>0.00</pdop>
</trkpt>
<trkpt lat="46.731822" lon="7.951578">
<ele>593.900000</ele>
<time>2008-08-10T04:31:59.000Z</time>
<sat>0</sat>
<fix>3d</fix>
<hdop>0.00</hdop>
<vdop>0.00</vdop>
<pdop>0.00</pdop>
</trkpt>
<trkpt lat="46.733410" lon="7.956263">
<ele>590.200000</ele>
<time>2008-08-10T04:32:19.000Z</time>
<sat>0</sat>
<fix>3d</fix>
<hdop>0.00</hdop>
<vdop>0.00</vdop>
<pdop>0.00</pdop>
</trkpt>
<trkpt lat="46.735882" lon="7.957687">
<ele>586.900000</ele>
<time>2008-08-10T04:32:39.000Z</time>
<sat>0</sat>
<fix>3d</fix>
<hdop>0.00</hdop>
<vdop>0.00</vdop>
<pdop>0.00</pdop>
</trkpt>
<trkpt lat="46.737640" lon="7.961102">
<ele>581.700000</ele>
<time>2008-08-10T04:32:59.000Z</time>
<sat>0</sat>
<fix>3d</fix>
<hdop>0.00</hdop>
<vdop>0.00</vdop>
<pdop>0.00</pdop>
</trkpt>
<trkpt lat="46.737528" lon="7.964393">
<ele>585.000000</ele>
<time>2008-08-10T04:33:19.000Z</time>
<sat>0</sat>
<fix>3d</fix>
<hdop>0.00</hdop>
<vdop>0.00</vdop>
<pdop>0.00</pdop>
</trkpt>
<trkpt lat="46.738758" lon="7.968073">
<ele>582.300000</ele>
<time>2008-08-10T04:33:39.000Z</time>
<sat>0</sat>
<fix>3d</fix>
<hdop>0.00</hdop>
<vdop>0.00</vdop>
<pdop>0.00</pdop>
</trkpt>
<trkpt lat="46.741083" lon="7.971345">
<ele>578.300000</ele>
<time>2008-08-10T04:33:59.000Z</time>
<sat>0</sat>
<fix>3d</fix>
<hdop>0.00</hdop>
<vdop>0.00</vdop>
<pdop>0.00</pdop>
</trkpt>
<trkpt lat="46.744088" lon="7.972327">
<ele>566.500000</ele>
<time>2008-08-10T04:34:15.000Z</time>
<sat>0</sat>
<fix>3d</fix>
<hdop>0.00</hdop>
<vdop>0.00</vdop>
<pdop>0.00</pdop>
</trkpt>
<trkpt lat="46.746947" lon="7.978467">
<ele>565.400000</ele>
<time>2008-08-10T04:34:39.000Z</time>
<sat>0</sat>
<fix>3d</fix>
<hdop>0.00</hdop>
<vdop>0.00</vdop>
<pdop>0.00</pdop>
</trkpt>
<trkpt lat="46.748382" lon="7.979767">
<ele>565.700000</ele>
<time>2008-08-10T04:34:47.000Z</time>
<sat>0</sat>
<fix>3d</fix>
<hdop>0.00</hdop>
<vdop>0.00</vdop>
<pdop>0.00</pdop>
</trkpt>
<trkpt lat="46.748675" lon="7.982117">
<ele>570.200000</ele>
<time>2008-08-10T04:34:55.000Z</time>
<sat>0</sat>
<fix>3d</fix>
<hdop>0.00</hdop>
<vdop>0.00</vdop>
<pdop>0.00</pdop>
</trkpt>
<trkpt lat="46.750785" lon="7.985992">
<ele>567.100000</ele>
<time>2008-08-10T04:35:11.000Z</time>
<sat>0</sat>
<fix>3d</fix>
<hdop>0.00</hdop>
<vdop>0.00</vdop>
<pdop>0.00</pdop>
</trkpt>
<trkpt lat="46.751482" lon="7.989778">
<ele>570.100000</ele>
<time>2008-08-10T04:35:27.000Z</time>
<sat>0</sat>
<fix>3d</fix>
<hdop>0.00</hdop>
<vdop>0.00</vdop>
<pdop>0.00</pdop>
</trkpt>
<trkpt lat="46.752982" lon="7.991222">
<ele>566.700000</ele>
<time>2008-08-10T04:35:39.000Z</time>
<sat>0</sat>
<fix>3d</fix>
<hdop>0.00</hdop>
<vdop>0.00</vdop>
<pdop>0.00</pdop>
</trkpt>
<trkpt lat="46.753403" lon="7.993968">
<ele>569.200000</ele>
<time>2008-08-10T04:35:51.000Z</time>
<sat>0</sat>
<fix>3d</fix>
<hdop>0.00</hdop>
<vdop>0.00</vdop>
<pdop>0.00</pdop>
</trkpt>
<trkpt lat="46.754878" lon="7.996860">
<ele>567.500000</ele>
<time>2008-08-10T04:36:03.000Z</time>
<sat>0</sat>
<fix>3d</fix>
<hdop>0.00</hdop>
<vdop>0.00</vdop>
<pdop>0.00</pdop>
</trkpt>
<trkpt lat="46.755372" lon="8.000485">
<ele>567.900000</ele>
<time>2008-08-10T04:36:15.000Z</time>
<sat>0</sat>
<fix>3d</fix>
<hdop>0.00</hdop>
<vdop>0.00</vdop>
<pdop>0.00</pdop>
</trkpt>
<trkpt lat="46.755257" lon="8.007892">
<ele>567.600000</ele>
<time>2008-08-10T04:36:39.000Z</time>
<sat>0</sat>
<fix>3d</fix>
<hdop>0.00</hdop>
<vdop>0.00</vdop>
<pdop>0.00</pdop>
</trkpt>
<trkpt lat="46.758032" lon="8.014967">
<ele>565.000000</ele>
<time>2008-08-10T04:37:07.000Z</time>
<sat>0</sat>
<fix>3d</fix>
<hdop>0.00</hdop>
<vdop>0.00</vdop>
<pdop>0.00</pdop>
</trkpt>
<trkpt lat="46.757272" lon="8.019465">
<ele>565.400000</ele>
<time>2008-08-10T04:37:23.000Z</time>
<sat>0</sat>
<fix>3d</fix>
<hdop>0.00</hdop>
<vdop>0.00</vdop>
<pdop>0.00</pdop>
</trkpt>
<trkpt lat="46.755842" lon="8.022525">
<ele>566.000000</ele>
<time>2008-08-10T04:37:39.000Z</time>
<sat>0</sat>
<fix>3d</fix>
<hdop>0.00</hdop>
<vdop>0.00</vdop>
<pdop>0.00</pdop>
</trkpt>
<trkpt lat="46.755638" lon="8.027133">
<ele>567.100000</ele>
<time>2008-08-10T04:38:03.000Z</time>
<sat>0</sat>
<fix>3d</fix>
<hdop>0.00</hdop>
<vdop>0.00</vdop>
<pdop>0.00</pdop>
</trkpt>
<trkpt lat="46.754388" lon="8.029568">
<ele>568.400000</ele>
<time>2008-08-10T04:38:19.000Z</time>
<sat>0</sat>
<fix>3d</fix>
<hdop>0.00</hdop>
<vdop>0.00</vdop>
<pdop>0.00</pdop>
</trkpt>
<trkpt lat="46.754185" lon="8.035245">
<ele>578.100000</ele>
<time>2008-08-10T04:38:51.000Z</time>
<sat>0</sat>
<fix>3d</fix>
<hdop>0.00</hdop>
<vdop>0.00</vdop>
<pdop>0.00</pdop>
</trkpt>
<trkpt lat="46.755127" lon="8.041862">
<ele>571.000000</ele>
<time>2008-08-10T04:39:27.000Z</time>
<sat>0</sat>
<fix>3d</fix>
<hdop>0.00</hdop>
<vdop>0.00</vdop>
<pdop>0.00</pdop>
</trkpt>
<trkpt lat="46.751068" lon="8.050978">
<ele>582.700000</ele>
<time>2008-08-10T04:40:27.000Z</time>
<sat>0</sat>
<fix>3d</fix>
<hdop>0.00</hdop>
<vdop>0.00</vdop>
<pdop>0.00</pdop>
</trkpt>
<trkpt lat="46.745748" lon="8.057485">
<ele>585.200000</ele>
<time>2008-08-10T04:41:19.000Z</time>
<sat>0</sat>
<fix>3d</fix>
<hdop>0.00</hdop>
<vdop>0.00</vdop>
<pdop>0.00</pdop>
</trkpt>
<trkpt lat="46.744650" lon="8.060438">
<ele>576.800000</ele>
<time>2008-08-10T04:41:39.000Z</time>
<sat>0</sat>
<fix>3d</fix>
<hdop>0.00</hdop>
<vdop>0.00</vdop>
<pdop>0.00</pdop>
</trkpt>
<trkpt lat="46.743865" lon="8.069930">
<ele>574.200000</ele>
<time>2008-08-10T04:42:11.000Z</time>
<sat>0</sat>
<fix>3d</fix>
<hdop>0.00</hdop>
<vdop>0.00</vdop>
<pdop>0.00</pdop>
</trkpt>
<trkpt lat="46.744775" lon="8.074932">
<ele>573.300000</ele>
<time>2008-08-10T04:42:27.000Z</time>
<sat>0</sat>
<fix>3d</fix>
<hdop>0.00</hdop>
<vdop>0.00</vdop>
<pdop>0.00</pdop>
</trkpt>
<trkpt lat="46.744095" lon="8.078820">
<ele>574.200000</ele>
<time>2008-08-10T04:42:39.000Z</time>
<sat>0</sat>
<fix>3d</fix>
<hdop>0.00</hdop>
<vdop>0.00</vdop>
<pdop>0.00</pdop>
</trkpt>
<trkpt lat="46.746465" lon="8.087605">
<ele>574.500000</ele>
<time>2008-08-10T04:43:07.000Z</time>
<sat>0</sat>
<fix>3d</fix>
<hdop>0.00</hdop>
<vdop>0.00</vdop>
<pdop>0.00</pdop>
</trkpt>
<trkpt lat="46.745872" lon="8.089812">
<ele>575.000000</ele>
<time>2008-08-10T04:43:15.000Z</time>
<sat>0</sat>
<fix>3d</fix>
<hdop>0.00</hdop>
<vdop>0.00</vdop>
<pdop>0.00</pdop>
</trkpt>
<trkpt lat="46.745993" lon="8.093657">
<ele>581.700000</ele>
<time>2008-08-10T04:43:31.000Z</time>
<sat>0</sat>
<fix>3d</fix>
<hdop>0.00</hdop>
<vdop>0.00</vdop>
<pdop>0.00</pdop>
</trkpt>
<trkpt lat="46.744613" lon="8.094630">
<ele>584.100000</ele>
<time>2008-08-10T04:43:43.000Z</time>
<sat>0</sat>
<fix>3d</fix>
<hdop>0.00</hdop>
<vdop>0.00</vdop>
<pdop>0.00</pdop>
</trkpt>
<trkpt lat="46.744523" lon="8.095498">
<ele>582.100000</ele>
<time>2008-08-10T04:43:47.000Z</time>
<sat>0</sat>
<fix>3d</fix>
<hdop>0.00</hdop>
<vdop>0.00</vdop>
<pdop>0.00</pdop>
</trkpt>
<trkpt lat="46.745607" lon="8.096280">
<ele>578.600000</ele>
<time>2008-08-10T04:43:55.000Z</time>
<sat>0</sat>
<fix>3d</fix>
<hdop>0.00</hdop>
<vdop>0.00</vdop>
<pdop>0.00</pdop>
</trkpt>
<trkpt lat="46.746152" lon="8.101530">
<ele>576.300000</ele>
<time>2008-08-10T04:44:11.000Z</time>
<sat>0</sat>
<fix>3d</fix>
<hdop>0.00</hdop>
<vdop>0.00</vdop>
<pdop>0.00</pdop>
</trkpt>
<trkpt lat="46.743132" lon="8.140343">
<ele>586.500000</ele>
<time>2008-08-10T04:46:15.000Z</time>
<sat>0</sat>
<fix>3d</fix>
<hdop>0.00</hdop>
<vdop>0.00</vdop>
<pdop>0.00</pdop>
</trkpt>
<trkpt lat="46.741720" lon="8.145172">
<ele>587.200000</ele>
<time>2008-08-10T04:46:31.000Z</time>
<sat>0</sat>
<fix>3d</fix>
<hdop>0.00</hdop>
<vdop>0.00</vdop>
<pdop>0.00</pdop>
</trkpt>
<trkpt lat="46.727137" lon="8.170050">
<ele>598.000000</ele>
<time>2008-08-10T04:48:11.000Z</time>
<sat>0</sat>
<fix>3d</fix>
<hdop>0.00</hdop>
<vdop>0.00</vdop>
<pdop>0.00</pdop>
</trkpt>
<trkpt lat="46.723823" lon="8.177267">
<ele>600.300000</ele>
<time>2008-08-10T04:48:43.000Z</time>
<sat>0</sat>
<fix>3d</fix>
<hdop>0.00</hdop>
<vdop>0.00</vdop>
<pdop>0.00</pdop>
</trkpt>
<trkpt lat="46.722585" lon="8.182325">
<ele>603.400000</ele>
<time>2008-08-10T04:48:59.000Z</time>
<sat>0</sat>
<fix>3d</fix>
<hdop>0.00</hdop>
<vdop>0.00</vdop>
<pdop>0.00</pdop>
</trkpt>
<trkpt lat="46.721765" lon="8.189312">
<ele>607.000000</ele>
<time>2008-08-10T04:49:23.000Z</time>
<sat>0</sat>
<fix>3d</fix>
<hdop>0.00</hdop>
<vdop>0.00</vdop>
<pdop>0.00</pdop>
</trkpt>
<trkpt lat="46.718222" lon="8.191573">
<ele>620.400000</ele>
<time>2008-08-10T04:49:51.000Z</time>
<sat>0</sat>
<fix>3d</fix>
<hdop>0.00</hdop>
<vdop>0.00</vdop>
<pdop>0.00</pdop>
</trkpt>
<trkpt lat="46.715228" lon="8.196833">
<ele>652.100000</ele>
<time>2008-08-10T04:50:19.000Z</time>
<sat>0</sat>
<fix>3d</fix>
<hdop>0.00</hdop>
<vdop>0.00</vdop>
<pdop>0.00</pdop>
</trkpt>
<trkpt lat="46.714443" lon="8.202535">
<ele>676.100000</ele>
<time>2008-08-10T04:50:39.000Z</time>
<sat>0</sat>
<fix>3d</fix>
<hdop>0.00</hdop>
<vdop>0.00</vdop>
<pdop>0.00</pdop>
</trkpt>
<trkpt lat="46.714982" lon="8.203383">
<ele>677.100000</ele>
<time>2008-08-10T04:50:43.000Z</time>
<sat>0</sat>
<fix>3d</fix>
<hdop>0.00</hdop>
<vdop>0.00</vdop>
<pdop>0.00</pdop>
</trkpt>
<trkpt lat="46.715688" lon="8.208772">
<ele>698.600000</ele>
<time>2008-08-10T04:51:03.000Z</time>
<sat>0</sat>
<fix>3d</fix>
<hdop>0.00</hdop>
<vdop>0.00</vdop>
<pdop>0.00</pdop>
</trkpt>
<trkpt lat="46.712363" lon="8.213698">
<ele>713.600000</ele>
<time>2008-08-10T04:51:31.000Z</time>
<sat>0</sat>
<fix>3d</fix>
<hdop>0.00</hdop>
<vdop>0.00</vdop>
<pdop>0.00</pdop>
</trkpt>
<trkpt lat="46.712658" lon="8.215785">
<ele>704.200000</ele>
<time>2008-08-10T04:51:43.000Z</time>
<sat>0</sat>
<fix>3d</fix>
<hdop>0.00</hdop>
<vdop>0.00</vdop>
<pdop>0.00</pdop>
</trkpt>
<trkpt lat="46.711865" lon="8.213800">
<ele>686.900000</ele>
<time>2008-08-10T04:51:55.000Z</time>
<sat>0</sat>
<fix>3d</fix>
<hdop>0.00</hdop>
<vdop>0.00</vdop>
<pdop>0.00</pdop>
</trkpt>
<trkpt lat="46.709532" lon="8.213450">
<ele>673.900000</ele>
<time>2008-08-10T04:52:11.000Z</time>
<sat>0</sat>
<fix>3d</fix>
<hdop>0.00</hdop>
<vdop>0.00</vdop>
<pdop>0.00</pdop>
</trkpt>
<trkpt lat="46.711558" lon="8.214555">
<ele>650.700000</ele>
<time>2008-08-10T04:52:27.000Z</time>
<sat>0</sat>
<fix>3d</fix>
<hdop>0.00</hdop>
<vdop>0.00</vdop>
<pdop>0.00</pdop>
</trkpt>
<trkpt lat="46.712150" lon="8.216388">
<ele>646.700000</ele>
<time>2008-08-10T04:52:39.000Z</time>
<sat>0</sat>
<fix>3d</fix>
<hdop>0.00</hdop>
<vdop>0.00</vdop>
<pdop>0.00</pdop>
</trkpt>
<trkpt lat="46.711285" lon="8.214718">
<ele>634.700000</ele>
<time>2008-08-10T04:52:51.000Z</time>
<sat>0</sat>
<fix>3d</fix>
<hdop>0.00</hdop>
<vdop>0.00</vdop>
<pdop>0.00</pdop>
</trkpt>
<trkpt lat="46.708983" lon="8.214683">
<ele>627.200000</ele>
<time>2008-08-10T04:53:03.000Z</time>
<sat>0</sat>
<fix>3d</fix>
<hdop>0.00</hdop>
<vdop>0.00</vdop>
<pdop>0.00</pdop>
</trkpt>
<trkpt lat="46.708435" lon="8.215320">
<ele>624.500000</ele>
<time>2008-08-10T04:53:07.000Z</time>
<sat>0</sat>
<fix>3d</fix>
<hdop>0.00</hdop>
<vdop>0.00</vdop>
<pdop>0.00</pdop>
</trkpt>
<trkpt lat="46.708395" lon="8.218985">
<ele>621.000000</ele>
<time>2008-08-10T04:53:19.000Z</time>
<sat>0</sat>
<fix>3d</fix>
<hdop>0.00</hdop>
<vdop>0.00</vdop>
<pdop>0.00</pdop>
</trkpt>
<trkpt lat="46.705175" lon="8.227717">
<ele>628.400000</ele>
<time>2008-08-10T04:54:03.000Z</time>
<sat>0</sat>
<fix>3d</fix>
<hdop>0.00</hdop>
<vdop>0.00</vdop>
<pdop>0.00</pdop>
</trkpt>
<trkpt lat="46.705682" lon="8.229385">
<ele>627.600000</ele>
<time>2008-08-10T04:54:15.000Z</time>
<sat>0</sat>
<fix>3d</fix>
<hdop>0.00</hdop>
<vdop>0.00</vdop>
<pdop>0.00</pdop>
</trkpt>
<trkpt lat="46.703500" lon="8.230200">
<ele>627.200000</ele>
<time>2008-08-10T04:54:31.000Z</time>
<sat>0</sat>
<fix>3d</fix>
<hdop>0.00</hdop>
<vdop>0.00</vdop>
<pdop>0.00</pdop>
</trkpt>
<trkpt lat="46.700590" lon="8.232932">
<ele>633.000000</ele>
<time>2008-08-10T04:54:51.000Z</time>
<sat>0</sat>
<fix>3d</fix>
<hdop>0.00</hdop>
<vdop>0.00</vdop>
<pdop>0.00</pdop>
</trkpt>
<trkpt lat="46.695372" lon="8.240050">
<ele>652.400000</ele>
<time>2008-08-10T04:55:27.000Z</time>
<sat>0</sat>
<fix>3d</fix>
<hdop>0.00</hdop>
<vdop>0.00</vdop>
<pdop>0.00</pdop>
</trkpt>
<trkpt lat="46.691767" lon="8.240002">
<ele>676.100000</ele>
<time>2008-08-10T04:55:47.000Z</time>
<sat>0</sat>
<fix>3d</fix>
<hdop>0.00</hdop>
<vdop>0.00</vdop>
<pdop>0.00</pdop>
</trkpt>
<trkpt lat="46.688183" lon="8.243865">
<ele>698.200000</ele>
<time>2008-08-10T04:56:11.000Z</time>
<sat>0</sat>
<fix>3d</fix>
<hdop>0.00</hdop>
<vdop>0.00</vdop>
<pdop>0.00</pdop>
</trkpt>
<trkpt lat="46.686805" lon="8.243712">
<ele>709.500000</ele>
<time>2008-08-10T04:56:19.000Z</time>
<sat>0</sat>
<fix>3d</fix>
<hdop>0.00</hdop>
<vdop>0.00</vdop>
<pdop>0.00</pdop>
</trkpt>
<trkpt lat="46.686080" lon="8.242222">
<ele>718.500000</ele>
<time>2008-08-10T04:56:27.000Z</time>
<sat>0</sat>
<fix>3d</fix>
<hdop>0.00</hdop>
<vdop>0.00</vdop>
<pdop>0.00</pdop>
</trkpt>
<trkpt lat="46.684285" lon="8.243740">
<ele>744.900000</ele>
<time>2008-08-10T04:56:39.000Z</time>
<sat>0</sat>
<fix>3d</fix>
<hdop>0.00</hdop>
<vdop>0.00</vdop>
<pdop>0.00</pdop>
</trkpt>
<trkpt lat="46.682408" lon="8.248377">
<ele>748.100000</ele>
<time>2008-08-10T04:56:59.000Z</time>
<sat>0</sat>
<fix>3d</fix>
<hdop>0.00</hdop>
<vdop>0.00</vdop>
<pdop>0.00</pdop>
</trkpt>
<trkpt lat="46.678898" lon="8.251565">
<ele>764.700000</ele>
<time>2008-08-10T04:57:19.000Z</time>
<sat>0</sat>
<fix>3d</fix>
<hdop>0.00</hdop>
<vdop>0.00</vdop>
<pdop>0.00</pdop>
</trkpt>
<trkpt lat="46.677630" lon="8.254367">
<ele>787.000000</ele>
<time>2008-08-10T04:57:31.000Z</time>
<sat>0</sat>
<fix>3d</fix>
<hdop>0.00</hdop>
<vdop>0.00</vdop>
<pdop>0.00</pdop>
</trkpt>
<trkpt lat="46.674088" lon="8.257492">
<ele>833.400000</ele>
<time>2008-08-10T04:57:51.000Z</time>
<sat>0</sat>
<fix>3d</fix>
<hdop>0.00</hdop>
<vdop>0.00</vdop>
<pdop>0.00</pdop>
</trkpt>
<trkpt lat="46.672453" lon="8.261550">
<ele>859.300000</ele>
<time>2008-08-10T04:58:07.000Z</time>
<sat>0</sat>
<fix>3d</fix>
<hdop>0.00</hdop>
<vdop>0.00</vdop>
<pdop>0.00</pdop>
</trkpt>
<trkpt lat="46.671335" lon="8.262720">
<ele>869.800000</ele>
<time>2008-08-10T04:58:15.000Z</time>
<sat>0</sat>
<fix>3d</fix>
<hdop>0.00</hdop>
<vdop>0.00</vdop>
<pdop>0.00</pdop>
</trkpt>
<trkpt lat="46.669297" lon="8.268700">
<ele>874.300000</ele>
<time>2008-08-10T04:58:39.000Z</time>
<sat>0</sat>
<fix>3d</fix>
<hdop>0.00</hdop>
<vdop>0.00</vdop>
<pdop>0.00</pdop>
</trkpt>
<trkpt lat="46.668323" lon="8.268853">
<ele>879.500000</ele>
<time>2008-08-10T04:58:47.000Z</time>
<sat>0</sat>
<fix>3d</fix>
<hdop>0.00</hdop>
<vdop>0.00</vdop>
<pdop>0.00</pdop>
</trkpt>
<trkpt lat="46.668117" lon="8.267425">
<ele>889.500000</ele>
<time>2008-08-10T04:58:59.000Z</time>
<sat>0</sat>
<fix>3d</fix>
<hdop>0.00</hdop>
<vdop>0.00</vdop>
<pdop>0.00</pdop>
</trkpt>
<trkpt lat="46.667773" lon="8.269262">
<ele>897.700000</ele>
<time>2008-08-10T04:59:07.000Z</time>
<sat>0</sat>
<fix>3d</fix>
<hdop>0.00</hdop>
<vdop>0.00</vdop>
<pdop>0.00</pdop>
</trkpt>
<trkpt lat="46.666463" lon="8.270640">
<ele>910.400000</ele>
<time>2008-08-10T04:59:15.000Z</time>
<sat>0</sat>
<fix>3d</fix>
<hdop>0.00</hdop>
<vdop>0.00</vdop>
<pdop>0.00</pdop>
</trkpt>
<trkpt lat="46.665062" lon="8.274782">
<ele>944.900000</ele>
<time>2008-08-10T04:59:31.000Z</time>
<sat>0</sat>
<fix>3d</fix>
<hdop>0.00</hdop>
<vdop>0.00</vdop>
<pdop>0.00</pdop>
</trkpt>
<trkpt lat="46.663797" lon="8.272650">
<ele>964.200000</ele>
<time>2008-08-10T04:59:47.000Z</time>
<sat>0</sat>
<fix>3d</fix>
<hdop>0.00</hdop>
<vdop>0.00</vdop>
<pdop>0.00</pdop>
</trkpt>
<trkpt lat="46.659192" lon="8.282287">
<ele>1040.700000</ele>
<time>2008-08-10T05:00:39.000Z</time>
<sat>0</sat>
<fix>3d</fix>
<hdop>0.00</hdop>
<vdop>0.00</vdop>
<pdop>0.00</pdop>
</trkpt>
<trkpt lat="46.658980" lon="8.285367">
<ele>1058.600000</ele>
<time>2008-08-10T05:00:51.000Z</time>
<sat>0</sat>
<fix>3d</fix>
<hdop>0.00</hdop>
<vdop>0.00</vdop>
<pdop>0.00</pdop>
</trkpt>
<trkpt lat="46.657627" lon="8.286733">
<ele>1057.000000</ele>
<time>2008-08-10T05:00:59.000Z</time>
<sat>0</sat>
<fix>3d</fix>
<hdop>0.00</hdop>
<vdop>0.00</vdop>
<pdop>0.00</pdop>
</trkpt>
<trkpt lat="46.656410" lon="8.286842">
<ele>1056.000000</ele>
<time>2008-08-10T05:01:07.000Z</time>
<sat>0</sat>
<fix>3d</fix>
<hdop>0.00</hdop>
<vdop>0.00</vdop>
<pdop>0.00</pdop>
</trkpt>
<trkpt lat="46.652513" lon="8.292775">
<ele>1072.700000</ele>
<time>2008-08-10T05:01:51.000Z</time>
<sat>0</sat>
<fix>3d</fix>
<hdop>0.00</hdop>
<vdop>0.00</vdop>
<pdop>0.00</pdop>
</trkpt>
<trkpt lat="46.650343" lon="8.293900">
<ele>1088.900000</ele>
<time>2008-08-10T05:02:03.000Z</time>
<sat>0</sat>
<fix>3d</fix>
<hdop>0.00</hdop>
<vdop>0.00</vdop>
<pdop>0.00</pdop>
</trkpt>
<trkpt lat="46.649832" lon="8.295815">
<ele>1096.800000</ele>
<time>2008-08-10T05:02:11.000Z</time>
<sat>0</sat>
<fix>3d</fix>
<hdop>0.00</hdop>
<vdop>0.00</vdop>
<pdop>0.00</pdop>
</trkpt>
<trkpt lat="46.645512" lon="8.301500">
<ele>1113.300000</ele>
<time>2008-08-10T05:02:39.000Z</time>
<sat>0</sat>
<fix>3d</fix>
<hdop>0.00</hdop>
<vdop>0.00</vdop>
<pdop>0.00</pdop>
</trkpt>
<trkpt lat="46.640367" lon="8.301978">
<ele>1138.700000</ele>
<time>2008-08-10T05:03:03.000Z</time>
<sat>0</sat>
<fix>3d</fix>
<hdop>0.00</hdop>
<vdop>0.00</vdop>
<pdop>0.00</pdop>
</trkpt>
<trkpt lat="46.638073" lon="8.303552">
<ele>1162.300000</ele>
<time>2008-08-10T05:03:15.000Z</time>
<sat>0</sat>
<fix>3d</fix>
<hdop>0.00</hdop>
<vdop>0.00</vdop>
<pdop>0.00</pdop>
</trkpt>
<trkpt lat="46.632172" lon="8.304557">
<ele>1201.200000</ele>
<time>2008-08-10T05:03:43.000Z</time>
<sat>0</sat>
<fix>3d</fix>
<hdop>0.00</hdop>
<vdop>0.00</vdop>
<pdop>0.00</pdop>
</trkpt>
<trkpt lat="46.626455" lon="8.303288">
<ele>1231.400000</ele>
<time>2008-08-10T05:04:11.000Z</time>
<sat>0</sat>
<fix>3d</fix>
<hdop>0.00</hdop>
<vdop>0.00</vdop>
<pdop>0.00</pdop>
</trkpt>
<trkpt lat="46.624582" lon="8.305718">
<ele>1248.300000</ele>
<time>2008-08-10T05:04:23.000Z</time>
<sat>0</sat>
<fix>3d</fix>
<hdop>0.00</hdop>
<vdop>0.00</vdop>
<pdop>0.00</pdop>
</trkpt>
<trkpt lat="46.618517" lon="8.305635">
<ele>1295.600000</ele>
<time>2008-08-10T05:04:59.000Z</time>
<sat>0</sat>
<fix>3d</fix>
<hdop>0.00</hdop>
<vdop>0.00</vdop>
<pdop>0.00</pdop>
</trkpt>
<trkpt lat="46.616275" lon="8.304783">
<ele>1308.700000</ele>
<time>2008-08-10T05:05:11.000Z</time>
<sat>0</sat>
<fix>3d</fix>
<hdop>0.00</hdop>
<vdop>0.00</vdop>
<pdop>0.00</pdop>
</trkpt>
<trkpt lat="46.615658" lon="8.305338">
<ele>1311.000000</ele>
<time>2008-08-10T05:05:15.000Z</time>
<sat>0</sat>
<fix>3d</fix>
<hdop>0.00</hdop>
<vdop>0.00</vdop>
<pdop>0.00</pdop>
</trkpt>
<trkpt lat="46.615572" lon="8.307242">
<ele>1333.200000</ele>
<time>2008-08-10T05:05:23.000Z</time>
<sat>0</sat>
<fix>3d</fix>
<hdop>0.00</hdop>
<vdop>0.00</vdop>
<pdop>0.00</pdop>
</trkpt>
<trkpt lat="46.614987" lon="8.303892">
<ele>1366.300000</ele>
<time>2008-08-10T05:05:43.000Z</time>
<sat>0</sat>
<fix>3d</fix>
<hdop>0.00</hdop>
<vdop>0.00</vdop>
<pdop>0.00</pdop>
</trkpt>
<trkpt lat="46.614832" lon="8.307275">
<ele>1369.100000</ele>
<time>2008-08-10T05:05:59.000Z</time>
<sat>0</sat>
<fix>3d</fix>
<hdop>0.00</hdop>
<vdop>0.00</vdop>
<pdop>0.00</pdop>
</trkpt>
<trkpt lat="46.611810" lon="8.308832">
<ele>1411.500000</ele>
<time>2008-08-10T05:06:19.000Z</time>
<sat>0</sat>
<fix>3d</fix>
<hdop>0.00</hdop>
<vdop>0.00</vdop>
<pdop>0.00</pdop>
</trkpt>
<trkpt lat="46.610502" lon="8.308037">
<ele>1416.500000</ele>
<time>2008-08-10T05:06:27.000Z</time>
<sat>0</sat>
<fix>3d</fix>
<hdop>0.00</hdop>
<vdop>0.00</vdop>
<pdop>0.00</pdop>
</trkpt>
<trkpt lat="46.605273" lon="8.312510">
<ele>1423.400000</ele>
<time>2008-08-10T05:06:55.000Z</time>
<sat>0</sat>
<fix>3d</fix>
<hdop>0.00</hdop>
<vdop>0.00</vdop>
<pdop>0.00</pdop>
</trkpt>
<trkpt lat="46.605018" lon="8.313595">
<ele>1423.900000</ele>
<time>2008-08-10T05:06:59.000Z</time>
<sat>0</sat>
<fix>3d</fix>
<hdop>0.00</hdop>
<vdop>0.00</vdop>
<pdop>0.00</pdop>
</trkpt>
<trkpt lat="46.605833" lon="8.316730">
<ele>1441.400000</ele>
<time>2008-08-10T05:07:11.000Z</time>
<sat>0</sat>
<fix>3d</fix>
<hdop>0.00</hdop>
<vdop>0.00</vdop>
<pdop>0.00</pdop>
</trkpt>
<trkpt lat="46.607732" lon="8.315787">
<ele>1464.800000</ele>
<time>2008-08-10T05:07:23.000Z</time>
<sat>0</sat>
<fix>3d</fix>
<hdop>0.00</hdop>
<vdop>0.00</vdop>
<pdop>0.00</pdop>
</trkpt>
<trkpt lat="46.596765" lon="8.325680">
<ele>1607.700000</ele>
<time>2008-08-10T05:08:35.000Z</time>
<sat>0</sat>
<fix>3d</fix>
<hdop>0.00</hdop>
<vdop>0.00</vdop>
<pdop>0.00</pdop>
</trkpt>
<trkpt lat="46.595682" lon="8.322803">
<ele>1632.600000</ele>
<time>2008-08-10T05:08:47.000Z</time>
<sat>0</sat>
<fix>3d</fix>
<hdop>0.00</hdop>
<vdop>0.00</vdop>
<pdop>0.00</pdop>
</trkpt>
<trkpt lat="46.594902" lon="8.322378">
<ele>1644.000000</ele>
<time>2008-08-10T05:08:51.000Z</time>
<sat>0</sat>
<fix>3d</fix>
<hdop>0.00</hdop>
<vdop>0.00</vdop>
<pdop>0.00</pdop>
</trkpt>
<trkpt lat="46.591020" lon="8.324732">
<ele>1689.600000</ele>
<time>2008-08-10T05:09:15.000Z</time>
<sat>0</sat>
<fix>3d</fix>
<hdop>0.00</hdop>
<vdop>0.00</vdop>
<pdop>0.00</pdop>
</trkpt>
<trkpt lat="46.592498" lon="8.324312">
<ele>1699.200000</ele>
<time>2008-08-10T05:09:27.000Z</time>
<sat>0</sat>
<fix>3d</fix>
<hdop>0.00</hdop>
<vdop>0.00</vdop>
<pdop>0.00</pdop>
</trkpt>
<trkpt lat="46.594337" lon="8.325862">
<ele>1715.100000</ele>
<time>2008-08-10T05:09:43.000Z</time>
<sat>0</sat>
<fix>3d</fix>
<hdop>0.00</hdop>
<vdop>0.00</vdop>
<pdop>0.00</pdop>
</trkpt>
<trkpt lat="46.592090" lon="8.325050">
<ele>1742.400000</ele>
<time>2008-08-10T05:10:03.000Z</time>
<sat>0</sat>
<fix>3d</fix>
<hdop>0.00</hdop>
<vdop>0.00</vdop>
<pdop>0.00</pdop>
</trkpt>
<trkpt lat="46.588480" lon="8.331587">
<ele>1775.600000</ele>
<time>2008-08-10T05:10:39.000Z</time>
<sat>0</sat>
<fix>3d</fix>
<hdop>0.00</hdop>
<vdop>0.00</vdop>
<pdop>0.00</pdop>
</trkpt>
<trkpt lat="46.587328" lon="8.331155">
<ele>1775.200000</ele>
<time>2008-08-10T05:10:47.000Z</time>
<sat>0</sat>
<fix>3d</fix>
<hdop>0.00</hdop>
<vdop>0.00</vdop>
<pdop>0.00</pdop>
</trkpt>
<trkpt lat="46.585512" lon="8.332985">
<ele>1773.700000</ele>
<time>2008-08-10T05:10:59.000Z</time>
<sat>0</sat>
<fix>3d</fix>
<hdop>0.00</hdop>
<vdop>0.00</vdop>
<pdop>0.00</pdop>
</trkpt>
<trkpt lat="46.582297" lon="8.332858">
<ele>1774.200000</ele>
<time>2008-08-10T05:11:15.000Z</time>
<sat>0</sat>
<fix>3d</fix>
<hdop>0.00</hdop>
<vdop>0.00</vdop>
<pdop>0.00</pdop>
</trkpt>
<trkpt lat="46.577338" lon="8.337450">
<ele>1806.800000</ele>
<time>2008-08-10T05:11:47.000Z</time>
<sat>0</sat>
<fix>3d</fix>
<hdop>0.00</hdop>
<vdop>0.00</vdop>
<pdop>0.00</pdop>
</trkpt>
<trkpt lat="46.576703" lon="8.337060">
<ele>1815.100000</ele>
<time>2008-08-10T05:11:51.000Z</time>
<sat>0</sat>
<fix>3d</fix>
<hdop>0.00</hdop>
<vdop>0.00</vdop>
<pdop>0.00</pdop>
</trkpt>
<trkpt lat="46.575433" lon="8.338005">
<ele>1830.600000</ele>
<time>2008-08-10T05:11:59.000Z</time>
<sat>0</sat>
<fix>3d</fix>
<hdop>0.00</hdop>
<vdop>0.00</vdop>
<pdop>0.00</pdop>
</trkpt>
<trkpt lat="46.573920" lon="8.337432">
<ele>1847.000000</ele>
<time>2008-08-10T05:12:07.000Z</time>
<sat>0</sat>
<fix>3d</fix>
<hdop>0.00</hdop>
<vdop>0.00</vdop>
<pdop>0.00</pdop>
</trkpt>
<trkpt lat="46.573503" lon="8.336142">
<ele>1862.400000</ele>
<time>2008-08-10T05:12:15.000Z</time>
<sat>0</sat>
<fix>3d</fix>
<hdop>0.00</hdop>
<vdop>0.00</vdop>
<pdop>0.00</pdop>
</trkpt>
<trkpt lat="46.574088" lon="8.338670">
<ele>1881.400000</ele>
<time>2008-08-10T05:12:27.000Z</time>
<sat>0</sat>
<fix>3d</fix>
<hdop>0.00</hdop>
<vdop>0.00</vdop>
<pdop>0.00</pdop>
</trkpt>
<trkpt lat="46.576473" lon="8.339528">
<ele>1906.100000</ele>
<time>2008-08-10T05:12:43.000Z</time>
<sat>0</sat>
<fix>3d</fix>
<hdop>0.00</hdop>
<vdop>0.00</vdop>
<pdop>0.00</pdop>
</trkpt>
<trkpt lat="46.573975" lon="8.340253">
<ele>1917.900000</ele>
<time>2008-08-10T05:12:59.000Z</time>
<sat>0</sat>
<fix>3d</fix>
<hdop>0.00</hdop>
<vdop>0.00</vdop>
<pdop>0.00</pdop>
</trkpt>
<trkpt lat="46.570977" lon="8.339718">
<ele>1923.000000</ele>
<time>2008-08-10T05:13:15.000Z</time>
<sat>0</sat>
<fix>3d</fix>
<hdop>0.00</hdop>
<vdop>0.00</vdop>
<pdop>0.00</pdop>
</trkpt>
<trkpt lat="46.567077" lon="8.332708">
<ele>1958.500000</ele>
<time>2008-08-10T05:13:43.000Z</time>
<sat>0</sat>
<fix>3d</fix>
<hdop>0.00</hdop>
<vdop>0.00</vdop>
<pdop>0.00</pdop>
</trkpt>
<trkpt lat="46.566683" lon="8.330175">
<ele>1977.000000</ele>
<time>2008-08-10T05:13:55.000Z</time>
<sat>0</sat>
<fix>3d</fix>
<hdop>0.00</hdop>
<vdop>0.00</vdop>
<pdop>0.00</pdop>
</trkpt>
<trkpt lat="46.566707" lon="8.334140">
<ele>1999.900000</ele>
<time>2008-08-10T05:14:11.000Z</time>
<sat>0</sat>
<fix>3d</fix>
<hdop>0.00</hdop>
<vdop>0.00</vdop>
<pdop>0.00</pdop>
</trkpt>
<trkpt lat="46.568092" lon="8.338705">
<ele>2034.500000</ele>
<time>2008-08-10T05:14:31.000Z</time>
<sat>0</sat>
<fix>3d</fix>
<hdop>0.00</hdop>
<vdop>0.00</vdop>
<pdop>0.00</pdop>
</trkpt>
<trkpt lat="46.565382" lon="8.334927">
<ele>2065.500000</ele>
<time>2008-08-10T05:14:55.000Z</time>
<sat>0</sat>
<fix>3d</fix>
<hdop>0.00</hdop>
<vdop>0.00</vdop>
<pdop>0.00</pdop>
</trkpt>
<trkpt lat="46.565215" lon="8.332405">
<ele>2086.200000</ele>
<time>2008-08-10T05:15:07.000Z</time>
<sat>0</sat>
<fix>3d</fix>
<hdop>0.00</hdop>
<vdop>0.00</vdop>
<pdop>0.00</pdop>
</trkpt>
<trkpt lat="46.564588" lon="8.336018">
<ele>2104.900000</ele>
<time>2008-08-10T05:15:23.000Z</time>
<sat>0</sat>
<fix>3d</fix>
<hdop>0.00</hdop>
<vdop>0.00</vdop>
<pdop>0.00</pdop>
</trkpt>
<trkpt lat="46.565940" lon="8.339085">
<ele>2128.700000</ele>
<time>2008-08-10T05:15:39.000Z</time>
<sat>0</sat>
<fix>3d</fix>
<hdop>0.00</hdop>
<vdop>0.00</vdop>
<pdop>0.00</pdop>
</trkpt>
<trkpt lat="46.561390" lon="8.336448">
<ele>2167.200000</ele>
<time>2008-08-10T05:16:11.000Z</time>
<sat>0</sat>
<fix>3d</fix>
<hdop>0.00</hdop>
<vdop>0.00</vdop>
<pdop>0.00</pdop>
</trkpt>
<trkpt lat="46.561095" lon="8.337495">
<ele>2169.700000</ele>
<time>2008-08-10T05:16:27.000Z</time>
<sat>0</sat>
<fix>3d</fix>
<hdop>0.00</hdop>
<vdop>0.00</vdop>
<pdop>0.00</pdop>
</trkpt>
<trkpt lat="46.562818" lon="8.340507">
<ele>2161.600000</ele>
<time>2008-08-10T05:50:46.000Z</time>
<sat>0</sat>
<fix>3d</fix>
<hdop>0.00</hdop>
<vdop>0.00</vdop>
<pdop>0.00</pdop>
</trkpt>
<trkpt lat="46.561682" lon="8.345250">
<ele>2159.800000</ele>
<time>2008-08-10T05:51:14.000Z</time>
<sat>0</sat>
<fix>3d</fix>
<hdop>0.00</hdop>
<vdop>0.00</vdop>
<pdop>0.00</pdop>
</trkpt>
<trkpt lat="46.561697" lon="8.347517">
<ele>2152.100000</ele>
<time>2008-08-10T05:51:26.000Z</time>
<sat>0</sat>
<fix>3d</fix>
<hdop>0.00</hdop>
<vdop>0.00</vdop>
<pdop>0.00</pdop>
</trkpt>
<trkpt lat="46.562777" lon="8.348422">
<ele>2141.900000</ele>
<time>2008-08-10T05:51:34.000Z</time>
<sat>0</sat>
<fix>3d</fix>
<hdop>0.00</hdop>
<vdop>0.00</vdop>
<pdop>0.00</pdop>
</trkpt>
<trkpt lat="46.567705" lon="8.359233">
<ele>2065.900000</ele>
<time>2008-08-10T05:52:22.000Z</time>
<sat>0</sat>
<fix>3d</fix>
<hdop>0.00</hdop>
<vdop>0.00</vdop>
<pdop>0.00</pdop>
</trkpt>
<trkpt lat="46.565623" lon="8.357332">
<ele>2043.600000</ele>
<time>2008-08-10T05:52:42.000Z</time>
<sat>0</sat>
<fix>3d</fix>
<hdop>0.00</hdop>
<vdop>0.00</vdop>
<pdop>0.00</pdop>
</trkpt>
<trkpt lat="46.562633" lon="8.351978">
<ele>1999.900000</ele>
<time>2008-08-10T05:53:06.000Z</time>
<sat>0</sat>
<fix>3d</fix>
<hdop>0.00</hdop>
<vdop>0.00</vdop>
<pdop>0.00</pdop>
</trkpt>
<trkpt lat="46.564103" lon="8.358443">
<ele>1942.600000</ele>
<time>2008-08-10T05:53:46.000Z</time>
<sat>0</sat>
<fix>3d</fix>
<hdop>0.00</hdop>
<vdop>0.00</vdop>
<pdop>0.00</pdop>
</trkpt>
<trkpt lat="46.561107" lon="8.352438">
<ele>1897.600000</ele>
<time>2008-08-10T05:54:14.000Z</time>
<sat>0</sat>
<fix>3d</fix>
<hdop>0.00</hdop>
<vdop>0.00</vdop>
<pdop>0.00</pdop>
</trkpt>
<trkpt lat="46.562422" lon="8.357743">
<ele>1848.100000</ele>
<time>2008-08-10T05:54:50.000Z</time>
<sat>0</sat>
<fix>3d</fix>
<hdop>0.00</hdop>
<vdop>0.00</vdop>
<pdop>0.00</pdop>
</trkpt>
<trkpt lat="46.560097" lon="8.353542">
<ele>1812.300000</ele>
<time>2008-08-10T05:55:14.000Z</time>
<sat>0</sat>
<fix>3d</fix>
<hdop>0.00</hdop>
<vdop>0.00</vdop>
<pdop>0.00</pdop>
</trkpt>
<trkpt lat="46.561377" lon="8.359362">
<ele>1774.600000</ele>
<time>2008-08-10T05:55:38.000Z</time>
<sat>0</sat>
<fix>3d</fix>
<hdop>0.00</hdop>
<vdop>0.00</vdop>
<pdop>0.00</pdop>
</trkpt>
<trkpt lat="46.562395" lon="8.361342">
<ele>1750.900000</ele>
<time>2008-08-10T05:55:58.000Z</time>
<sat>0</sat>
<fix>3d</fix>
<hdop>0.00</hdop>
<vdop>0.00</vdop>
<pdop>0.00</pdop>
</trkpt>
<trkpt lat="46.559470" lon="8.356828">
<ele>1759.100000</ele>
<time>2008-08-10T05:58:46.000Z</time>
<sat>0</sat>
<fix>3d</fix>
<hdop>0.00</hdop>
<vdop>0.00</vdop>
<pdop>0.00</pdop>
</trkpt>
<trkpt lat="46.557660" lon="8.356495">
<ele>1735.600000</ele>
<time>2008-08-10T05:59:02.000Z</time>
<sat>0</sat>
<fix>3d</fix>
<hdop>0.00</hdop>
<vdop>0.00</vdop>
<pdop>0.00</pdop>
</trkpt>
<trkpt lat="46.556537" lon="8.355187">
<ele>1705.000000</ele>
<time>2008-08-10T05:59:22.000Z</time>
<sat>0</sat>
<fix>3d</fix>
<hdop>0.00</hdop>
<vdop>0.00</vdop>
<pdop>0.00</pdop>
</trkpt>
<trkpt lat="46.555368" lon="8.355212">
<ele>1693.200000</ele>
<time>2008-08-10T05:59:30.000Z</time>
<sat>0</sat>
<fix>3d</fix>
<hdop>0.00</hdop>
<vdop>0.00</vdop>
<pdop>0.00</pdop>
</trkpt>
<trkpt lat="46.556543" lon="8.355768">
<ele>1670.900000</ele>
<time>2008-08-10T05:59:46.000Z</time>
<sat>0</sat>
<fix>3d</fix>
<hdop>0.00</hdop>
<vdop>0.00</vdop>
<pdop>0.00</pdop>
</trkpt>
<trkpt lat="46.555212" lon="8.355887">
<ele>1662.500000</ele>
<time>2008-08-10T05:59:54.000Z</time>
<sat>0</sat>
<fix>3d</fix>
<hdop>0.00</hdop>
<vdop>0.00</vdop>
<pdop>0.00</pdop>
</trkpt>
<trkpt lat="46.548590" lon="8.360515">
<ele>1598.600000</ele>
<time>2008-08-10T06:00:30.000Z</time>
<sat>0</sat>
<fix>3d</fix>
<hdop>0.00</hdop>
<vdop>0.00</vdop>
<pdop>0.00</pdop>
</trkpt>
<trkpt lat="46.545412" lon="8.357432">
<ele>1590.800000</ele>
<time>2008-08-10T06:00:54.000Z</time>
<sat>0</sat>
<fix>3d</fix>
<hdop>0.00</hdop>
<vdop>0.00</vdop>
<pdop>0.00</pdop>
</trkpt>
<trkpt lat="46.544955" lon="8.355678">
<ele>1578.200000</ele>
<time>2008-08-10T06:01:02.000Z</time>
<sat>0</sat>
<fix>3d</fix>
<hdop>0.00</hdop>
<vdop>0.00</vdop>
<pdop>0.00</pdop>
</trkpt>
<trkpt lat="46.542867" lon="8.357465">
<ele>1543.600000</ele>
<time>2008-08-10T06:01:38.000Z</time>
<sat>0</sat>
<fix>3d</fix>
<hdop>0.00</hdop>
<vdop>0.00</vdop>
<pdop>0.00</pdop>
</trkpt>
<trkpt lat="46.542407" lon="8.355517">
<ele>1531.800000</ele>
<time>2008-08-10T06:01:46.000Z</time>
<sat>0</sat>
<fix>3d</fix>
<hdop>0.00</hdop>
<vdop>0.00</vdop>
<pdop>0.00</pdop>
</trkpt>
<trkpt lat="46.538342" lon="8.350000">
<ele>1488.600000</ele>
<time>2008-08-10T06:02:22.000Z</time>
<sat>0</sat>
<fix>3d</fix>
<hdop>0.00</hdop>
<vdop>0.00</vdop>
<pdop>0.00</pdop>
</trkpt>
<trkpt lat="46.540510" lon="8.355210">
<ele>1461.100000</ele>
<time>2008-08-10T06:02:50.000Z</time>
<sat>0</sat>
<fix>3d</fix>
<hdop>0.00</hdop>
<vdop>0.00</vdop>
<pdop>0.00</pdop>
</trkpt>
<trkpt lat="46.541448" lon="8.359648">
<ele>1438.200000</ele>
<time>2008-08-10T06:03:10.000Z</time>
<sat>0</sat>
<fix>3d</fix>
<hdop>0.00</hdop>
<vdop>0.00</vdop>
<pdop>0.00</pdop>
</trkpt>
<trkpt lat="46.538985" lon="8.355872">
<ele>1409.800000</ele>
<time>2008-08-10T06:03:30.000Z</time>
<sat>0</sat>
<fix>3d</fix>
<hdop>0.00</hdop>
<vdop>0.00</vdop>
<pdop>0.00</pdop>
</trkpt>
<trkpt lat="46.536210" lon="8.349665">
<ele>1377.100000</ele>
<time>2008-08-10T06:03:54.000Z</time>
<sat>0</sat>
<fix>3d</fix>
<hdop>0.00</hdop>
<vdop>0.00</vdop>
<pdop>0.00</pdop>
</trkpt>
<trkpt lat="46.535015" lon="8.349405">
<ele>1370.700000</ele>
<time>2008-08-10T06:04:02.000Z</time>
<sat>0</sat>
<fix>3d</fix>
<hdop>0.00</hdop>
<vdop>0.00</vdop>
<pdop>0.00</pdop>
</trkpt>
<trkpt lat="46.532595" lon="8.343530">
<ele>1376.500000</ele>
<time>2008-08-10T06:04:42.000Z</time>
<sat>0</sat>
<fix>3d</fix>
<hdop>0.00</hdop>
<vdop>0.00</vdop>
<pdop>0.00</pdop>
</trkpt>
<trkpt lat="46.514493" lon="8.325208">
<ele>1356.100000</ele>
<time>2008-08-10T06:06:46.000Z</time>
<sat>0</sat>
<fix>3d</fix>
<hdop>0.00</hdop>
<vdop>0.00</vdop>
<pdop>0.00</pdop>
</trkpt>
<trkpt lat="46.513710" lon="8.322608">
<ele>1354.600000</ele>
<time>2008-08-10T06:07:02.000Z</time>
<sat>0</sat>
<fix>3d</fix>
<hdop>0.00</hdop>
<vdop>0.00</vdop>
<pdop>0.00</pdop>
</trkpt>
<trkpt lat="46.514027" lon="8.320228">
<ele>1353.400000</ele>
<time>2008-08-10T06:07:10.000Z</time>
<sat>0</sat>
<fix>3d</fix>
<hdop>0.00</hdop>
<vdop>0.00</vdop>
<pdop>0.00</pdop>
</trkpt>
<trkpt lat="46.512290" lon="8.315658">
<ele>1353.500000</ele>
<time>2008-08-10T06:07:26.000Z</time>
<sat>0</sat>
<fix>3d</fix>
<hdop>0.00</hdop>
<vdop>0.00</vdop>
<pdop>0.00</pdop>
</trkpt>
<trkpt lat="46.507090" lon="8.306288">
<ele>1349.800000</ele>
<time>2008-08-10T06:08:14.000Z</time>
<sat>0</sat>
<fix>3d</fix>
<hdop>0.00</hdop>
<vdop>0.00</vdop>
<pdop>0.00</pdop>
</trkpt>
<trkpt lat="46.505377" lon="8.310155">
<ele>1353.900000</ele>
<time>2008-08-10T06:08:38.000Z</time>
<sat>0</sat>
<fix>3d</fix>
<hdop>0.00</hdop>
<vdop>0.00</vdop>
<pdop>0.00</pdop>
</trkpt>
<trkpt lat="46.504677" lon="8.314707">
<ele>1355.700000</ele>
<time>2008-08-10T06:09:02.000Z</time>
<sat>0</sat>
<fix>3d</fix>
<hdop>0.00</hdop>
<vdop>0.00</vdop>
<pdop>0.00</pdop>
</trkpt>
<trkpt lat="46.503200" lon="8.319060">
<ele>1367.300000</ele>
<time>2008-08-10T06:09:26.000Z</time>
<sat>0</sat>
<fix>3d</fix>
<hdop>0.00</hdop>
<vdop>0.00</vdop>
<pdop>0.00</pdop>
</trkpt>
<trkpt lat="46.501348" lon="8.320420">
<ele>1387.900000</ele>
<time>2008-08-10T06:09:42.000Z</time>
<sat>0</sat>
<fix>3d</fix>
<hdop>0.00</hdop>
<vdop>0.00</vdop>
<pdop>0.00</pdop>
</trkpt>
<trkpt lat="46.505652" lon="8.320358">
<ele>1440.100000</ele>
<time>2008-08-10T06:10:10.000Z</time>
<sat>0</sat>
<fix>3d</fix>
<hdop>0.00</hdop>
<vdop>0.00</vdop>
<pdop>0.00</pdop>
</trkpt>
<trkpt lat="46.505327" lon="8.321367">
<ele>1453.600000</ele>
<time>2008-08-10T06:10:26.000Z</time>
<sat>0</sat>
<fix>3d</fix>
<hdop>0.00</hdop>
<vdop>0.00</vdop>
<pdop>0.00</pdop>
</trkpt>
<trkpt lat="46.504107" lon="8.321740">
<ele>1467.800000</ele>
<time>2008-08-10T06:10:34.000Z</time>
<sat>0</sat>
<fix>3d</fix>
<hdop>0.00</hdop>
<vdop>0.00</vdop>
<pdop>0.00</pdop>
</trkpt>
<trkpt lat="46.501147" lon="8.324930">
<ele>1500.300000</ele>
<time>2008-08-10T06:10:54.000Z</time>
<sat>0</sat>
<fix>3d</fix>
<hdop>0.00</hdop>
<vdop>0.00</vdop>
<pdop>0.00</pdop>
</trkpt>
<trkpt lat="46.500583" lon="8.330778">
<ele>1535.000000</ele>
<time>2008-08-10T06:11:18.000Z</time>
<sat>0</sat>
<fix>3d</fix>
<hdop>0.00</hdop>
<vdop>0.00</vdop>
<pdop>0.00</pdop>
</trkpt>
<trkpt lat="46.499010" lon="8.329750">
<ele>1556.700000</ele>
<time>2008-08-10T06:11:38.000Z</time>
<sat>0</sat>
<fix>3d</fix>
<hdop>0.00</hdop>
<vdop>0.00</vdop>
<pdop>0.00</pdop>
</trkpt>
<trkpt lat="46.500597" lon="8.335093">
<ele>1600.500000</ele>
<time>2008-08-10T06:12:02.000Z</time>
<sat>0</sat>
<fix>3d</fix>
<hdop>0.00</hdop>
<vdop>0.00</vdop>
<pdop>0.00</pdop>
</trkpt>
<trkpt lat="46.500087" lon="8.339447">
<ele>1638.100000</ele>
<time>2008-08-10T06:12:18.000Z</time>
<sat>0</sat>
<fix>3d</fix>
<hdop>0.00</hdop>
<vdop>0.00</vdop>
<pdop>0.00</pdop>
</trkpt>
<trkpt lat="46.496452" lon="8.345332">
<ele>1672.300000</ele>
<time>2008-08-10T06:12:46.000Z</time>
<sat>0</sat>
<fix>3d</fix>
<hdop>0.00</hdop>
<vdop>0.00</vdop>
<pdop>0.00</pdop>
</trkpt>
<trkpt lat="46.490070" lon="8.353152">
<ele>1720.100000</ele>
<time>2008-08-10T06:13:30.000Z</time>
<sat>0</sat>
<fix>3d</fix>
<hdop>0.00</hdop>
<vdop>0.00</vdop>
<pdop>0.00</pdop>
</trkpt>
<trkpt lat="46.487623" lon="8.357327">
<ele>1762.600000</ele>
<time>2008-08-10T06:13:54.000Z</time>
<sat>0</sat>
<fix>3d</fix>
<hdop>0.00</hdop>
<vdop>0.00</vdop>
<pdop>0.00</pdop>
</trkpt>
<trkpt lat="46.488698" lon="8.360122">
<ele>1780.600000</ele>
<time>2008-08-10T06:14:10.000Z</time>
<sat>0</sat>
<fix>3d</fix>
<hdop>0.00</hdop>
<vdop>0.00</vdop>
<pdop>0.00</pdop>
</trkpt>
<trkpt lat="46.484648" lon="8.365070">
<ele>1842.900000</ele>
<time>2008-08-10T06:14:38.000Z</time>
<sat>0</sat>
<fix>3d</fix>
<hdop>0.00</hdop>
<vdop>0.00</vdop>
<pdop>0.00</pdop>
</trkpt>
<trkpt lat="46.477502" lon="8.368653">
<ele>1931.200000</ele>
<time>2008-08-10T06:15:26.000Z</time>
<sat>0</sat>
<fix>3d</fix>
<hdop>0.00</hdop>
<vdop>0.00</vdop>
<pdop>0.00</pdop>
</trkpt>
<trkpt lat="46.474903" lon="8.372232">
<ele>1957.200000</ele>
<time>2008-08-10T06:15:46.000Z</time>
<sat>0</sat>
<fix>3d</fix>
<hdop>0.00</hdop>
<vdop>0.00</vdop>
<pdop>0.00</pdop>
</trkpt>
<trkpt lat="46.471985" lon="8.370353">
<ele>2002.500000</ele>
<time>2008-08-10T06:16:10.000Z</time>
<sat>0</sat>
<fix>3d</fix>
<hdop>0.00</hdop>
<vdop>0.00</vdop>
<pdop>0.00</pdop>
</trkpt>
<trkpt lat="46.472583" lon="8.373873">
<ele>2029.200000</ele>
<time>2008-08-10T06:16:26.000Z</time>
<sat>0</sat>
<fix>3d</fix>
<hdop>0.00</hdop>
<vdop>0.00</vdop>
<pdop>0.00</pdop>
</trkpt>
<trkpt lat="46.473620" lon="8.374918">
<ele>2045.500000</ele>
<time>2008-08-10T06:16:34.000Z</time>
<sat>0</sat>
<fix>3d</fix>
<hdop>0.00</hdop>
<vdop>0.00</vdop>
<pdop>0.00</pdop>
</trkpt>
<trkpt lat="46.476825" lon="8.374688">
<ele>2082.900000</ele>
<time>2008-08-10T06:16:54.000Z</time>
<sat>0</sat>
<fix>3d</fix>
<hdop>0.00</hdop>
<vdop>0.00</vdop>
<pdop>0.00</pdop>
</trkpt>
<trkpt lat="46.473725" lon="8.376345">
<ele>2122.800000</ele>
<time>2008-08-10T06:17:18.000Z</time>
<sat>0</sat>
<fix>3d</fix>
<hdop>0.00</hdop>
<vdop>0.00</vdop>
<pdop>0.00</pdop>
</trkpt>
<trkpt lat="46.477912" lon="8.376477">
<ele>2162.400000</ele>
<time>2008-08-10T06:17:42.000Z</time>
<sat>0</sat>
<fix>3d</fix>
<hdop>0.00</hdop>
<vdop>0.00</vdop>
<pdop>0.00</pdop>
</trkpt>
<trkpt lat="46.477143" lon="8.376892">
<ele>2175.700000</ele>
<time>2008-08-10T06:17:58.000Z</time>
<sat>0</sat>
<fix>3d</fix>
<hdop>0.00</hdop>
<vdop>0.00</vdop>
<pdop>0.00</pdop>
</trkpt>
<trkpt lat="46.478465" lon="8.379130">
<ele>2229.300000</ele>
<time>2008-08-10T06:18:42.000Z</time>
<sat>0</sat>
<fix>3d</fix>
<hdop>0.00</hdop>
<vdop>0.00</vdop>
<pdop>0.00</pdop>
</trkpt>
<trkpt lat="46.474957" lon="8.379085">
<ele>2272.500000</ele>
<time>2008-08-10T06:19:02.000Z</time>
<sat>0</sat>
<fix>3d</fix>
<hdop>0.00</hdop>
<vdop>0.00</vdop>
<pdop>0.00</pdop>
</trkpt>
<trkpt lat="46.473570" lon="8.380375">
<ele>2289.700000</ele>
<time>2008-08-10T06:19:10.000Z</time>
<sat>0</sat>
<fix>3d</fix>
<hdop>0.00</hdop>
<vdop>0.00</vdop>
<pdop>0.00</pdop>
</trkpt>
<trkpt lat="46.473003" lon="8.382263">
<ele>2312.400000</ele>
<time>2008-08-10T06:19:26.000Z</time>
<sat>0</sat>
<fix>3d</fix>
<hdop>0.00</hdop>
<vdop>0.00</vdop>
<pdop>0.00</pdop>
</trkpt>
<trkpt lat="46.473420" lon="8.381448">
<ele>2318.500000</ele>
<time>2008-08-10T06:19:30.000Z</time>
<sat>0</sat>
<fix>3d</fix>
<hdop>0.00</hdop>
<vdop>0.00</vdop>
<pdop>0.00</pdop>
</trkpt>
<trkpt lat="46.476658" lon="8.380415">
<ele>2355.900000</ele>
<time>2008-08-10T06:19:46.000Z</time>
<sat>0</sat>
<fix>3d</fix>
<hdop>0.00</hdop>
<vdop>0.00</vdop>
<pdop>0.00</pdop>
</trkpt>
<trkpt lat="46.481625" lon="8.386668">
<ele>2444.100000</ele>
<time>2008-08-10T06:20:34.000Z</time>
<sat>0</sat>
<fix>3d</fix>
<hdop>0.00</hdop>
<vdop>0.00</vdop>
<pdop>0.00</pdop>
</trkpt>
<trkpt lat="46.480968" lon="8.386075">
<ele>2454.000000</ele>
<time>2008-08-10T06:20:38.000Z</time>
<sat>0</sat>
<fix>3d</fix>
<hdop>0.00</hdop>
<vdop>0.00</vdop>
<pdop>0.00</pdop>
</trkpt>
<trkpt lat="46.477657" lon="8.386325">
<ele>2469.700000</ele>
<time>2008-08-10T06:30:07.000Z</time>
<sat>0</sat>
<fix>3d</fix>
<hdop>0.00</hdop>
<vdop>0.00</vdop>
<pdop>0.00</pdop>
</trkpt>
<trkpt lat="46.477090" lon="8.387685">
<ele>2487.000000</ele>
<time>2008-08-10T06:32:51.000Z</time>
<sat>0</sat>
<fix>3d</fix>
<hdop>0.00</hdop>
<vdop>0.00</vdop>
<pdop>0.00</pdop>
</trkpt>
<trkpt lat="46.478093" lon="8.391520">
<ele>2482.600000</ele>
<time>2008-08-10T06:33:11.000Z</time>
<sat>0</sat>
<fix>3d</fix>
<hdop>0.00</hdop>
<vdop>0.00</vdop>
<pdop>0.00</pdop>
</trkpt>
<trkpt lat="46.477842" lon="8.398368">
<ele>2452.000000</ele>
<time>2008-08-10T06:33:35.000Z</time>
<sat>0</sat>
<fix>3d</fix>
<hdop>0.00</hdop>
<vdop>0.00</vdop>
<pdop>0.00</pdop>
</trkpt>
<trkpt lat="46.479995" lon="8.399263">
<ele>2435.200000</ele>
<time>2008-08-10T06:33:47.000Z</time>
<sat>0</sat>
<fix>3d</fix>
<hdop>0.00</hdop>
<vdop>0.00</vdop>
<pdop>0.00</pdop>
</trkpt>
<trkpt lat="46.480348" lon="8.402682">
<ele>2413.900000</ele>
<time>2008-08-10T06:34:03.000Z</time>
<sat>0</sat>
<fix>3d</fix>
<hdop>0.00</hdop>
<vdop>0.00</vdop>
<pdop>0.00</pdop>
</trkpt>
<trkpt lat="46.479348" lon="8.400562">
<ele>2396.800000</ele>
<time>2008-08-10T06:34:15.000Z</time>
<sat>0</sat>
<fix>3d</fix>
<hdop>0.00</hdop>
<vdop>0.00</vdop>
<pdop>0.00</pdop>
</trkpt>
<trkpt lat="46.478587" lon="8.400710">
<ele>2391.400000</ele>
<time>2008-08-10T06:34:23.000Z</time>
<sat>0</sat>
<fix>3d</fix>
<hdop>0.00</hdop>
<vdop>0.00</vdop>
<pdop>0.00</pdop>
</trkpt>
<trkpt lat="46.479475" lon="8.401820">
<ele>2380.500000</ele>
<time>2008-08-10T06:34:31.000Z</time>
<sat>0</sat>
<fix>3d</fix>
<hdop>0.00</hdop>
<vdop>0.00</vdop>
<pdop>0.00</pdop>
</trkpt>
<trkpt lat="46.479517" lon="8.403285">
<ele>2369.800000</ele>
<time>2008-08-10T06:34:39.000Z</time>
<sat>0</sat>
<fix>3d</fix>
<hdop>0.00</hdop>
<vdop>0.00</vdop>
<pdop>0.00</pdop>
</trkpt>
<trkpt lat="46.478352" lon="8.401302">
<ele>2354.300000</ele>
<time>2008-08-10T06:34:51.000Z</time>
<sat>0</sat>
<fix>3d</fix>
<hdop>0.00</hdop>
<vdop>0.00</vdop>
<pdop>0.00</pdop>
</trkpt>
<trkpt lat="46.476570" lon="8.401700">
<ele>2339.100000</ele>
<time>2008-08-10T06:35:03.000Z</time>
<sat>0</sat>
<fix>3d</fix>
<hdop>0.00</hdop>
<vdop>0.00</vdop>
<pdop>0.00</pdop>
</trkpt>
<trkpt lat="46.478867" lon="8.405870">
<ele>2302.200000</ele>
<time>2008-08-10T06:35:23.000Z</time>
<sat>0</sat>
<fix>3d</fix>
<hdop>0.00</hdop>
<vdop>0.00</vdop>
<pdop>0.00</pdop>
</trkpt>
<trkpt lat="46.478413" lon="8.409223">
<ele>2275.700000</ele>
<time>2008-08-10T06:35:35.000Z</time>
<sat>0</sat>
<fix>3d</fix>
<hdop>0.00</hdop>
<vdop>0.00</vdop>
<pdop>0.00</pdop>
</trkpt>
<trkpt lat="46.477498" lon="8.410505">
<ele>2259.000000</ele>
<time>2008-08-10T06:35:43.000Z</time>
<sat>0</sat>
<fix>3d</fix>
<hdop>0.00</hdop>
<vdop>0.00</vdop>
<pdop>0.00</pdop>
</trkpt>
<trkpt lat="46.477485" lon="8.412493">
<ele>2245.200000</ele>
<time>2008-08-10T06:35:51.000Z</time>
<sat>0</sat>
<fix>3d</fix>
<hdop>0.00</hdop>
<vdop>0.00</vdop>
<pdop>0.00</pdop>
</trkpt>
<trkpt lat="46.478673" lon="8.415585">
<ele>2218.600000</ele>
<time>2008-08-10T06:36:03.000Z</time>
<sat>0</sat>
<fix>3d</fix>
<hdop>0.00</hdop>
<vdop>0.00</vdop>
<pdop>0.00</pdop>
</trkpt>
<trkpt lat="46.478847" lon="8.421392">
<ele>2181.600000</ele>
<time>2008-08-10T06:36:23.000Z</time>
<sat>0</sat>
<fix>3d</fix>
<hdop>0.00</hdop>
<vdop>0.00</vdop>
<pdop>0.00</pdop>
</trkpt>
<trkpt lat="46.477688" lon="8.424707">
<ele>2160.600000</ele>
<time>2008-08-10T06:36:35.000Z</time>
<sat>0</sat>
<fix>3d</fix>
<hdop>0.00</hdop>
<vdop>0.00</vdop>
<pdop>0.00</pdop>
</trkpt>
<trkpt lat="46.476665" lon="8.432482">
<ele>2100.900000</ele>
<time>2008-08-10T06:37:03.000Z</time>
<sat>0</sat>
<fix>3d</fix>
<hdop>0.00</hdop>
<vdop>0.00</vdop>
<pdop>0.00</pdop>
</trkpt>
<trkpt lat="46.475897" lon="8.423835">
<ele>2039.800000</ele>
<time>2008-08-10T06:37:35.000Z</time>
<sat>0</sat>
<fix>3d</fix>
<hdop>0.00</hdop>
<vdop>0.00</vdop>
<pdop>0.00</pdop>
</trkpt>
<trkpt lat="46.475352" lon="8.423423">
<ele>2036.200000</ele>
<time>2008-08-10T06:37:39.000Z</time>
<sat>0</sat>
<fix>3d</fix>
<hdop>0.00</hdop>
<vdop>0.00</vdop>
<pdop>0.00</pdop>
</trkpt>
<trkpt lat="46.472718" lon="8.425742">
<ele>2006.700000</ele>
<time>2008-08-10T06:37:59.000Z</time>
<sat>0</sat>
<fix>3d</fix>
<hdop>0.00</hdop>
<vdop>0.00</vdop>
<pdop>0.00</pdop>
</trkpt>
<trkpt lat="46.474113" lon="8.425880">
<ele>1994.900000</ele>
<time>2008-08-10T06:38:11.000Z</time>
<sat>0</sat>
<fix>3d</fix>
<hdop>0.00</hdop>
<vdop>0.00</vdop>
<pdop>0.00</pdop>
</trkpt>
<trkpt lat="46.474457" lon="8.427763">
<ele>1980.500000</ele>
<time>2008-08-10T06:38:19.000Z</time>
<sat>0</sat>
<fix>3d</fix>
<hdop>0.00</hdop>
<vdop>0.00</vdop>
<pdop>0.00</pdop>
</trkpt>
<trkpt lat="46.473395" lon="8.435545">
<ele>1928.500000</ele>
<time>2008-08-10T06:38:51.000Z</time>
<sat>0</sat>
<fix>3d</fix>
<hdop>0.00</hdop>
<vdop>0.00</vdop>
<pdop>0.00</pdop>
</trkpt>
<trkpt lat="46.473490" lon="8.446053">
<ele>1872.200000</ele>
<time>2008-08-10T06:39:23.000Z</time>
<sat>0</sat>
<fix>3d</fix>
<hdop>0.00</hdop>
<vdop>0.00</vdop>
<pdop>0.00</pdop>
</trkpt>
<trkpt lat="46.475617" lon="8.450378">
<ele>1828.000000</ele>
<time>2008-08-10T06:39:43.000Z</time>
<sat>0</sat>
<fix>3d</fix>
<hdop>0.00</hdop>
<vdop>0.00</vdop>
<pdop>0.00</pdop>
</trkpt>
<trkpt lat="46.474215" lon="8.449622">
<ele>1811.800000</ele>
<time>2008-08-10T06:39:55.000Z</time>
<sat>0</sat>
<fix>3d</fix>
<hdop>0.00</hdop>
<vdop>0.00</vdop>
<pdop>0.00</pdop>
</trkpt>
<trkpt lat="46.476502" lon="8.453277">
<ele>1782.500000</ele>
<time>2008-08-10T06:40:15.000Z</time>
<sat>0</sat>
<fix>3d</fix>
<hdop>0.00</hdop>
<vdop>0.00</vdop>
<pdop>0.00</pdop>
</trkpt>
<trkpt lat="46.478728" lon="8.459032">
<ele>1731.200000</ele>
<time>2008-08-10T06:40:35.000Z</time>
<sat>0</sat>
<fix>3d</fix>
<hdop>0.00</hdop>
<vdop>0.00</vdop>
<pdop>0.00</pdop>
</trkpt>
<trkpt lat="46.480780" lon="8.461402">
<ele>1701.300000</ele>
<time>2008-08-10T06:40:47.000Z</time>
<sat>0</sat>
<fix>3d</fix>
<hdop>0.00</hdop>
<vdop>0.00</vdop>
<pdop>0.00</pdop>
</trkpt>
<trkpt lat="46.482772" lon="8.465452">
<ele>1670.000000</ele>
<time>2008-08-10T06:41:03.000Z</time>
<sat>0</sat>
<fix>3d</fix>
<hdop>0.00</hdop>
<vdop>0.00</vdop>
<pdop>0.00</pdop>
</trkpt>
<trkpt lat="46.483080" lon="8.468665">
<ele>1652.200000</ele>
<time>2008-08-10T06:41:15.000Z</time>
<sat>0</sat>
<fix>3d</fix>
<hdop>0.00</hdop>
<vdop>0.00</vdop>
<pdop>0.00</pdop>
</trkpt>
<trkpt lat="46.484925" lon="8.470545">
<ele>1632.300000</ele>
<time>2008-08-10T06:41:27.000Z</time>
<sat>0</sat>
<fix>3d</fix>
<hdop>0.00</hdop>
<vdop>0.00</vdop>
<pdop>0.00</pdop>
</trkpt>
<trkpt lat="46.485973" lon="8.474150">
<ele>1622.700000</ele>
<time>2008-08-10T06:41:43.000Z</time>
<sat>0</sat>
<fix>3d</fix>
<hdop>0.00</hdop>
<vdop>0.00</vdop>
<pdop>0.00</pdop>
</trkpt>
<trkpt lat="46.487157" lon="8.475858">
<ele>1617.500000</ele>
<time>2008-08-10T06:41:59.000Z</time>
<sat>0</sat>
<fix>3d</fix>
<hdop>0.00</hdop>
<vdop>0.00</vdop>
<pdop>0.00</pdop>
</trkpt>
<trkpt lat="46.491828" lon="8.489482">
<ele>1532.100000</ele>
<time>2008-08-10T06:42:47.000Z</time>
<sat>0</sat>
<fix>3d</fix>
<hdop>0.00</hdop>
<vdop>0.00</vdop>
<pdop>0.00</pdop>
</trkpt>
<trkpt lat="46.495560" lon="8.494198">
<ele>1495.400000</ele>
<time>2008-08-10T06:43:11.000Z</time>
<sat>0</sat>
<fix>3d</fix>
<hdop>0.00</hdop>
<vdop>0.00</vdop>
<pdop>0.00</pdop>
</trkpt>
<trkpt lat="46.497278" lon="8.498340">
<ele>1478.900000</ele>
<time>2008-08-10T06:43:27.000Z</time>
<sat>0</sat>
<fix>3d</fix>
<hdop>0.00</hdop>
<vdop>0.00</vdop>
<pdop>0.00</pdop>
</trkpt>
<trkpt lat="46.497718" lon="8.501465">
<ele>1454.100000</ele>
<time>2008-08-10T06:43:39.000Z</time>
<sat>0</sat>
<fix>3d</fix>
<hdop>0.00</hdop>
<vdop>0.00</vdop>
<pdop>0.00</pdop>
</trkpt>
<trkpt lat="46.501000" lon="8.503743">
<ele>1418.300000</ele>
<time>2008-08-10T06:43:55.000Z</time>
<sat>0</sat>
<fix>3d</fix>
<hdop>0.00</hdop>
<vdop>0.00</vdop>
<pdop>0.00</pdop>
</trkpt>
<trkpt lat="46.505832" lon="8.514297">
<ele>1373.600000</ele>
<time>2008-08-10T06:44:31.000Z</time>
<sat>0</sat>
<fix>3d</fix>
<hdop>0.00</hdop>
<vdop>0.00</vdop>
<pdop>0.00</pdop>
</trkpt>
<trkpt lat="46.508957" lon="8.523573">
<ele>1341.300000</ele>
<time>2008-08-10T06:45:03.000Z</time>
<sat>0</sat>
<fix>3d</fix>
<hdop>0.00</hdop>
<vdop>0.00</vdop>
<pdop>0.00</pdop>
</trkpt>
<trkpt lat="46.509182" lon="8.526020">
<ele>1336.300000</ele>
<time>2008-08-10T06:45:11.000Z</time>
<sat>0</sat>
<fix>3d</fix>
<hdop>0.00</hdop>
<vdop>0.00</vdop>
<pdop>0.00</pdop>
</trkpt>
<trkpt lat="46.511032" lon="8.531480">
<ele>1325.400000</ele>
<time>2008-08-10T06:45:31.000Z</time>
<sat>0</sat>
<fix>3d</fix>
<hdop>0.00</hdop>
<vdop>0.00</vdop>
<pdop>0.00</pdop>
</trkpt>
<trkpt lat="46.511223" lon="8.534482">
<ele>1324.000000</ele>
<time>2008-08-10T06:45:43.000Z</time>
<sat>0</sat>
<fix>3d</fix>
<hdop>0.00</hdop>
<vdop>0.00</vdop>
<pdop>0.00</pdop>
</trkpt>
<trkpt lat="46.513333" lon="8.539827">
<ele>1318.300000</ele>
<time>2008-08-10T06:46:11.000Z</time>
<sat>0</sat>
<fix>3d</fix>
<hdop>0.00</hdop>
<vdop>0.00</vdop>
<pdop>0.00</pdop>
</trkpt>
<trkpt lat="46.514102" lon="8.544900">
<ele>1312.700000</ele>
<time>2008-08-10T06:46:27.000Z</time>
<sat>0</sat>
<fix>3d</fix>
<hdop>0.00</hdop>
<vdop>0.00</vdop>
<pdop>0.00</pdop>
</trkpt>
<trkpt lat="46.516373" lon="8.550312">
<ele>1304.200000</ele>
<time>2008-08-10T06:46:47.000Z</time>
<sat>0</sat>
<fix>3d</fix>
<hdop>0.00</hdop>
<vdop>0.00</vdop>
<pdop>0.00</pdop>
</trkpt>
<trkpt lat="46.517128" lon="8.557822">
<ele>1293.400000</ele>
<time>2008-08-10T06:47:11.000Z</time>
<sat>0</sat>
<fix>3d</fix>
<hdop>0.00</hdop>
<vdop>0.00</vdop>
<pdop>0.00</pdop>
</trkpt>
<trkpt lat="46.519317" lon="8.562915">
<ele>1286.600000</ele>
<time>2008-08-10T06:47:39.000Z</time>
<sat>0</sat>
<fix>3d</fix>
<hdop>0.00</hdop>
<vdop>0.00</vdop>
<pdop>0.00</pdop>
</trkpt>
<trkpt lat="46.521382" lon="8.575268">
<ele>1267.900000</ele>
<time>2008-08-10T06:48:23.000Z</time>
<sat>0</sat>
<fix>3d</fix>
<hdop>0.00</hdop>
<vdop>0.00</vdop>
<pdop>0.00</pdop>
</trkpt>
<trkpt lat="46.521140" lon="8.577517">
<ele>1261.300000</ele>
<time>2008-08-10T06:48:31.000Z</time>
<sat>0</sat>
<fix>3d</fix>
<hdop>0.00</hdop>
<vdop>0.00</vdop>
<pdop>0.00</pdop>
</trkpt>
<trkpt lat="46.522380" lon="8.581472">
<ele>1247.800000</ele>
<time>2008-08-10T06:48:47.000Z</time>
<sat>0</sat>
<fix>3d</fix>
<hdop>0.00</hdop>
<vdop>0.00</vdop>
<pdop>0.00</pdop>
</trkpt>
<trkpt lat="46.523910" lon="8.592133">
<ele>1206.900000</ele>
<time>2008-08-10T06:49:27.000Z</time>
<sat>0</sat>
<fix>3d</fix>
<hdop>0.00</hdop>
<vdop>0.00</vdop>
<pdop>0.00</pdop>
</trkpt>
<trkpt lat="46.525025" lon="8.594870">
<ele>1195.700000</ele>
<time>2008-08-10T06:49:39.000Z</time>
<sat>0</sat>
<fix>3d</fix>
<hdop>0.00</hdop>
<vdop>0.00</vdop>
<pdop>0.00</pdop>
</trkpt>
<trkpt lat="46.525282" lon="8.598220">
<ele>1179.300000</ele>
<time>2008-08-10T06:49:51.000Z</time>
<sat>0</sat>
<fix>3d</fix>
<hdop>0.00</hdop>
<vdop>0.00</vdop>
<pdop>0.00</pdop>
</trkpt>
<trkpt lat="46.524450" lon="8.602860">
<ele>1165.000000</ele>
<time>2008-08-10T06:50:11.000Z</time>
<sat>0</sat>
<fix>3d</fix>
<hdop>0.00</hdop>
<vdop>0.00</vdop>
<pdop>0.00</pdop>
</trkpt>
<trkpt lat="46.525485" lon="8.600162">
<ele>1158.300000</ele>
<time>2008-08-10T06:50:27.000Z</time>
<sat>0</sat>
<fix>3d</fix>
<hdop>0.00</hdop>
<vdop>0.00</vdop>
<pdop>0.00</pdop>
</trkpt>
<trkpt lat="46.526898" lon="8.599073">
<ele>1157.300000</ele>
<time>2008-08-10T06:50:35.000Z</time>
<sat>0</sat>
<fix>3d</fix>
<hdop>0.00</hdop>
<vdop>0.00</vdop>
<pdop>0.00</pdop>
</trkpt>
<trkpt lat="46.528215" lon="8.600045">
<ele>1155.600000</ele>
<time>2008-08-10T06:50:43.000Z</time>
<sat>0</sat>
<fix>3d</fix>
<hdop>0.00</hdop>
<vdop>0.00</vdop>
<pdop>0.00</pdop>
</trkpt>
<trkpt lat="46.528503" lon="8.603323">
<ele>1153.800000</ele>
<time>2008-08-10T06:50:59.000Z</time>
<sat>0</sat>
<fix>3d</fix>
<hdop>0.00</hdop>
<vdop>0.00</vdop>
<pdop>0.00</pdop>
</trkpt>
<trkpt lat="46.528872" lon="8.601313">
<ele>1166.000000</ele>
<time>2008-08-10T06:51:15.000Z</time>
<sat>0</sat>
<fix>3d</fix>
<hdop>0.00</hdop>
<vdop>0.00</vdop>
<pdop>0.00</pdop>
</trkpt>
<trkpt lat="46.529523" lon="8.604052">
<ele>1185.700000</ele>
<time>2008-08-10T06:51:31.000Z</time>
<sat>0</sat>
<fix>3d</fix>
<hdop>0.00</hdop>
<vdop>0.00</vdop>
<pdop>0.00</pdop>
</trkpt>
<trkpt lat="46.528628" lon="8.596185">
<ele>1211.200000</ele>
<time>2008-08-10T06:52:15.000Z</time>
<sat>0</sat>
<fix>3d</fix>
<hdop>0.00</hdop>
<vdop>0.00</vdop>
<pdop>0.00</pdop>
</trkpt>
<trkpt lat="46.526793" lon="8.588107">
<ele>1262.900000</ele>
<time>2008-08-10T06:52:47.000Z</time>
<sat>0</sat>
<fix>3d</fix>
<hdop>0.00</hdop>
<vdop>0.00</vdop>
<pdop>0.00</pdop>
</trkpt>
<trkpt lat="46.529115" lon="8.591805">
<ele>1291.300000</ele>
<time>2008-08-10T06:53:07.000Z</time>
<sat>0</sat>
<fix>3d</fix>
<hdop>0.00</hdop>
<vdop>0.00</vdop>
<pdop>0.00</pdop>
</trkpt>
<trkpt lat="46.529138" lon="8.590500">
<ele>1297.300000</ele>
<time>2008-08-10T06:53:15.000Z</time>
<sat>0</sat>
<fix>3d</fix>
<hdop>0.00</hdop>
<vdop>0.00</vdop>
<pdop>0.00</pdop>
</trkpt>
<trkpt lat="46.531040" lon="8.592288">
<ele>1327.300000</ele>
<time>2008-08-10T06:53:35.000Z</time>
<sat>0</sat>
<fix>3d</fix>
<hdop>0.00</hdop>
<vdop>0.00</vdop>
<pdop>0.00</pdop>
</trkpt>
<trkpt lat="46.530097" lon="8.588643">
<ele>1346.600000</ele>
<time>2008-08-10T06:53:55.000Z</time>
<sat>0</sat>
<fix>3d</fix>
<hdop>0.00</hdop>
<vdop>0.00</vdop>
<pdop>0.00</pdop>
</trkpt>
<trkpt lat="46.530808" lon="8.590795">
<ele>1358.600000</ele>
<time>2008-08-10T06:54:07.000Z</time>
<sat>0</sat>
<fix>3d</fix>
<hdop>0.00</hdop>
<vdop>0.00</vdop>
<pdop>0.00</pdop>
</trkpt>
<trkpt lat="46.532430" lon="8.592528">
<ele>1376.600000</ele>
<time>2008-08-10T06:54:19.000Z</time>
<sat>0</sat>
<fix>3d</fix>
<hdop>0.00</hdop>
<vdop>0.00</vdop>
<pdop>0.00</pdop>
</trkpt>
<trkpt lat="46.531370" lon="8.590622">
<ele>1389.300000</ele>
<time>2008-08-10T06:54:31.000Z</time>
<sat>0</sat>
<fix>3d</fix>
<hdop>0.00</hdop>
<vdop>0.00</vdop>
<pdop>0.00</pdop>
</trkpt>
<trkpt lat="46.530183" lon="8.584407">
<ele>1431.300000</ele>
<time>2008-08-10T06:54:55.000Z</time>
<sat>0</sat>
<fix>3d</fix>
<hdop>0.00</hdop>
<vdop>0.00</vdop>
<pdop>0.00</pdop>
</trkpt>
<trkpt lat="46.532252" lon="8.589540">
<ele>1467.800000</ele>
<time>2008-08-10T06:55:19.000Z</time>
<sat>0</sat>
<fix>3d</fix>
<hdop>0.00</hdop>
<vdop>0.00</vdop>
<pdop>0.00</pdop>
</trkpt>
<trkpt lat="46.531390" lon="8.585735">
<ele>1492.900000</ele>
<time>2008-08-10T06:55:43.000Z</time>
<sat>0</sat>
<fix>3d</fix>
<hdop>0.00</hdop>
<vdop>0.00</vdop>
<pdop>0.00</pdop>
</trkpt>
<trkpt lat="46.532785" lon="8.588953">
<ele>1516.200000</ele>
<time>2008-08-10T06:55:59.000Z</time>
<sat>0</sat>
<fix>3d</fix>
<hdop>0.00</hdop>
<vdop>0.00</vdop>
<pdop>0.00</pdop>
</trkpt>
<trkpt lat="46.534382" lon="8.590388">
<ele>1533.000000</ele>
<time>2008-08-10T06:56:11.000Z</time>
<sat>0</sat>
<fix>3d</fix>
<hdop>0.00</hdop>
<vdop>0.00</vdop>
<pdop>0.00</pdop>
</trkpt>
<trkpt lat="46.535482" lon="8.586170">
<ele>1539.500000</ele>
<time>2008-08-10T06:56:35.000Z</time>
<sat>0</sat>
<fix>3d</fix>
<hdop>0.00</hdop>
<vdop>0.00</vdop>
<pdop>0.00</pdop>
</trkpt>
<trkpt lat="46.534865" lon="8.583478">
<ele>1551.600000</ele>
<time>2008-08-10T06:56:47.000Z</time>
<sat>0</sat>
<fix>3d</fix>
<hdop>0.00</hdop>
<vdop>0.00</vdop>
<pdop>0.00</pdop>
</trkpt>
<trkpt lat="46.533813" lon="8.584538">
<ele>1565.800000</ele>
<time>2008-08-10T06:56:59.000Z</time>
<sat>0</sat>
<fix>3d</fix>
<hdop>0.00</hdop>
<vdop>0.00</vdop>
<pdop>0.00</pdop>
</trkpt>
<trkpt lat="46.533265" lon="8.581943">
<ele>1582.800000</ele>
<time>2008-08-10T06:57:11.000Z</time>
<sat>0</sat>
<fix>3d</fix>
<hdop>0.00</hdop>
<vdop>0.00</vdop>
<pdop>0.00</pdop>
</trkpt>
<trkpt lat="46.531908" lon="8.581073">
<ele>1598.500000</ele>
<time>2008-08-10T06:57:23.000Z</time>
<sat>0</sat>
<fix>3d</fix>
<hdop>0.00</hdop>
<vdop>0.00</vdop>
<pdop>0.00</pdop>
</trkpt>
<trkpt lat="46.533772" lon="8.581285">
<ele>1615.400000</ele>
<time>2008-08-10T06:57:39.000Z</time>
<sat>0</sat>
<fix>3d</fix>
<hdop>0.00</hdop>
<vdop>0.00</vdop>
<pdop>0.00</pdop>
</trkpt>
<trkpt lat="46.532552" lon="8.580855">
<ele>1625.900000</ele>
<time>2008-08-10T06:57:51.000Z</time>
<sat>0</sat>
<fix>3d</fix>
<hdop>0.00</hdop>
<vdop>0.00</vdop>
<pdop>0.00</pdop>
</trkpt>
<trkpt lat="46.538187" lon="8.579113">
<ele>1679.500000</ele>
<time>2008-08-10T06:58:27.000Z</time>
<sat>0</sat>
<fix>3d</fix>
<hdop>0.00</hdop>
<vdop>0.00</vdop>
<pdop>0.00</pdop>
</trkpt>
<trkpt lat="46.539240" lon="8.580142">
<ele>1692.000000</ele>
<time>2008-08-10T06:58:35.000Z</time>
<sat>0</sat>
<fix>3d</fix>
<hdop>0.00</hdop>
<vdop>0.00</vdop>
<pdop>0.00</pdop>
</trkpt>
<trkpt lat="46.540340" lon="8.579480">
<ele>1704.000000</ele>
<time>2008-08-10T06:58:43.000Z</time>
<sat>0</sat>
<fix>3d</fix>
<hdop>0.00</hdop>
<vdop>0.00</vdop>
<pdop>0.00</pdop>
</trkpt>
<trkpt lat="46.541157" lon="8.574297">
<ele>1731.600000</ele>
<time>2008-08-10T06:59:03.000Z</time>
<sat>0</sat>
<fix>3d</fix>
<hdop>0.00</hdop>
<vdop>0.00</vdop>
<pdop>0.00</pdop>
</trkpt>
<trkpt lat="46.542425" lon="8.571575">
<ele>1753.900000</ele>
<time>2008-08-10T06:59:23.000Z</time>
<sat>0</sat>
<fix>3d</fix>
<hdop>0.00</hdop>
<vdop>0.00</vdop>
<pdop>0.00</pdop>
</trkpt>
<trkpt lat="46.542285" lon="8.572133">
<ele>1760.000000</ele>
<time>2008-08-10T06:59:35.000Z</time>
<sat>0</sat>
<fix>3d</fix>
<hdop>0.00</hdop>
<vdop>0.00</vdop>
<pdop>0.00</pdop>
</trkpt>
<trkpt lat="46.542727" lon="8.571403">
<ele>1765.000000</ele>
<time>2008-08-10T06:59:43.000Z</time>
<sat>0</sat>
<fix>3d</fix>
<hdop>0.00</hdop>
<vdop>0.00</vdop>
<pdop>0.00</pdop>
</trkpt>
<trkpt lat="46.542428" lon="8.572310">
<ele>1770.400000</ele>
<time>2008-08-10T06:59:55.000Z</time>
<sat>0</sat>
<fix>3d</fix>
<hdop>0.00</hdop>
<vdop>0.00</vdop>
<pdop>0.00</pdop>
</trkpt>
<trkpt lat="46.543613" lon="8.570150">
<ele>1785.200000</ele>
<time>2008-08-10T07:00:11.000Z</time>
<sat>0</sat>
<fix>3d</fix>
<hdop>0.00</hdop>
<vdop>0.00</vdop>
<pdop>0.00</pdop>
</trkpt>
<trkpt lat="46.543597" lon="8.570993">
<ele>1792.300000</ele>
<time>2008-08-10T07:00:23.000Z</time>
<sat>0</sat>
<fix>3d</fix>
<hdop>0.00</hdop>
<vdop>0.00</vdop>
<pdop>0.00</pdop>
</trkpt>
<trkpt lat="46.544027" lon="8.569267">
<ele>1797.800000</ele>
<time>2008-08-10T07:00:35.000Z</time>
<sat>0</sat>
<fix>3d</fix>
<hdop>0.00</hdop>
<vdop>0.00</vdop>
<pdop>0.00</pdop>
</trkpt>
<trkpt lat="46.543957" lon="8.570740">
<ele>1808.600000</ele>
<time>2008-08-10T07:00:47.000Z</time>
<sat>0</sat>
<fix>3d</fix>
<hdop>0.00</hdop>
<vdop>0.00</vdop>
<pdop>0.00</pdop>
</trkpt>
<trkpt lat="46.544758" lon="8.568975">
<ele>1826.400000</ele>
<time>2008-08-10T07:01:03.000Z</time>
<sat>0</sat>
<fix>3d</fix>
<hdop>0.00</hdop>
<vdop>0.00</vdop>
<pdop>0.00</pdop>
</trkpt>
<trkpt lat="46.544338" lon="8.570930">
<ele>1837.700000</ele>
<time>2008-08-10T07:01:19.000Z</time>
<sat>0</sat>
<fix>3d</fix>
<hdop>0.00</hdop>
<vdop>0.00</vdop>
<pdop>0.00</pdop>
</trkpt>
<trkpt lat="46.545958" lon="8.567205">
<ele>1869.500000</ele>
<time>2008-08-10T07:01:47.000Z</time>
<sat>0</sat>
<fix>3d</fix>
<hdop>0.00</hdop>
<vdop>0.00</vdop>
<pdop>0.00</pdop>
</trkpt>
<trkpt lat="46.545830" lon="8.567837">
<ele>1873.300000</ele>
<time>2008-08-10T07:01:55.000Z</time>
<sat>0</sat>
<fix>3d</fix>
<hdop>0.00</hdop>
<vdop>0.00</vdop>
<pdop>0.00</pdop>
</trkpt>
<trkpt lat="46.546212" lon="8.566657">
<ele>1878.700000</ele>
<time>2008-08-10T07:02:07.000Z</time>
<sat>0</sat>
<fix>3d</fix>
<hdop>0.00</hdop>
<vdop>0.00</vdop>
<pdop>0.00</pdop>
</trkpt>
<trkpt lat="46.546442" lon="8.567813">
<ele>1883.100000</ele>
<time>2008-08-10T07:02:15.000Z</time>
<sat>0</sat>
<fix>3d</fix>
<hdop>0.00</hdop>
<vdop>0.00</vdop>
<pdop>0.00</pdop>
</trkpt>
<trkpt lat="46.545810" lon="8.568642">
<ele>1889.100000</ele>
<time>2008-08-10T07:02:23.000Z</time>
<sat>0</sat>
<fix>3d</fix>
<hdop>0.00</hdop>
<vdop>0.00</vdop>
<pdop>0.00</pdop>
</trkpt>
<trkpt lat="46.548107" lon="8.566657">
<ele>1916.300000</ele>
<time>2008-08-10T07:02:47.000Z</time>
<sat>0</sat>
<fix>3d</fix>
<hdop>0.00</hdop>
<vdop>0.00</vdop>
<pdop>0.00</pdop>
</trkpt>
<trkpt lat="46.546330" lon="8.569783">
<ele>1947.200000</ele>
<time>2008-08-10T07:03:15.000Z</time>
<sat>0</sat>
<fix>3d</fix>
<hdop>0.00</hdop>
<vdop>0.00</vdop>
<pdop>0.00</pdop>
</trkpt>
<trkpt lat="46.547447" lon="8.569242">
<ele>1959.800000</ele>
<time>2008-08-10T07:03:27.000Z</time>
<sat>0</sat>
<fix>3d</fix>
<hdop>0.00</hdop>
<vdop>0.00</vdop>
<pdop>0.00</pdop>
</trkpt>
<trkpt lat="46.547920" lon="8.568003">
<ele>1965.400000</ele>
<time>2008-08-10T07:03:35.000Z</time>
<sat>0</sat>
<fix>3d</fix>
<hdop>0.00</hdop>
<vdop>0.00</vdop>
<pdop>0.00</pdop>
</trkpt>
<trkpt lat="46.548798" lon="8.567820">
<ele>1976.700000</ele>
<time>2008-08-10T07:03:55.000Z</time>
<sat>0</sat>
<fix>3d</fix>
<hdop>0.00</hdop>
<vdop>0.00</vdop>
<pdop>0.00</pdop>
</trkpt>
<trkpt lat="46.548525" lon="8.568293">
<ele>1980.000000</ele>
<time>2008-08-10T07:04:03.000Z</time>
<sat>0</sat>
<fix>3d</fix>
<hdop>0.00</hdop>
<vdop>0.00</vdop>
<pdop>0.00</pdop>
</trkpt>
<trkpt lat="46.549428" lon="8.568140">
<ele>1987.500000</ele>
<time>2008-08-10T07:04:15.000Z</time>
<sat>0</sat>
<fix>3d</fix>
<hdop>0.00</hdop>
<vdop>0.00</vdop>
<pdop>0.00</pdop>
</trkpt>
<trkpt lat="46.548762" lon="8.568607">
<ele>1993.600000</ele>
<time>2008-08-10T07:04:23.000Z</time>
<sat>0</sat>
<fix>3d</fix>
<hdop>0.00</hdop>
<vdop>0.00</vdop>
<pdop>0.00</pdop>
</trkpt>
<trkpt lat="46.549805" lon="8.569100">
<ele>2005.900000</ele>
<time>2008-08-10T07:04:39.000Z</time>
<sat>0</sat>
<fix>3d</fix>
<hdop>0.00</hdop>
<vdop>0.00</vdop>
<pdop>0.00</pdop>
</trkpt>
<trkpt lat="46.549122" lon="8.569085">
<ele>2012.300000</ele>
<time>2008-08-10T07:04:47.000Z</time>
<sat>0</sat>
<fix>3d</fix>
<hdop>0.00</hdop>
<vdop>0.00</vdop>
<pdop>0.00</pdop>
</trkpt>
<trkpt lat="46.550700" lon="8.572858">
<ele>2038.100000</ele>
<time>2008-08-10T07:06:31.000Z</time>
<sat>0</sat>
<fix>3d</fix>
<hdop>0.00</hdop>
<vdop>0.00</vdop>
<pdop>0.00</pdop>
</trkpt>
<trkpt lat="46.552797" lon="8.571673">
<ele>2055.400000</ele>
<time>2008-08-10T07:06:47.000Z</time>
<sat>0</sat>
<fix>3d</fix>
<hdop>0.00</hdop>
<vdop>0.00</vdop>
<pdop>0.00</pdop>
</trkpt>
<trkpt lat="46.555530" lon="8.566632">
<ele>2097.700000</ele>
<time>2008-08-10T07:07:31.000Z</time>
<sat>0</sat>
<fix>3d</fix>
<hdop>0.00</hdop>
<vdop>0.00</vdop>
<pdop>0.00</pdop>
</trkpt>
<trkpt lat="46.556282" lon="8.567433">
<ele>2094.800000</ele>
<time>2008-08-10T07:10:15.000Z</time>
<sat>0</sat>
<fix>3d</fix>
<hdop>0.00</hdop>
<vdop>0.00</vdop>
<pdop>0.00</pdop>
</trkpt>
<trkpt lat="46.557717" lon="8.566100">
<ele>2097.700000</ele>
<time>2008-08-10T07:10:39.000Z</time>
<sat>0</sat>
<fix>3d</fix>
<hdop>0.00</hdop>
<vdop>0.00</vdop>
<pdop>0.00</pdop>
</trkpt>
<trkpt lat="46.560093" lon="8.559748">
<ele>2107.200000</ele>
<time>2008-08-10T07:11:27.000Z</time>
<sat>0</sat>
<fix>3d</fix>
<hdop>0.00</hdop>
<vdop>0.00</vdop>
<pdop>0.00</pdop>
</trkpt>
<trkpt lat="46.560957" lon="8.559112">
<ele>2096.400000</ele>
<time>2008-08-10T07:11:35.000Z</time>
<sat>0</sat>
<fix>3d</fix>
<hdop>0.00</hdop>
<vdop>0.00</vdop>
<pdop>0.00</pdop>
</trkpt>
<trkpt lat="46.562802" lon="8.559395">
<ele>2074.000000</ele>
<time>2008-08-10T07:11:51.000Z</time>
<sat>0</sat>
<fix>3d</fix>
<hdop>0.00</hdop>
<vdop>0.00</vdop>
<pdop>0.00</pdop>
</trkpt>
<trkpt lat="46.562228" lon="8.556373">
<ele>2053.700000</ele>
<time>2008-08-10T07:12:11.000Z</time>
<sat>0</sat>
<fix>3d</fix>
<hdop>0.00</hdop>
<vdop>0.00</vdop>
<pdop>0.00</pdop>
</trkpt>
<trkpt lat="46.564478" lon="8.557393">
<ele>2026.600000</ele>
<time>2008-08-10T07:12:31.000Z</time>
<sat>0</sat>
<fix>3d</fix>
<hdop>0.00</hdop>
<vdop>0.00</vdop>
<pdop>0.00</pdop>
</trkpt>
<trkpt lat="46.564977" lon="8.556245">
<ele>2018.100000</ele>
<time>2008-08-10T07:12:39.000Z</time>
<sat>0</sat>
<fix>3d</fix>
<hdop>0.00</hdop>
<vdop>0.00</vdop>
<pdop>0.00</pdop>
</trkpt>
<trkpt lat="46.566462" lon="8.555605">
<ele>2002.400000</ele>
<time>2008-08-10T07:12:51.000Z</time>
<sat>0</sat>
<fix>3d</fix>
<hdop>0.00</hdop>
<vdop>0.00</vdop>
<pdop>0.00</pdop>
</trkpt>
<trkpt lat="46.574493" lon="8.559517">
<ele>1957.500000</ele>
<time>2008-08-10T07:13:55.000Z</time>
<sat>0</sat>
<fix>3d</fix>
<hdop>0.00</hdop>
<vdop>0.00</vdop>
<pdop>0.00</pdop>
</trkpt>
<trkpt lat="46.575582" lon="8.558295">
<ele>1947.800000</ele>
<time>2008-08-10T07:14:07.000Z</time>
<sat>0</sat>
<fix>3d</fix>
<hdop>0.00</hdop>
<vdop>0.00</vdop>
<pdop>0.00</pdop>
</trkpt>
<trkpt lat="46.577557" lon="8.558985">
<ele>1935.800000</ele>
<time>2008-08-10T07:14:23.000Z</time>
<sat>0</sat>
<fix>3d</fix>
<hdop>0.00</hdop>
<vdop>0.00</vdop>
<pdop>0.00</pdop>
</trkpt>
<trkpt lat="46.578675" lon="8.557992">
<ele>1927.400000</ele>
<time>2008-08-10T07:14:35.000Z</time>
<sat>0</sat>
<fix>3d</fix>
<hdop>0.00</hdop>
<vdop>0.00</vdop>
<pdop>0.00</pdop>
</trkpt>
<trkpt lat="46.582068" lon="8.559142">
<ele>1903.800000</ele>
<time>2008-08-10T07:15:07.000Z</time>
<sat>0</sat>
<fix>3d</fix>
<hdop>0.00</hdop>
<vdop>0.00</vdop>
<pdop>0.00</pdop>
</trkpt>
<trkpt lat="46.584493" lon="8.557458">
<ele>1887.900000</ele>
<time>2008-08-10T07:15:27.000Z</time>
<sat>0</sat>
<fix>3d</fix>
<hdop>0.00</hdop>
<vdop>0.00</vdop>
<pdop>0.00</pdop>
</trkpt>
<trkpt lat="46.588420" lon="8.556942">
<ele>1843.500000</ele>
<time>2008-08-10T07:15:47.000Z</time>
<sat>0</sat>
<fix>3d</fix>
<hdop>0.00</hdop>
<vdop>0.00</vdop>
<pdop>0.00</pdop>
</trkpt>
<trkpt lat="46.590525" lon="8.557733">
<ele>1824.300000</ele>
<time>2008-08-10T07:15:59.000Z</time>
<sat>0</sat>
<fix>3d</fix>
<hdop>0.00</hdop>
<vdop>0.00</vdop>
<pdop>0.00</pdop>
</trkpt>
<trkpt lat="46.592557" lon="8.561550">
<ele>1792.200000</ele>
<time>2008-08-10T07:16:19.000Z</time>
<sat>0</sat>
<fix>3d</fix>
<hdop>0.00</hdop>
<vdop>0.00</vdop>
<pdop>0.00</pdop>
</trkpt>
<trkpt lat="46.591197" lon="8.560098">
<ele>1778.700000</ele>
<time>2008-08-10T07:16:31.000Z</time>
<sat>0</sat>
<fix>3d</fix>
<hdop>0.00</hdop>
<vdop>0.00</vdop>
<pdop>0.00</pdop>
</trkpt>
<trkpt lat="46.591050" lon="8.560873">
<ele>1774.300000</ele>
<time>2008-08-10T07:16:35.000Z</time>
<sat>0</sat>
<fix>3d</fix>
<hdop>0.00</hdop>
<vdop>0.00</vdop>
<pdop>0.00</pdop>
</trkpt>
<trkpt lat="46.592707" lon="8.562925">
<ele>1756.200000</ele>
<time>2008-08-10T07:16:47.000Z</time>
<sat>0</sat>
<fix>3d</fix>
<hdop>0.00</hdop>
<vdop>0.00</vdop>
<pdop>0.00</pdop>
</trkpt>
<trkpt lat="46.594113" lon="8.562200">
<ele>1742.000000</ele>
<time>2008-08-10T07:16:55.000Z</time>
<sat>0</sat>
<fix>3d</fix>
<hdop>0.00</hdop>
<vdop>0.00</vdop>
<pdop>0.00</pdop>
</trkpt>
<trkpt lat="46.597638" lon="8.563275">
<ele>1713.500000</ele>
<time>2008-08-10T07:17:19.000Z</time>
<sat>0</sat>
<fix>3d</fix>
<hdop>0.00</hdop>
<vdop>0.00</vdop>
<pdop>0.00</pdop>
</trkpt>
<trkpt lat="46.599427" lon="8.562997">
<ele>1697.800000</ele>
<time>2008-08-10T07:17:31.000Z</time>
<sat>0</sat>
<fix>3d</fix>
<hdop>0.00</hdop>
<vdop>0.00</vdop>
<pdop>0.00</pdop>
</trkpt>
<trkpt lat="46.606178" lon="8.566252">
<ele>1652.400000</ele>
<time>2008-08-10T07:18:03.000Z</time>
<sat>0</sat>
<fix>3d</fix>
<hdop>0.00</hdop>
<vdop>0.00</vdop>
<pdop>0.00</pdop>
</trkpt>
<trkpt lat="46.610527" lon="8.572190">
<ele>1618.600000</ele>
<time>2008-08-10T07:18:31.000Z</time>
<sat>0</sat>
<fix>3d</fix>
<hdop>0.00</hdop>
<vdop>0.00</vdop>
<pdop>0.00</pdop>
</trkpt>
<trkpt lat="46.611765" lon="8.571145">
<ele>1610.400000</ele>
<time>2008-08-10T07:18:39.000Z</time>
<sat>0</sat>
<fix>3d</fix>
<hdop>0.00</hdop>
<vdop>0.00</vdop>
<pdop>0.00</pdop>
</trkpt>
<trkpt lat="46.613210" lon="8.572045">
<ele>1595.300000</ele>
<time>2008-08-10T07:18:47.000Z</time>
<sat>0</sat>
<fix>3d</fix>
<hdop>0.00</hdop>
<vdop>0.00</vdop>
<pdop>0.00</pdop>
</trkpt>
<trkpt lat="46.615527" lon="8.570950">
<ele>1569.800000</ele>
<time>2008-08-10T07:19:03.000Z</time>
<sat>0</sat>
<fix>3d</fix>
<hdop>0.00</hdop>
<vdop>0.00</vdop>
<pdop>0.00</pdop>
</trkpt>
<trkpt lat="46.616530" lon="8.569298">
<ele>1557.800000</ele>
<time>2008-08-10T07:19:11.000Z</time>
<sat>0</sat>
<fix>3d</fix>
<hdop>0.00</hdop>
<vdop>0.00</vdop>
<pdop>0.00</pdop>
</trkpt>
<trkpt lat="46.616323" lon="8.563300">
<ele>1518.500000</ele>
<time>2008-08-10T07:19:35.000Z</time>
<sat>0</sat>
<fix>3d</fix>
<hdop>0.00</hdop>
<vdop>0.00</vdop>
<pdop>0.00</pdop>
</trkpt>
<trkpt lat="46.616930" lon="8.563175">
<ele>1512.500000</ele>
<time>2008-08-10T07:19:39.000Z</time>
<sat>0</sat>
<fix>3d</fix>
<hdop>0.00</hdop>
<vdop>0.00</vdop>
<pdop>0.00</pdop>
</trkpt>
<trkpt lat="46.617225" lon="8.565770">
<ele>1502.400000</ele>
<time>2008-08-10T07:19:51.000Z</time>
<sat>0</sat>
<fix>3d</fix>
<hdop>0.00</hdop>
<vdop>0.00</vdop>
<pdop>0.00</pdop>
</trkpt>
<trkpt lat="46.619387" lon="8.570342">
<ele>1476.800000</ele>
<time>2008-08-10T07:20:19.000Z</time>
<sat>0</sat>
<fix>3d</fix>
<hdop>0.00</hdop>
<vdop>0.00</vdop>
<pdop>0.00</pdop>
</trkpt>
<trkpt lat="46.622277" lon="8.573423">
<ele>1458.500000</ele>
<time>2008-08-10T07:20:35.000Z</time>
<sat>0</sat>
<fix>3d</fix>
<hdop>0.00</hdop>
<vdop>0.00</vdop>
<pdop>0.00</pdop>
</trkpt>
<trkpt lat="46.624547" lon="8.579595">
<ele>1444.900000</ele>
<time>2008-08-10T07:20:59.000Z</time>
<sat>0</sat>
<fix>3d</fix>
<hdop>0.00</hdop>
<vdop>0.00</vdop>
<pdop>0.00</pdop>
</trkpt>
<trkpt lat="46.626465" lon="8.580957">
<ele>1439.800000</ele>
<time>2008-08-10T07:21:27.000Z</time>
<sat>0</sat>
<fix>3d</fix>
<hdop>0.00</hdop>
<vdop>0.00</vdop>
<pdop>0.00</pdop>
</trkpt>
<trkpt lat="46.630425" lon="8.586783">
<ele>1438.500000</ele>
<time>2008-08-10T07:22:15.000Z</time>
<sat>0</sat>
<fix>3d</fix>
<hdop>0.00</hdop>
<vdop>0.00</vdop>
<pdop>0.00</pdop>
</trkpt>
<trkpt lat="46.638673" lon="8.591677">
<ele>1441.200000</ele>
<time>2008-08-10T07:23:11.000Z</time>
<sat>0</sat>
<fix>3d</fix>
<hdop>0.00</hdop>
<vdop>0.00</vdop>
<pdop>0.00</pdop>
</trkpt>
<trkpt lat="46.643453" lon="8.591963">
<ele>1430.300000</ele>
<time>2008-08-10T07:23:39.000Z</time>
<sat>0</sat>
<fix>3d</fix>
<hdop>0.00</hdop>
<vdop>0.00</vdop>
<pdop>0.00</pdop>
</trkpt>
<trkpt lat="46.646943" lon="8.590615">
<ele>1386.600000</ele>
<time>2008-08-10T07:24:11.000Z</time>
<sat>0</sat>
<fix>3d</fix>
<hdop>0.00</hdop>
<vdop>0.00</vdop>
<pdop>0.00</pdop>
</trkpt>
<trkpt lat="46.647885" lon="8.591060">
<ele>1370.800000</ele>
<time>2008-08-10T07:24:19.000Z</time>
<sat>0</sat>
<fix>3d</fix>
<hdop>0.00</hdop>
<vdop>0.00</vdop>
<pdop>0.00</pdop>
</trkpt>
<trkpt lat="46.658665" lon="8.584762">
<ele>1192.900000</ele>
<time>2008-08-10T07:27:31.000Z</time>
<sat>0</sat>
<fix>3d</fix>
<hdop>0.00</hdop>
<vdop>0.00</vdop>
<pdop>0.00</pdop>
</trkpt>
<trkpt lat="46.660977" lon="8.586050">
<ele>1167.100000</ele>
<time>2008-08-10T07:27:47.000Z</time>
<sat>0</sat>
<fix>3d</fix>
<hdop>0.00</hdop>
<vdop>0.00</vdop>
<pdop>0.00</pdop>
</trkpt>
<trkpt lat="46.662575" lon="8.589382">
<ele>1147.600000</ele>
<time>2008-08-10T07:28:03.000Z</time>
<sat>0</sat>
<fix>3d</fix>
<hdop>0.00</hdop>
<vdop>0.00</vdop>
<pdop>0.00</pdop>
</trkpt>
<trkpt lat="46.665208" lon="8.592047">
<ele>1104.700000</ele>
<time>2008-08-10T07:28:23.000Z</time>
<sat>0</sat>
<fix>3d</fix>
<hdop>0.00</hdop>
<vdop>0.00</vdop>
<pdop>0.00</pdop>
</trkpt>
<trkpt lat="46.681585" lon="8.593960">
<ele>993.100000</ele>
<time>2008-08-10T07:30:11.000Z</time>
<sat>0</sat>
<fix>3d</fix>
<hdop>0.00</hdop>
<vdop>0.00</vdop>
<pdop>0.00</pdop>
</trkpt>
<trkpt lat="46.682468" lon="8.593323">
<ele>984.200000</ele>
<time>2008-08-10T07:30:19.000Z</time>
<sat>0</sat>
<fix>3d</fix>
<hdop>0.00</hdop>
<vdop>0.00</vdop>
<pdop>0.00</pdop>
</trkpt>
<trkpt lat="46.683295" lon="8.594500">
<ele>977.700000</ele>
<time>2008-08-10T07:30:31.000Z</time>
<sat>0</sat>
<fix>3d</fix>
<hdop>0.00</hdop>
<vdop>0.00</vdop>
<pdop>0.00</pdop>
</trkpt>
<trkpt lat="46.687995" lon="8.593668">
<ele>967.700000</ele>
<time>2008-08-10T07:31:11.000Z</time>
<sat>0</sat>
<fix>3d</fix>
<hdop>0.00</hdop>
<vdop>0.00</vdop>
<pdop>0.00</pdop>
</trkpt>
<trkpt lat="46.691602" lon="8.595188">
<ele>952.000000</ele>
<time>2008-08-10T07:31:35.000Z</time>
<sat>0</sat>
<fix>3d</fix>
<hdop>0.00</hdop>
<vdop>0.00</vdop>
<pdop>0.00</pdop>
</trkpt>
<trkpt lat="46.692703" lon="8.594865">
<ele>944.200000</ele>
<time>2008-08-10T07:31:43.000Z</time>
<sat>0</sat>
<fix>3d</fix>
<hdop>0.00</hdop>
<vdop>0.00</vdop>
<pdop>0.00</pdop>
</trkpt>
<trkpt lat="46.695553" lon="8.596448">
<ele>920.000000</ele>
<time>2008-08-10T07:32:03.000Z</time>
<sat>0</sat>
<fix>3d</fix>
<hdop>0.00</hdop>
<vdop>0.00</vdop>
<pdop>0.00</pdop>
</trkpt>
<trkpt lat="46.700222" lon="8.596472">
<ele>928.300000</ele>
<time>2008-08-10T07:32:23.000Z</time>
<sat>0</sat>
<fix>3d</fix>
<hdop>0.00</hdop>
<vdop>0.00</vdop>
<pdop>0.00</pdop>
</trkpt>
<trkpt lat="46.703735" lon="8.598763">
<ele>922.200000</ele>
<time>2008-08-10T07:32:43.000Z</time>
<sat>0</sat>
<fix>3d</fix>
<hdop>0.00</hdop>
<vdop>0.00</vdop>
<pdop>0.00</pdop>
</trkpt>
<trkpt lat="46.705428" lon="8.598970">
<ele>915.400000</ele>
<time>2008-08-10T07:32:55.000Z</time>
<sat>0</sat>
<fix>3d</fix>
<hdop>0.00</hdop>
<vdop>0.00</vdop>
<pdop>0.00</pdop>
</trkpt>
<trkpt lat="46.707555" lon="8.600618">
<ele>910.000000</ele>
<time>2008-08-10T07:33:15.000Z</time>
<sat>0</sat>
<fix>3d</fix>
<hdop>0.00</hdop>
<vdop>0.00</vdop>
<pdop>0.00</pdop>
</trkpt>
<trkpt lat="46.708260" lon="8.602862">
<ele>896.700000</ele>
<time>2008-08-10T07:33:27.000Z</time>
<sat>0</sat>
<fix>3d</fix>
<hdop>0.00</hdop>
<vdop>0.00</vdop>
<pdop>0.00</pdop>
</trkpt>
<trkpt lat="46.707073" lon="8.603192">
<ele>891.900000</ele>
<time>2008-08-10T07:33:35.000Z</time>
<sat>0</sat>
<fix>3d</fix>
<hdop>0.00</hdop>
<vdop>0.00</vdop>
<pdop>0.00</pdop>
</trkpt>
<trkpt lat="46.705235" lon="8.600248">
<ele>885.700000</ele>
<time>2008-08-10T07:33:51.000Z</time>
<sat>0</sat>
<fix>3d</fix>
<hdop>0.00</hdop>
<vdop>0.00</vdop>
<pdop>0.00</pdop>
</trkpt>
<trkpt lat="46.704343" lon="8.601202">
<ele>879.800000</ele>
<time>2008-08-10T07:34:03.000Z</time>
<sat>0</sat>
<fix>3d</fix>
<hdop>0.00</hdop>
<vdop>0.00</vdop>
<pdop>0.00</pdop>
</trkpt>
<trkpt lat="46.707703" lon="8.604360">
<ele>857.500000</ele>
<time>2008-08-10T07:34:23.000Z</time>
<sat>0</sat>
<fix>3d</fix>
<hdop>0.00</hdop>
<vdop>0.00</vdop>
<pdop>0.00</pdop>
</trkpt>
<trkpt lat="46.709345" lon="8.603662">
<ele>844.200000</ele>
<time>2008-08-10T07:34:35.000Z</time>
<sat>0</sat>
<fix>3d</fix>
<hdop>0.00</hdop>
<vdop>0.00</vdop>
<pdop>0.00</pdop>
</trkpt>
<trkpt lat="46.710780" lon="8.606287">
<ele>833.100000</ele>
<time>2008-08-10T07:34:47.000Z</time>
<sat>0</sat>
<fix>3d</fix>
<hdop>0.00</hdop>
<vdop>0.00</vdop>
<pdop>0.00</pdop>
</trkpt>
<trkpt lat="46.714718" lon="8.608697">
<ele>824.800000</ele>
<time>2008-08-10T07:35:11.000Z</time>
<sat>0</sat>
<fix>3d</fix>
<hdop>0.00</hdop>
<vdop>0.00</vdop>
<pdop>0.00</pdop>
</trkpt>
<trkpt lat="46.715728" lon="8.612967">
<ele>813.600000</ele>
<time>2008-08-10T07:35:31.000Z</time>
<sat>0</sat>
<fix>3d</fix>
<hdop>0.00</hdop>
<vdop>0.00</vdop>
<pdop>0.00</pdop>
</trkpt>
<trkpt lat="46.717123" lon="8.613645">
<ele>810.200000</ele>
<time>2008-08-10T07:35:39.000Z</time>
<sat>0</sat>
<fix>3d</fix>
<hdop>0.00</hdop>
<vdop>0.00</vdop>
<pdop>0.00</pdop>
</trkpt>
<trkpt lat="46.719792" lon="8.616718">
<ele>783.600000</ele>
<time>2008-08-10T07:35:55.000Z</time>
<sat>0</sat>
<fix>3d</fix>
<hdop>0.00</hdop>
<vdop>0.00</vdop>
<pdop>0.00</pdop>
</trkpt>
<trkpt lat="46.726590" lon="8.621562">
<ele>749.400000</ele>
<time>2008-08-10T07:36:31.000Z</time>
<sat>0</sat>
<fix>3d</fix>
<hdop>0.00</hdop>
<vdop>0.00</vdop>
<pdop>0.00</pdop>
</trkpt>
<trkpt lat="46.729552" lon="8.624607">
<ele>738.600000</ele>
<time>2008-08-10T07:36:59.000Z</time>
<sat>0</sat>
<fix>3d</fix>
<hdop>0.00</hdop>
<vdop>0.00</vdop>
<pdop>0.00</pdop>
</trkpt>
<trkpt lat="46.735117" lon="8.632748">
<ele>708.800000</ele>
<time>2008-08-10T07:37:39.000Z</time>
<sat>0</sat>
<fix>3d</fix>
<hdop>0.00</hdop>
<vdop>0.00</vdop>
<pdop>0.00</pdop>
</trkpt>
<trkpt lat="46.738550" lon="8.635903">
<ele>702.400000</ele>
<time>2008-08-10T07:37:59.000Z</time>
<sat>0</sat>
<fix>3d</fix>
<hdop>0.00</hdop>
<vdop>0.00</vdop>
<pdop>0.00</pdop>
</trkpt>
<trkpt lat="46.740310" lon="8.640260">
<ele>690.600000</ele>
<time>2008-08-10T07:38:19.000Z</time>
<sat>0</sat>
<fix>3d</fix>
<hdop>0.00</hdop>
<vdop>0.00</vdop>
<pdop>0.00</pdop>
</trkpt>
<trkpt lat="46.741335" lon="8.639862">
<ele>689.700000</ele>
<time>2008-08-10T07:38:27.000Z</time>
<sat>0</sat>
<fix>3d</fix>
<hdop>0.00</hdop>
<vdop>0.00</vdop>
<pdop>0.00</pdop>
</trkpt>
<trkpt lat="46.745290" lon="8.644050">
<ele>676.000000</ele>
<time>2008-08-10T07:38:51.000Z</time>
<sat>0</sat>
<fix>3d</fix>
<hdop>0.00</hdop>
<vdop>0.00</vdop>
<pdop>0.00</pdop>
</trkpt>
<trkpt lat="46.746970" lon="8.644337">
<ele>666.100000</ele>
<time>2008-08-10T07:38:59.000Z</time>
<sat>0</sat>
<fix>3d</fix>
<hdop>0.00</hdop>
<vdop>0.00</vdop>
<pdop>0.00</pdop>
</trkpt>
<trkpt lat="46.749953" lon="8.642957">
<ele>647.000000</ele>
<time>2008-08-10T07:39:19.000Z</time>
<sat>0</sat>
<fix>3d</fix>
<hdop>0.00</hdop>
<vdop>0.00</vdop>
<pdop>0.00</pdop>
</trkpt>
<trkpt lat="46.751035" lon="8.644138">
<ele>650.100000</ele>
<time>2008-08-10T07:39:27.000Z</time>
<sat>0</sat>
<fix>3d</fix>
<hdop>0.00</hdop>
<vdop>0.00</vdop>
<pdop>0.00</pdop>
</trkpt>
<trkpt lat="46.752243" lon="8.643488">
<ele>653.600000</ele>
<time>2008-08-10T07:39:35.000Z</time>
<sat>0</sat>
<fix>3d</fix>
<hdop>0.00</hdop>
<vdop>0.00</vdop>
<pdop>0.00</pdop>
</trkpt>
<trkpt lat="46.754707" lon="8.644703">
<ele>661.700000</ele>
<time>2008-08-10T07:39:51.000Z</time>
<sat>0</sat>
<fix>3d</fix>
<hdop>0.00</hdop>
<vdop>0.00</vdop>
<pdop>0.00</pdop>
</trkpt>
<trkpt lat="46.756420" lon="8.643472">
<ele>662.400000</ele>
<time>2008-08-10T07:40:15.000Z</time>
<sat>0</sat>
<fix>3d</fix>
<hdop>0.00</hdop>
<vdop>0.00</vdop>
<pdop>0.00</pdop>
</trkpt>
<trkpt lat="46.757335" lon="8.646207">
<ele>663.300000</ele>
<time>2008-08-10T07:40:27.000Z</time>
<sat>0</sat>
<fix>3d</fix>
<hdop>0.00</hdop>
<vdop>0.00</vdop>
<pdop>0.00</pdop>
</trkpt>
<trkpt lat="46.759085" lon="8.646912">
<ele>668.400000</ele>
<time>2008-08-10T07:40:39.000Z</time>
<sat>0</sat>
<fix>3d</fix>
<hdop>0.00</hdop>
<vdop>0.00</vdop>
<pdop>0.00</pdop>
</trkpt>
<trkpt lat="46.760347" lon="8.648457">
<ele>659.400000</ele>
<time>2008-08-10T07:40:51.000Z</time>
<sat>0</sat>
<fix>3d</fix>
<hdop>0.00</hdop>
<vdop>0.00</vdop>
<pdop>0.00</pdop>
</trkpt>
<trkpt lat="46.760938" lon="8.652223">
<ele>642.600000</ele>
<time>2008-08-10T07:41:11.000Z</time>
<sat>0</sat>
<fix>3d</fix>
<hdop>0.00</hdop>
<vdop>0.00</vdop>
<pdop>0.00</pdop>
</trkpt>
<trkpt lat="46.760628" lon="8.655837">
<ele>630.400000</ele>
<time>2008-08-10T07:41:31.000Z</time>
<sat>0</sat>
<fix>3d</fix>
<hdop>0.00</hdop>
<vdop>0.00</vdop>
<pdop>0.00</pdop>
</trkpt>
<trkpt lat="46.763682" lon="8.659493">
<ele>613.900000</ele>
<time>2008-08-10T07:41:59.000Z</time>
<sat>0</sat>
<fix>3d</fix>
<hdop>0.00</hdop>
<vdop>0.00</vdop>
<pdop>0.00</pdop>
</trkpt>
<trkpt lat="46.764965" lon="8.659167">
<ele>607.700000</ele>
<time>2008-08-10T07:42:07.000Z</time>
<sat>0</sat>
<fix>3d</fix>
<hdop>0.00</hdop>
<vdop>0.00</vdop>
<pdop>0.00</pdop>
</trkpt>
<trkpt lat="46.766533" lon="8.661863">
<ele>590.900000</ele>
<time>2008-08-10T07:42:23.000Z</time>
<sat>0</sat>
<fix>3d</fix>
<hdop>0.00</hdop>
<vdop>0.00</vdop>
<pdop>0.00</pdop>
</trkpt>
<trkpt lat="46.767087" lon="8.667763">
<ele>545.900000</ele>
<time>2008-08-10T07:42:51.000Z</time>
<sat>0</sat>
<fix>3d</fix>
<hdop>0.00</hdop>
<vdop>0.00</vdop>
<pdop>0.00</pdop>
</trkpt>
<trkpt lat="46.767870" lon="8.669210">
<ele>541.700000</ele>
<time>2008-08-10T07:44:11.000Z</time>
<sat>0</sat>
<fix>3d</fix>
<hdop>0.00</hdop>
<vdop>0.00</vdop>
<pdop>0.00</pdop>
</trkpt>
<trkpt lat="46.767607" lon="8.670778">
<ele>531.800000</ele>
<time>2008-08-10T07:44:23.000Z</time>
<sat>0</sat>
<fix>3d</fix>
<hdop>0.00</hdop>
<vdop>0.00</vdop>
<pdop>0.00</pdop>
</trkpt>
<trkpt lat="46.769312" lon="8.671905">
<ele>528.300000</ele>
<time>2008-08-10T07:44:39.000Z</time>
<sat>0</sat>
<fix>3d</fix>
<hdop>0.00</hdop>
<vdop>0.00</vdop>
<pdop>0.00</pdop>
</trkpt>
<trkpt lat="46.769895" lon="8.670908">
<ele>524.500000</ele>
<time>2008-08-10T07:44:47.000Z</time>
<sat>0</sat>
<fix>3d</fix>
<hdop>0.00</hdop>
<vdop>0.00</vdop>
<pdop>0.00</pdop>
</trkpt>
<trkpt lat="46.772498" lon="8.669945">
<ele>517.900000</ele>
<time>2008-08-10T07:45:07.000Z</time>
<sat>0</sat>
<fix>3d</fix>
<hdop>0.00</hdop>
<vdop>0.00</vdop>
<pdop>0.00</pdop>
</trkpt>
<trkpt lat="46.774273" lon="8.668025">
<ele>516.700000</ele>
<time>2008-08-10T07:45:23.000Z</time>
<sat>0</sat>
<fix>3d</fix>
<hdop>0.00</hdop>
<vdop>0.00</vdop>
<pdop>0.00</pdop>
</trkpt>
<trkpt lat="46.775300" lon="8.668937">
<ele>511.000000</ele>
<time>2008-08-10T07:45:31.000Z</time>
<sat>0</sat>
<fix>3d</fix>
<hdop>0.00</hdop>
<vdop>0.00</vdop>
<pdop>0.00</pdop>
</trkpt>
<trkpt lat="46.775128" lon="8.670712">
<ele>511.400000</ele>
<time>2008-08-10T07:45:39.000Z</time>
<sat>0</sat>
<fix>3d</fix>
<hdop>0.00</hdop>
<vdop>0.00</vdop>
<pdop>0.00</pdop>
</trkpt>
<trkpt lat="46.775878" lon="8.672270">
<ele>514.800000</ele>
<time>2008-08-10T07:45:47.000Z</time>
<sat>0</sat>
<fix>3d</fix>
<hdop>0.00</hdop>
<vdop>0.00</vdop>
<pdop>0.00</pdop>
</trkpt>
<trkpt lat="46.777257" lon="8.672740">
<ele>517.100000</ele>
<time>2008-08-10T07:45:55.000Z</time>
<sat>0</sat>
<fix>3d</fix>
<hdop>0.00</hdop>
<vdop>0.00</vdop>
<pdop>0.00</pdop>
</trkpt>
<trkpt lat="46.782270" lon="8.670262">
<ele>534.500000</ele>
<time>2008-08-10T07:46:27.000Z</time>
<sat>0</sat>
<fix>3d</fix>
<hdop>0.00</hdop>
<vdop>0.00</vdop>
<pdop>0.00</pdop>
</trkpt>
<trkpt lat="46.790885" lon="8.670108">
<ele>515.200000</ele>
<time>2008-08-10T07:47:11.000Z</time>
<sat>0</sat>
<fix>3d</fix>
<hdop>0.00</hdop>
<vdop>0.00</vdop>
<pdop>0.00</pdop>
</trkpt>
<trkpt lat="46.793238" lon="8.668387">
<ele>510.200000</ele>
<time>2008-08-10T07:47:27.000Z</time>
<sat>0</sat>
<fix>3d</fix>
<hdop>0.00</hdop>
<vdop>0.00</vdop>
<pdop>0.00</pdop>
</trkpt>
<trkpt lat="46.799140" lon="8.666673">
<ele>507.900000</ele>
<time>2008-08-10T07:47:59.000Z</time>
<sat>0</sat>
<fix>3d</fix>
<hdop>0.00</hdop>
<vdop>0.00</vdop>
<pdop>0.00</pdop>
</trkpt>
<trkpt lat="46.800118" lon="8.665005">
<ele>504.700000</ele>
<time>2008-08-10T07:48:07.000Z</time>
<sat>0</sat>
<fix>3d</fix>
<hdop>0.00</hdop>
<vdop>0.00</vdop>
<pdop>0.00</pdop>
</trkpt>
<trkpt lat="46.802308" lon="8.663668">
<ele>501.100000</ele>
<time>2008-08-10T07:48:19.000Z</time>
<sat>0</sat>
<fix>3d</fix>
<hdop>0.00</hdop>
<vdop>0.00</vdop>
<pdop>0.00</pdop>
</trkpt>
<trkpt lat="46.807505" lon="8.664592">
<ele>483.900000</ele>
<time>2008-08-10T07:48:47.000Z</time>
<sat>0</sat>
<fix>3d</fix>
<hdop>0.00</hdop>
<vdop>0.00</vdop>
<pdop>0.00</pdop>
</trkpt>
<trkpt lat="46.812090" lon="8.658402">
<ele>479.600000</ele>
<time>2008-08-10T07:49:27.000Z</time>
<sat>0</sat>
<fix>3d</fix>
<hdop>0.00</hdop>
<vdop>0.00</vdop>
<pdop>0.00</pdop>
</trkpt>
<trkpt lat="46.820697" lon="8.650440">
<ele>461.000000</ele>
<time>2008-08-10T07:50:31.000Z</time>
<sat>0</sat>
<fix>3d</fix>
<hdop>0.00</hdop>
<vdop>0.00</vdop>
<pdop>0.00</pdop>
</trkpt>
<trkpt lat="46.825520" lon="8.649627">
<ele>469.600000</ele>
<time>2008-08-10T07:51:07.000Z</time>
<sat>0</sat>
<fix>3d</fix>
<hdop>0.00</hdop>
<vdop>0.00</vdop>
<pdop>0.00</pdop>
</trkpt>
<trkpt lat="46.827287" lon="8.647585">
<ele>465.300000</ele>
<time>2008-08-10T07:51:23.000Z</time>
<sat>0</sat>
<fix>3d</fix>
<hdop>0.00</hdop>
<vdop>0.00</vdop>
<pdop>0.00</pdop>
</trkpt>
<trkpt lat="46.838153" lon="8.644290">
<ele>453.300000</ele>
<time>2008-08-10T07:52:27.000Z</time>
<sat>0</sat>
<fix>3d</fix>
<hdop>0.00</hdop>
<vdop>0.00</vdop>
<pdop>0.00</pdop>
</trkpt>
<trkpt lat="46.864200" lon="8.648165">
<ele>468.900000</ele>
<time>2008-08-10T07:54:55.000Z</time>
<sat>0</sat>
<fix>3d</fix>
<hdop>0.00</hdop>
<vdop>0.00</vdop>
<pdop>0.00</pdop>
</trkpt>
<trkpt lat="46.866680" lon="8.650403">
<ele>477.200000</ele>
<time>2008-08-10T07:55:15.000Z</time>
<sat>0</sat>
<fix>3d</fix>
<hdop>0.00</hdop>
<vdop>0.00</vdop>
<pdop>0.00</pdop>
</trkpt>
<trkpt lat="46.870625" lon="8.651360">
<ele>494.700000</ele>
<time>2008-08-10T07:55:43.000Z</time>
<sat>0</sat>
<fix>3d</fix>
<hdop>0.00</hdop>
<vdop>0.00</vdop>
<pdop>0.00</pdop>
</trkpt>
<trkpt lat="46.875527" lon="8.650025">
<ele>493.300000</ele>
<time>2008-08-10T07:56:23.000Z</time>
<sat>0</sat>
<fix>3d</fix>
<hdop>0.00</hdop>
<vdop>0.00</vdop>
<pdop>0.00</pdop>
</trkpt>
<trkpt lat="46.878663" lon="8.644037">
<ele>469.600000</ele>
<time>2008-08-10T07:57:03.000Z</time>
<sat>0</sat>
<fix>3d</fix>
<hdop>0.00</hdop>
<vdop>0.00</vdop>
<pdop>0.00</pdop>
</trkpt>
<trkpt lat="46.881820" lon="8.643910">
<ele>487.000000</ele>
<time>2008-08-10T07:57:35.000Z</time>
<sat>0</sat>
<fix>3d</fix>
<hdop>0.00</hdop>
<vdop>0.00</vdop>
<pdop>0.00</pdop>
</trkpt>
<trkpt lat="46.883360" lon="8.637922">
<ele>451.100000</ele>
<time>2008-08-10T07:58:39.000Z</time>
<sat>0</sat>
<fix>3d</fix>
<hdop>0.00</hdop>
<vdop>0.00</vdop>
<pdop>0.00</pdop>
</trkpt>
<trkpt lat="46.890545" lon="8.628723">
<ele>439.400000</ele>
<time>2008-08-10T08:12:39.000Z</time>
<sat>0</sat>
<fix>3d</fix>
<hdop>0.00</hdop>
<vdop>0.00</vdop>
<pdop>0.00</pdop>
</trkpt>
<trkpt lat="46.898560" lon="8.625038">
<ele>438.000000</ele>
<time>2008-08-10T08:13:55.000Z</time>
<sat>0</sat>
<fix>3d</fix>
<hdop>0.00</hdop>
<vdop>0.00</vdop>
<pdop>0.00</pdop>
</trkpt>
<trkpt lat="46.905022" lon="8.625435">
<ele>438.200000</ele>
<time>2008-08-10T08:14:43.000Z</time>
<sat>0</sat>
<fix>3d</fix>
<hdop>0.00</hdop>
<vdop>0.00</vdop>
<pdop>0.00</pdop>
</trkpt>
<trkpt lat="46.908337" lon="8.624558">
<ele>444.400000</ele>
<time>2008-08-10T08:15:07.000Z</time>
<sat>0</sat>
<fix>3d</fix>
<hdop>0.00</hdop>
<vdop>0.00</vdop>
<pdop>0.00</pdop>
</trkpt>
<trkpt lat="46.912025" lon="8.622430">
<ele>456.400000</ele>
<time>2008-08-10T08:15:35.000Z</time>
<sat>0</sat>
<fix>3d</fix>
<hdop>0.00</hdop>
<vdop>0.00</vdop>
<pdop>0.00</pdop>
</trkpt>
<trkpt lat="46.916437" lon="8.625545">
<ele>474.400000</ele>
<time>2008-08-10T08:16:11.000Z</time>
<sat>0</sat>
<fix>3d</fix>
<hdop>0.00</hdop>
<vdop>0.00</vdop>
<pdop>0.00</pdop>
</trkpt>
<trkpt lat="46.919155" lon="8.622625">
<ele>481.800000</ele>
<time>2008-08-10T08:16:31.000Z</time>
<sat>0</sat>
<fix>3d</fix>
<hdop>0.00</hdop>
<vdop>0.00</vdop>
<pdop>0.00</pdop>
</trkpt>
<trkpt lat="46.920577" lon="8.622608">
<ele>486.800000</ele>
<time>2008-08-10T08:16:39.000Z</time>
<sat>0</sat>
<fix>3d</fix>
<hdop>0.00</hdop>
<vdop>0.00</vdop>
<pdop>0.00</pdop>
</trkpt>
<trkpt lat="46.928993" lon="8.612088">
<ele>512.100000</ele>
<time>2008-08-10T08:17:47.000Z</time>
<sat>0</sat>
<fix>3d</fix>
<hdop>0.00</hdop>
<vdop>0.00</vdop>
<pdop>0.00</pdop>
</trkpt>
<trkpt lat="46.931802" lon="8.613878">
<ele>504.300000</ele>
<time>2008-08-10T08:18:07.000Z</time>
<sat>0</sat>
<fix>3d</fix>
<hdop>0.00</hdop>
<vdop>0.00</vdop>
<pdop>0.00</pdop>
</trkpt>
<trkpt lat="46.935405" lon="8.614565">
<ele>505.400000</ele>
<time>2008-08-10T08:18:31.000Z</time>
<sat>0</sat>
<fix>3d</fix>
<hdop>0.00</hdop>
<vdop>0.00</vdop>
<pdop>0.00</pdop>
</trkpt>
<trkpt lat="46.938542" lon="8.617492">
<ele>494.200000</ele>
<time>2008-08-10T08:18:55.000Z</time>
<sat>0</sat>
<fix>3d</fix>
<hdop>0.00</hdop>
<vdop>0.00</vdop>
<pdop>0.00</pdop>
</trkpt>
<trkpt lat="46.948768" lon="8.622373">
<ele>455.700000</ele>
<time>2008-08-10T08:20:07.000Z</time>
<sat>0</sat>
<fix>3d</fix>
<hdop>0.00</hdop>
<vdop>0.00</vdop>
<pdop>0.00</pdop>
</trkpt>
<trkpt lat="46.955097" lon="8.619775">
<ele>457.400000</ele>
<time>2008-08-10T08:21:03.000Z</time>
<sat>0</sat>
<fix>3d</fix>
<hdop>0.00</hdop>
<vdop>0.00</vdop>
<pdop>0.00</pdop>
</trkpt>
<trkpt lat="46.956770" lon="8.616975">
<ele>409.100000</ele>
<time>2008-08-10T08:21:19.000Z</time>
<sat>0</sat>
<fix>3d</fix>
<hdop>0.00</hdop>
<vdop>0.00</vdop>
<pdop>0.00</pdop>
</trkpt>
<trkpt lat="46.963567" lon="8.613988">
<ele>414.500000</ele>
<time>2008-08-10T08:22:03.000Z</time>
<sat>0</sat>
<fix>3d</fix>
<hdop>0.00</hdop>
<vdop>0.00</vdop>
<pdop>0.00</pdop>
</trkpt>
<trkpt lat="46.973733" lon="8.611195">
<ele>458.900000</ele>
<time>2008-08-10T08:23:07.000Z</time>
<sat>0</sat>
<fix>3d</fix>
<hdop>0.00</hdop>
<vdop>0.00</vdop>
<pdop>0.00</pdop>
</trkpt>
<trkpt lat="46.982722" lon="8.612675">
<ele>479.600000</ele>
<time>2008-08-10T08:24:07.000Z</time>
<sat>0</sat>
<fix>3d</fix>
<hdop>0.00</hdop>
<vdop>0.00</vdop>
<pdop>0.00</pdop>
</trkpt>
<trkpt lat="46.990705" lon="8.610725">
<ele>460.300000</ele>
<time>2008-08-10T08:25:03.000Z</time>
<sat>0</sat>
<fix>3d</fix>
<hdop>0.00</hdop>
<vdop>0.00</vdop>
<pdop>0.00</pdop>
</trkpt>
<trkpt lat="46.999662" lon="8.622658">
<ele>444.300000</ele>
<time>2008-08-10T08:26:11.000Z</time>
<sat>0</sat>
<fix>3d</fix>
<hdop>0.00</hdop>
<vdop>0.00</vdop>
<pdop>0.00</pdop>
</trkpt>
<trkpt lat="47.001743" lon="8.622487">
<ele>445.100000</ele>
<time>2008-08-10T08:26:19.000Z</time>
<sat>0</sat>
<fix>3d</fix>
<hdop>0.00</hdop>
<vdop>0.00</vdop>
<pdop>0.00</pdop>
</trkpt>
<trkpt lat="47.004990" lon="8.620593">
<ele>448.700000</ele>
<time>2008-08-10T08:26:31.000Z</time>
<sat>0</sat>
<fix>3d</fix>
<hdop>0.00</hdop>
<vdop>0.00</vdop>
<pdop>0.00</pdop>
</trkpt>
<trkpt lat="47.007463" lon="8.620962">
<ele>446.900000</ele>
<time>2008-08-10T08:26:39.000Z</time>
<sat>0</sat>
<fix>3d</fix>
<hdop>0.00</hdop>
<vdop>0.00</vdop>
<pdop>0.00</pdop>
</trkpt>
<trkpt lat="47.012755" lon="8.625270">
<ele>453.000000</ele>
<time>2008-08-10T08:26:59.000Z</time>
<sat>0</sat>
<fix>3d</fix>
<hdop>0.00</hdop>
<vdop>0.00</vdop>
<pdop>0.00</pdop>
</trkpt>
<trkpt lat="47.025910" lon="8.629765">
<ele>459.700000</ele>
<time>2008-08-10T08:27:47.000Z</time>
<sat>0</sat>
<fix>3d</fix>
<hdop>0.00</hdop>
<vdop>0.00</vdop>
<pdop>0.00</pdop>
</trkpt>
<trkpt lat="47.027747" lon="8.628488">
<ele>452.000000</ele>
<time>2008-08-10T08:27:55.000Z</time>
<sat>0</sat>
<fix>3d</fix>
<hdop>0.00</hdop>
<vdop>0.00</vdop>
<pdop>0.00</pdop>
</trkpt>
<trkpt lat="47.029810" lon="8.625305">
<ele>447.700000</ele>
<time>2008-08-10T08:28:11.000Z</time>
<sat>0</sat>
<fix>3d</fix>
<hdop>0.00</hdop>
<vdop>0.00</vdop>
<pdop>0.00</pdop>
</trkpt>
<trkpt lat="47.028938" lon="8.624823">
<ele>443.600000</ele>
<time>2008-08-10T08:28:27.000Z</time>
<sat>0</sat>
<fix>3d</fix>
<hdop>0.00</hdop>
<vdop>0.00</vdop>
<pdop>0.00</pdop>
</trkpt>
<trkpt lat="47.028990" lon="8.620382">
<ele>448.300000</ele>
<time>2008-08-10T08:28:43.000Z</time>
<sat>0</sat>
<fix>3d</fix>
<hdop>0.00</hdop>
<vdop>0.00</vdop>
<pdop>0.00</pdop>
</trkpt>
<trkpt lat="47.026262" lon="8.611688">
<ele>455.200000</ele>
<time>2008-08-10T08:29:15.000Z</time>
<sat>0</sat>
<fix>3d</fix>
<hdop>0.00</hdop>
<vdop>0.00</vdop>
<pdop>0.00</pdop>
</trkpt>
<trkpt lat="47.026162" lon="8.608095">
<ele>457.700000</ele>
<time>2008-08-10T08:29:27.000Z</time>
<sat>0</sat>
<fix>3d</fix>
<hdop>0.00</hdop>
<vdop>0.00</vdop>
<pdop>0.00</pdop>
</trkpt>
<trkpt lat="47.027105" lon="8.605007">
<ele>454.100000</ele>
<time>2008-08-10T08:29:39.000Z</time>
<sat>0</sat>
<fix>3d</fix>
<hdop>0.00</hdop>
<vdop>0.00</vdop>
<pdop>0.00</pdop>
</trkpt>
<trkpt lat="47.029782" lon="8.602690">
<ele>447.400000</ele>
<time>2008-08-10T08:29:55.000Z</time>
<sat>0</sat>
<fix>3d</fix>
<hdop>0.00</hdop>
<vdop>0.00</vdop>
<pdop>0.00</pdop>
</trkpt>
<trkpt lat="47.031278" lon="8.593543">
<ele>449.600000</ele>
<time>2008-08-10T08:30:27.000Z</time>
<sat>0</sat>
<fix>3d</fix>
<hdop>0.00</hdop>
<vdop>0.00</vdop>
<pdop>0.00</pdop>
</trkpt>
<trkpt lat="47.031018" lon="8.591573">
<ele>447.700000</ele>
<time>2008-08-10T08:30:35.000Z</time>
<sat>0</sat>
<fix>3d</fix>
<hdop>0.00</hdop>
<vdop>0.00</vdop>
<pdop>0.00</pdop>
</trkpt>
<trkpt lat="47.031603" lon="8.586840">
<ele>446.600000</ele>
<time>2008-08-10T08:30:55.000Z</time>
<sat>0</sat>
<fix>3d</fix>
<hdop>0.00</hdop>
<vdop>0.00</vdop>
<pdop>0.00</pdop>
</trkpt>
<trkpt lat="47.035523" lon="8.579233">
<ele>462.400000</ele>
<time>2008-08-10T08:31:39.000Z</time>
<sat>0</sat>
<fix>3d</fix>
<hdop>0.00</hdop>
<vdop>0.00</vdop>
<pdop>0.00</pdop>
</trkpt>
<trkpt lat="47.036363" lon="8.571790">
<ele>492.000000</ele>
<time>2008-08-10T08:32:07.000Z</time>
<sat>0</sat>
<fix>3d</fix>
<hdop>0.00</hdop>
<vdop>0.00</vdop>
<pdop>0.00</pdop>
</trkpt>
<trkpt lat="47.036375" lon="8.564270">
<ele>517.400000</ele>
<time>2008-08-10T08:32:31.000Z</time>
<sat>0</sat>
<fix>3d</fix>
<hdop>0.00</hdop>
<vdop>0.00</vdop>
<pdop>0.00</pdop>
</trkpt>
<trkpt lat="47.039640" lon="8.560278">
<ele>535.900000</ele>
<time>2008-08-10T08:32:51.000Z</time>
<sat>0</sat>
<fix>3d</fix>
<hdop>0.00</hdop>
<vdop>0.00</vdop>
<pdop>0.00</pdop>
</trkpt>
<trkpt lat="47.041722" lon="8.555235">
<ele>551.100000</ele>
<time>2008-08-10T08:33:11.000Z</time>
<sat>0</sat>
<fix>3d</fix>
<hdop>0.00</hdop>
<vdop>0.00</vdop>
<pdop>0.00</pdop>
</trkpt>
<trkpt lat="47.043237" lon="8.548972">
<ele>537.800000</ele>
<time>2008-08-10T08:33:39.000Z</time>
<sat>0</sat>
<fix>3d</fix>
<hdop>0.00</hdop>
<vdop>0.00</vdop>
<pdop>0.00</pdop>
</trkpt>
<trkpt lat="47.044673" lon="8.546907">
<ele>526.100000</ele>
<time>2008-08-10T08:34:03.000Z</time>
<sat>0</sat>
<fix>3d</fix>
<hdop>0.00</hdop>
<vdop>0.00</vdop>
<pdop>0.00</pdop>
</trkpt>
<trkpt lat="47.047035" lon="8.545783">
<ele>522.400000</ele>
<time>2008-08-10T08:34:23.000Z</time>
<sat>0</sat>
<fix>3d</fix>
<hdop>0.00</hdop>
<vdop>0.00</vdop>
<pdop>0.00</pdop>
</trkpt>
<trkpt lat="47.048705" lon="8.548845">
<ele>513.800000</ele>
<time>2008-08-10T08:34:55.000Z</time>
<sat>0</sat>
<fix>3d</fix>
<hdop>0.00</hdop>
<vdop>0.00</vdop>
<pdop>0.00</pdop>
</trkpt>
<trkpt lat="47.048703" lon="8.547562">
<ele>505.900000</ele>
<time>2008-08-10T08:35:07.000Z</time>
<sat>0</sat>
<fix>3d</fix>
<hdop>0.00</hdop>
<vdop>0.00</vdop>
<pdop>0.00</pdop>
</trkpt>
<trkpt lat="47.049917" lon="8.548093">
<ele>510.400000</ele>
<time>2008-08-10T08:35:23.000Z</time>
<sat>0</sat>
<fix>3d</fix>
<hdop>0.00</hdop>
<vdop>0.00</vdop>
<pdop>0.00</pdop>
</trkpt>
<trkpt lat="47.052805" lon="8.555845">
<ele>512.800000</ele>
<time>2008-08-10T08:36:31.000Z</time>
<sat>0</sat>
<fix>3d</fix>
<hdop>0.00</hdop>
<vdop>0.00</vdop>
<pdop>0.00</pdop>
</trkpt>
<trkpt lat="47.051872" lon="8.563840">
<ele>526.600000</ele>
<time>2008-08-10T08:37:15.000Z</time>
<sat>0</sat>
<fix>3d</fix>
<hdop>0.00</hdop>
<vdop>0.00</vdop>
<pdop>0.00</pdop>
</trkpt>
<trkpt lat="47.051402" lon="8.564122">
<ele>529.600000</ele>
<time>2008-08-10T08:37:19.000Z</time>
<sat>0</sat>
<fix>3d</fix>
<hdop>0.00</hdop>
<vdop>0.00</vdop>
<pdop>0.00</pdop>
</trkpt>
<trkpt lat="47.053390" lon="8.567765">
<ele>545.200000</ele>
<time>2008-08-10T08:37:43.000Z</time>
<sat>0</sat>
<fix>3d</fix>
<hdop>0.00</hdop>
<vdop>0.00</vdop>
<pdop>0.00</pdop>
</trkpt>
<trkpt lat="47.054755" lon="8.568867">
<ele>552.400000</ele>
<time>2008-08-10T08:37:51.000Z</time>
<sat>0</sat>
<fix>3d</fix>
<hdop>0.00</hdop>
<vdop>0.00</vdop>
<pdop>0.00</pdop>
</trkpt>
<trkpt lat="47.054597" lon="8.570588">
<ele>558.600000</ele>
<time>2008-08-10T08:37:59.000Z</time>
<sat>0</sat>
<fix>3d</fix>
<hdop>0.00</hdop>
<vdop>0.00</vdop>
<pdop>0.00</pdop>
</trkpt>
<trkpt lat="47.055357" lon="8.573168">
<ele>572.600000</ele>
<time>2008-08-10T08:38:11.000Z</time>
<sat>0</sat>
<fix>3d</fix>
<hdop>0.00</hdop>
<vdop>0.00</vdop>
<pdop>0.00</pdop>
</trkpt>
<trkpt lat="47.052973" lon="8.577372">
<ele>582.800000</ele>
<time>2008-08-10T08:38:39.000Z</time>
<sat>0</sat>
<fix>3d</fix>
<hdop>0.00</hdop>
<vdop>0.00</vdop>
<pdop>0.00</pdop>
</trkpt>
<trkpt lat="47.053792" lon="8.578923">
<ele>595.700000</ele>
<time>2008-08-10T08:38:47.000Z</time>
<sat>0</sat>
<fix>3d</fix>
<hdop>0.00</hdop>
<vdop>0.00</vdop>
<pdop>0.00</pdop>
</trkpt>
<trkpt lat="47.053580" lon="8.581190">
<ele>603.900000</ele>
<time>2008-08-10T08:38:59.000Z</time>
<sat>0</sat>
<fix>3d</fix>
<hdop>0.00</hdop>
<vdop>0.00</vdop>
<pdop>0.00</pdop>
</trkpt>
<trkpt lat="47.052223" lon="8.583108">
<ele>615.800000</ele>
<time>2008-08-10T08:39:15.000Z</time>
<sat>0</sat>
<fix>3d</fix>
<hdop>0.00</hdop>
<vdop>0.00</vdop>
<pdop>0.00</pdop>
</trkpt>
<trkpt lat="47.054683" lon="8.586560">
<ele>634.300000</ele>
<time>2008-08-10T08:39:43.000Z</time>
<sat>0</sat>
<fix>3d</fix>
<hdop>0.00</hdop>
<vdop>0.00</vdop>
<pdop>0.00</pdop>
</trkpt>
<trkpt lat="47.056262" lon="8.587298">
<ele>640.400000</ele>
<time>2008-08-10T08:39:55.000Z</time>
<sat>0</sat>
<fix>3d</fix>
<hdop>0.00</hdop>
<vdop>0.00</vdop>
<pdop>0.00</pdop>
</trkpt>
<trkpt lat="47.056582" lon="8.590665">
<ele>653.700000</ele>
<time>2008-08-10T08:40:11.000Z</time>
<sat>0</sat>
<fix>3d</fix>
<hdop>0.00</hdop>
<vdop>0.00</vdop>
<pdop>0.00</pdop>
</trkpt>
<trkpt lat="47.057452" lon="8.592973">
<ele>664.400000</ele>
<time>2008-08-10T08:40:23.000Z</time>
<sat>0</sat>
<fix>3d</fix>
<hdop>0.00</hdop>
<vdop>0.00</vdop>
<pdop>0.00</pdop>
</trkpt>
<trkpt lat="47.057363" lon="8.594582">
<ele>670.100000</ele>
<time>2008-08-10T08:40:31.000Z</time>
<sat>0</sat>
<fix>3d</fix>
<hdop>0.00</hdop>
<vdop>0.00</vdop>
<pdop>0.00</pdop>
</trkpt>
<trkpt lat="47.058615" lon="8.595247">
<ele>675.700000</ele>
<time>2008-08-10T08:40:39.000Z</time>
<sat>0</sat>
<fix>3d</fix>
<hdop>0.00</hdop>
<vdop>0.00</vdop>
<pdop>0.00</pdop>
</trkpt>
<trkpt lat="47.057667" lon="8.598283">
<ele>686.800000</ele>
<time>2008-08-10T08:40:55.000Z</time>
<sat>0</sat>
<fix>3d</fix>
<hdop>0.00</hdop>
<vdop>0.00</vdop>
<pdop>0.00</pdop>
</trkpt>
<trkpt lat="47.066415" lon="8.611818">
<ele>724.000000</ele>
<time>2008-08-10T08:41:59.000Z</time>
<sat>0</sat>
<fix>3d</fix>
<hdop>0.00</hdop>
<vdop>0.00</vdop>
<pdop>0.00</pdop>
</trkpt>
<trkpt lat="47.067717" lon="8.615117">
<ele>730.700000</ele>
<time>2008-08-10T08:42:11.000Z</time>
<sat>0</sat>
<fix>3d</fix>
<hdop>0.00</hdop>
<vdop>0.00</vdop>
<pdop>0.00</pdop>
</trkpt>
<trkpt lat="47.074897" lon="8.623723">
<ele>765.800000</ele>
<time>2008-08-10T08:44:07.000Z</time>
<sat>0</sat>
<fix>3d</fix>
<hdop>0.00</hdop>
<vdop>0.00</vdop>
<pdop>0.00</pdop>
</trkpt>
<trkpt lat="47.076123" lon="8.624122">
<ele>763.000000</ele>
<time>2008-08-10T08:44:15.000Z</time>
<sat>0</sat>
<fix>3d</fix>
<hdop>0.00</hdop>
<vdop>0.00</vdop>
<pdop>0.00</pdop>
</trkpt>
<trkpt lat="47.079437" lon="8.630668">
<ele>778.100000</ele>
<time>2008-08-10T08:44:47.000Z</time>
<sat>0</sat>
<fix>3d</fix>
<hdop>0.00</hdop>
<vdop>0.00</vdop>
<pdop>0.00</pdop>
</trkpt>
<trkpt lat="47.082680" lon="8.628243">
<ele>786.900000</ele>
<time>2008-08-10T08:45:23.000Z</time>
<sat>0</sat>
<fix>3d</fix>
<hdop>0.00</hdop>
<vdop>0.00</vdop>
<pdop>0.00</pdop>
</trkpt>
<trkpt lat="47.088470" lon="8.631363">
<ele>788.900000</ele>
<time>2008-08-10T08:46:07.000Z</time>
<sat>0</sat>
<fix>3d</fix>
<hdop>0.00</hdop>
<vdop>0.00</vdop>
<pdop>0.00</pdop>
</trkpt>
<trkpt lat="47.090328" lon="8.633828">
<ele>762.400000</ele>
<time>2008-08-10T08:46:27.000Z</time>
<sat>0</sat>
<fix>3d</fix>
<hdop>0.00</hdop>
<vdop>0.00</vdop>
<pdop>0.00</pdop>
</trkpt>
<trkpt lat="47.093517" lon="8.634618">
<ele>746.200000</ele>
<time>2008-08-10T08:46:51.000Z</time>
<sat>0</sat>
<fix>3d</fix>
<hdop>0.00</hdop>
<vdop>0.00</vdop>
<pdop>0.00</pdop>
</trkpt>
<trkpt lat="47.095958" lon="8.633947">
<ele>738.000000</ele>
<time>2008-08-10T08:47:03.000Z</time>
<sat>0</sat>
<fix>3d</fix>
<hdop>0.00</hdop>
<vdop>0.00</vdop>
<pdop>0.00</pdop>
</trkpt>
<trkpt lat="47.103822" lon="8.640233">
<ele>728.500000</ele>
<time>2008-08-10T08:47:55.000Z</time>
<sat>0</sat>
<fix>3d</fix>
<hdop>0.00</hdop>
<vdop>0.00</vdop>
<pdop>0.00</pdop>
</trkpt>
<trkpt lat="47.107228" lon="8.641943">
<ele>727.800000</ele>
<time>2008-08-10T08:48:19.000Z</time>
<sat>0</sat>
<fix>3d</fix>
<hdop>0.00</hdop>
<vdop>0.00</vdop>
<pdop>0.00</pdop>
</trkpt>
<trkpt lat="47.108490" lon="8.641650">
<ele>727.300000</ele>
<time>2008-08-10T08:48:27.000Z</time>
<sat>0</sat>
<fix>3d</fix>
<hdop>0.00</hdop>
<vdop>0.00</vdop>
<pdop>0.00</pdop>
</trkpt>
<trkpt lat="47.114172" lon="8.643375">
<ele>724.600000</ele>
<time>2008-08-10T08:49:03.000Z</time>
<sat>0</sat>
<fix>3d</fix>
<hdop>0.00</hdop>
<vdop>0.00</vdop>
<pdop>0.00</pdop>
</trkpt>
<trkpt lat="47.116052" lon="8.641962">
<ele>725.600000</ele>
<time>2008-08-10T08:49:15.000Z</time>
<sat>0</sat>
<fix>3d</fix>
<hdop>0.00</hdop>
<vdop>0.00</vdop>
<pdop>0.00</pdop>
</trkpt>
<trkpt lat="47.116783" lon="8.640427">
<ele>727.200000</ele>
<time>2008-08-10T08:49:23.000Z</time>
<sat>0</sat>
<fix>3d</fix>
<hdop>0.00</hdop>
<vdop>0.00</vdop>
<pdop>0.00</pdop>
</trkpt>
<trkpt lat="47.118040" lon="8.639913">
<ele>725.900000</ele>
<time>2008-08-10T08:49:31.000Z</time>
<sat>0</sat>
<fix>3d</fix>
<hdop>0.00</hdop>
<vdop>0.00</vdop>
<pdop>0.00</pdop>
</trkpt>
<trkpt lat="47.118843" lon="8.638138">
<ele>726.800000</ele>
<time>2008-08-10T08:49:39.000Z</time>
<sat>0</sat>
<fix>3d</fix>
<hdop>0.00</hdop>
<vdop>0.00</vdop>
<pdop>0.00</pdop>
</trkpt>
<trkpt lat="47.125448" lon="8.634873">
<ele>731.200000</ele>
<time>2008-08-10T08:50:11.000Z</time>
<sat>0</sat>
<fix>3d</fix>
<hdop>0.00</hdop>
<vdop>0.00</vdop>
<pdop>0.00</pdop>
</trkpt>
<trkpt lat="47.127565" lon="8.630953">
<ele>729.000000</ele>
<time>2008-08-10T08:50:31.000Z</time>
<sat>0</sat>
<fix>3d</fix>
<hdop>0.00</hdop>
<vdop>0.00</vdop>
<pdop>0.00</pdop>
</trkpt>
<trkpt lat="47.129678" lon="8.630075">
<ele>727.100000</ele>
<time>2008-08-10T08:50:43.000Z</time>
<sat>0</sat>
<fix>3d</fix>
<hdop>0.00</hdop>
<vdop>0.00</vdop>
<pdop>0.00</pdop>
</trkpt>
<trkpt lat="47.133517" lon="8.619483">
<ele>723.400000</ele>
<time>2008-08-10T08:51:27.000Z</time>
<sat>0</sat>
<fix>3d</fix>
<hdop>0.00</hdop>
<vdop>0.00</vdop>
<pdop>0.00</pdop>
</trkpt>
<trkpt lat="47.134540" lon="8.614068">
<ele>730.300000</ele>
<time>2008-08-10T08:51:55.000Z</time>
<sat>0</sat>
<fix>3d</fix>
<hdop>0.00</hdop>
<vdop>0.00</vdop>
<pdop>0.00</pdop>
</trkpt>
<trkpt lat="47.135125" lon="8.613275">
<ele>731.300000</ele>
<time>2008-08-10T08:52:03.000Z</time>
<sat>0</sat>
<fix>3d</fix>
<hdop>0.00</hdop>
<vdop>0.00</vdop>
<pdop>0.00</pdop>
</trkpt>
<trkpt lat="47.136110" lon="8.607683">
<ele>724.000000</ele>
<time>2008-08-10T08:52:35.000Z</time>
<sat>0</sat>
<fix>3d</fix>
<hdop>0.00</hdop>
<vdop>0.00</vdop>
<pdop>0.00</pdop>
</trkpt>
<trkpt lat="47.137272" lon="8.604890">
<ele>722.300000</ele>
<time>2008-08-10T08:52:51.000Z</time>
<sat>0</sat>
<fix>3d</fix>
<hdop>0.00</hdop>
<vdop>0.00</vdop>
<pdop>0.00</pdop>
</trkpt>
<trkpt lat="47.137448" lon="8.600328">
<ele>718.900000</ele>
<time>2008-08-10T08:53:11.000Z</time>
<sat>0</sat>
<fix>3d</fix>
<hdop>0.00</hdop>
<vdop>0.00</vdop>
<pdop>0.00</pdop>
</trkpt>
<trkpt lat="47.136645" lon="8.597678">
<ele>717.800000</ele>
<time>2008-08-10T08:53:23.000Z</time>
<sat>0</sat>
<fix>3d</fix>
<hdop>0.00</hdop>
<vdop>0.00</vdop>
<pdop>0.00</pdop>
</trkpt>
<trkpt lat="47.138345" lon="8.589657">
<ele>717.200000</ele>
<time>2008-08-10T08:53:59.000Z</time>
<sat>0</sat>
<fix>3d</fix>
<hdop>0.00</hdop>
<vdop>0.00</vdop>
<pdop>0.00</pdop>
</trkpt>
<trkpt lat="47.137367" lon="8.584322">
<ele>722.600000</ele>
<time>2008-08-10T08:54:51.000Z</time>
<sat>0</sat>
<fix>3d</fix>
<hdop>0.00</hdop>
<vdop>0.00</vdop>
<pdop>0.00</pdop>
</trkpt>
<trkpt lat="47.138175" lon="8.575763">
<ele>719.000000</ele>
<time>2008-08-10T08:56:03.000Z</time>
<sat>0</sat>
<fix>3d</fix>
<hdop>0.00</hdop>
<vdop>0.00</vdop>
<pdop>0.00</pdop>
</trkpt>
<trkpt lat="47.144637" lon="8.567455">
<ele>719.300000</ele>
<time>2008-08-10T08:57:11.000Z</time>
<sat>0</sat>
<fix>3d</fix>
<hdop>0.00</hdop>
<vdop>0.00</vdop>
<pdop>0.00</pdop>
</trkpt>
<trkpt lat="47.146220" lon="8.567787">
<ele>712.200000</ele>
<time>2008-08-10T08:57:23.000Z</time>
<sat>0</sat>
<fix>3d</fix>
<hdop>0.00</hdop>
<vdop>0.00</vdop>
<pdop>0.00</pdop>
</trkpt>
<trkpt lat="47.147662" lon="8.566368">
<ele>702.500000</ele>
<time>2008-08-10T08:57:39.000Z</time>
<sat>0</sat>
<fix>3d</fix>
<hdop>0.00</hdop>
<vdop>0.00</vdop>
<pdop>0.00</pdop>
</trkpt>
<trkpt lat="47.148518" lon="8.563893">
<ele>695.300000</ele>
<time>2008-08-10T08:57:55.000Z</time>
<sat>0</sat>
<fix>3d</fix>
<hdop>0.00</hdop>
<vdop>0.00</vdop>
<pdop>0.00</pdop>
</trkpt>
<trkpt lat="47.149593" lon="8.564137">
<ele>694.600000</ele>
<time>2008-08-10T08:58:03.000Z</time>
<sat>0</sat>
<fix>3d</fix>
<hdop>0.00</hdop>
<vdop>0.00</vdop>
<pdop>0.00</pdop>
</trkpt>
<trkpt lat="47.153533" lon="8.562452">
<ele>690.200000</ele>
<time>2008-08-10T08:58:35.000Z</time>
<sat>0</sat>
<fix>3d</fix>
<hdop>0.00</hdop>
<vdop>0.00</vdop>
<pdop>0.00</pdop>
</trkpt>
<trkpt lat="47.154600" lon="8.560302">
<ele>682.100000</ele>
<time>2008-08-10T08:58:51.000Z</time>
<sat>0</sat>
<fix>3d</fix>
<hdop>0.00</hdop>
<vdop>0.00</vdop>
<pdop>0.00</pdop>
</trkpt>
<trkpt lat="47.156618" lon="8.560358">
<ele>685.200000</ele>
<time>2008-08-10T08:59:03.000Z</time>
<sat>0</sat>
<fix>3d</fix>
<hdop>0.00</hdop>
<vdop>0.00</vdop>
<pdop>0.00</pdop>
</trkpt>
<trkpt lat="47.158642" lon="8.558072">
<ele>691.200000</ele>
<time>2008-08-10T08:59:15.000Z</time>
<sat>0</sat>
<fix>3d</fix>
<hdop>0.00</hdop>
<vdop>0.00</vdop>
<pdop>0.00</pdop>
</trkpt>
<trkpt lat="47.164307" lon="8.557102">
<ele>704.900000</ele>
<time>2008-08-10T08:59:47.000Z</time>
<sat>0</sat>
<fix>3d</fix>
<hdop>0.00</hdop>
<vdop>0.00</vdop>
<pdop>0.00</pdop>
</trkpt>
<trkpt lat="47.164893" lon="8.554113">
<ele>687.700000</ele>
<time>2008-08-10T09:00:03.000Z</time>
<sat>0</sat>
<fix>3d</fix>
<hdop>0.00</hdop>
<vdop>0.00</vdop>
<pdop>0.00</pdop>
</trkpt>
<trkpt lat="47.168095" lon="8.553035">
<ele>676.900000</ele>
<time>2008-08-10T09:00:27.000Z</time>
<sat>0</sat>
<fix>3d</fix>
<hdop>0.00</hdop>
<vdop>0.00</vdop>
<pdop>0.00</pdop>
</trkpt>
<trkpt lat="47.170463" lon="8.554367">
<ele>677.700000</ele>
<time>2008-08-10T09:00:47.000Z</time>
<sat>0</sat>
<fix>3d</fix>
<hdop>0.00</hdop>
<vdop>0.00</vdop>
<pdop>0.00</pdop>
</trkpt>
<trkpt lat="47.173418" lon="8.552228">
<ele>653.100000</ele>
<time>2008-08-10T09:01:07.000Z</time>
<sat>0</sat>
<fix>3d</fix>
<hdop>0.00</hdop>
<vdop>0.00</vdop>
<pdop>0.00</pdop>
</trkpt>
<trkpt lat="47.174295" lon="8.550420">
<ele>639.600000</ele>
<time>2008-08-10T09:01:15.000Z</time>
<sat>0</sat>
<fix>3d</fix>
<hdop>0.00</hdop>
<vdop>0.00</vdop>
<pdop>0.00</pdop>
</trkpt>
<trkpt lat="47.175905" lon="8.549980">
<ele>623.700000</ele>
<time>2008-08-10T09:01:27.000Z</time>
<sat>0</sat>
<fix>3d</fix>
<hdop>0.00</hdop>
<vdop>0.00</vdop>
<pdop>0.00</pdop>
</trkpt>
<trkpt lat="47.174582" lon="8.548360">
<ele>611.000000</ele>
<time>2008-08-10T09:01:39.000Z</time>
<sat>0</sat>
<fix>3d</fix>
<hdop>0.00</hdop>
<vdop>0.00</vdop>
<pdop>0.00</pdop>
</trkpt>
<trkpt lat="47.177195" lon="8.547478">
<ele>590.400000</ele>
<time>2008-08-10T09:01:55.000Z</time>
<sat>0</sat>
<fix>3d</fix>
<hdop>0.00</hdop>
<vdop>0.00</vdop>
<pdop>0.00</pdop>
</trkpt>
<trkpt lat="47.178497" lon="8.548848">
<ele>583.000000</ele>
<time>2008-08-10T09:02:07.000Z</time>
<sat>0</sat>
<fix>3d</fix>
<hdop>0.00</hdop>
<vdop>0.00</vdop>
<pdop>0.00</pdop>
</trkpt>
<trkpt lat="47.175512" lon="8.543250">
<ele>555.700000</ele>
<time>2008-08-10T09:03:03.000Z</time>
<sat>0</sat>
<fix>3d</fix>
<hdop>0.00</hdop>
<vdop>0.00</vdop>
<pdop>0.00</pdop>
</trkpt>
<trkpt lat="47.175267" lon="8.539607">
<ele>538.300000</ele>
<time>2008-08-10T09:03:15.000Z</time>
<sat>0</sat>
<fix>3d</fix>
<hdop>0.00</hdop>
<vdop>0.00</vdop>
<pdop>0.00</pdop>
</trkpt>
<trkpt lat="47.171502" lon="8.530237">
<ele>493.500000</ele>
<time>2008-08-10T09:04:39.000Z</time>
<sat>0</sat>
<fix>3d</fix>
<hdop>0.00</hdop>
<vdop>0.00</vdop>
<pdop>0.00</pdop>
</trkpt>
<trkpt lat="47.171743" lon="8.526192">
<ele>476.400000</ele>
<time>2008-08-10T09:04:59.000Z</time>
<sat>0</sat>
<fix>3d</fix>
<hdop>0.00</hdop>
<vdop>0.00</vdop>
<pdop>0.00</pdop>
</trkpt>
<trkpt lat="47.168232" lon="8.521882">
<ele>451.600000</ele>
<time>2008-08-10T09:05:35.000Z</time>
<sat>0</sat>
<fix>3d</fix>
<hdop>0.00</hdop>
<vdop>0.00</vdop>
<pdop>0.00</pdop>
</trkpt>
<trkpt lat="47.166085" lon="8.516958">
<ele>429.500000</ele>
<time>2008-08-10T09:06:07.000Z</time>
<sat>0</sat>
<fix>3d</fix>
<hdop>0.00</hdop>
<vdop>0.00</vdop>
<pdop>0.00</pdop>
</trkpt>
<trkpt lat="47.166290" lon="8.515395">
<ele>427.300000</ele>
<time>2008-08-10T09:06:19.000Z</time>
<sat>0</sat>
<fix>3d</fix>
<hdop>0.00</hdop>
<vdop>0.00</vdop>
<pdop>0.00</pdop>
</trkpt>
<trkpt lat="47.170715" lon="8.516100">
<ele>455.600000</ele>
<time>2008-08-10T09:07:11.000Z</time>
<sat>0</sat>
<fix>3d</fix>
<hdop>0.00</hdop>
<vdop>0.00</vdop>
<pdop>0.00</pdop>
</trkpt>
<trkpt lat="47.171315" lon="8.513930">
<ele>441.800000</ele>
<time>2008-08-10T09:07:43.000Z</time>
<sat>0</sat>
<fix>3d</fix>
<hdop>0.00</hdop>
<vdop>0.00</vdop>
<pdop>0.00</pdop>
</trkpt>
<trkpt lat="47.170495" lon="8.513598">
<ele>438.600000</ele>
<time>2008-08-10T09:07:51.000Z</time>
<sat>0</sat>
<fix>3d</fix>
<hdop>0.00</hdop>
<vdop>0.00</vdop>
<pdop>0.00</pdop>
</trkpt>
<trkpt lat="47.168053" lon="8.515473">
<ele>430.000000</ele>
<time>2008-08-10T09:08:19.000Z</time>
<sat>0</sat>
<fix>3d</fix>
<hdop>0.00</hdop>
<vdop>0.00</vdop>
<pdop>0.00</pdop>
</trkpt>
<trkpt lat="47.170733" lon="8.516013">
<ele>458.600000</ele>
<time>2008-08-10T09:08:59.000Z</time>
<sat>0</sat>
<fix>3d</fix>
<hdop>0.00</hdop>
<vdop>0.00</vdop>
<pdop>0.00</pdop>
</trkpt>
<trkpt lat="47.171287" lon="8.514227">
<ele>450.100000</ele>
<time>2008-08-10T09:09:27.000Z</time>
<sat>0</sat>
<fix>3d</fix>
<hdop>0.00</hdop>
<vdop>0.00</vdop>
<pdop>0.00</pdop>
</trkpt>
<trkpt lat="47.170842" lon="8.513445">
<ele>433.200000</ele>
<time>2008-08-10T09:09:51.000Z</time>
<sat>0</sat>
<fix>3d</fix>
<hdop>0.00</hdop>
<vdop>0.00</vdop>
<pdop>0.00</pdop>
</trkpt>
<trkpt lat="47.173900" lon="8.505255">
<ele>418.200000</ele>
<time>2008-08-10T09:11:07.000Z</time>
<sat>0</sat>
<fix>3d</fix>
<hdop>0.00</hdop>
<vdop>0.00</vdop>
<pdop>0.00</pdop>
</trkpt>
<trkpt lat="47.176892" lon="8.499552">
<ele>415.400000</ele>
<time>2008-08-10T09:12:11.000Z</time>
<sat>0</sat>
<fix>3d</fix>
<hdop>0.00</hdop>
<vdop>0.00</vdop>
<pdop>0.00</pdop>
</trkpt>
<trkpt lat="47.178743" lon="8.501860">
<ele>419.000000</ele>
<time>2008-08-10T09:12:31.000Z</time>
<sat>0</sat>
<fix>3d</fix>
<hdop>0.00</hdop>
<vdop>0.00</vdop>
<pdop>0.00</pdop>
</trkpt>
<trkpt lat="47.176060" lon="8.506353">
<ele>427.100000</ele>
<time>2008-08-10T09:13:07.000Z</time>
<sat>0</sat>
<fix>3d</fix>
<hdop>0.00</hdop>
<vdop>0.00</vdop>
<pdop>0.00</pdop>
</trkpt>
<trkpt lat="47.175340" lon="8.506547">
<ele>422.400000</ele>
<time>2008-08-10T09:14:15.000Z</time>
<sat>0</sat>
<fix>3d</fix>
<hdop>0.00</hdop>
<vdop>0.00</vdop>
<pdop>0.00</pdop>
</trkpt>
<trkpt lat="47.176242" lon="8.506550">
<ele>428.800000</ele>
<time>2008-08-10T13:44:00.000Z</time>
<sat>0</sat>
<fix>3d</fix>
<hdop>0.00</hdop>
<vdop>0.00</vdop>
<pdop>0.00</pdop>
</trkpt>
<trkpt lat="47.178792" lon="8.502210">
<ele>423.500000</ele>
<time>2008-08-10T13:44:28.000Z</time>
<sat>0</sat>
<fix>3d</fix>
<hdop>0.00</hdop>
<vdop>0.00</vdop>
<pdop>0.00</pdop>
</trkpt>
<trkpt lat="47.176842" lon="8.499455">
<ele>419.500000</ele>
<time>2008-08-10T13:44:52.000Z</time>
<sat>0</sat>
<fix>3d</fix>
<hdop>0.00</hdop>
<vdop>0.00</vdop>
<pdop>0.00</pdop>
</trkpt>
<trkpt lat="47.178082" lon="8.496280">
<ele>418.700000</ele>
<time>2008-08-10T13:45:12.000Z</time>
<sat>0</sat>
<fix>3d</fix>
<hdop>0.00</hdop>
<vdop>0.00</vdop>
<pdop>0.00</pdop>
</trkpt>
<trkpt lat="47.179112" lon="8.490608">
<ele>415.100000</ele>
<time>2008-08-10T13:45:52.000Z</time>
<sat>0</sat>
<fix>3d</fix>
<hdop>0.00</hdop>
<vdop>0.00</vdop>
<pdop>0.00</pdop>
</trkpt>
<trkpt lat="47.180875" lon="8.485408">
<ele>415.900000</ele>
<time>2008-08-10T13:46:24.000Z</time>
<sat>0</sat>
<fix>3d</fix>
<hdop>0.00</hdop>
<vdop>0.00</vdop>
<pdop>0.00</pdop>
</trkpt>
<trkpt lat="47.184192" lon="8.482393">
<ele>415.200000</ele>
<time>2008-08-10T13:46:52.000Z</time>
<sat>0</sat>
<fix>3d</fix>
<hdop>0.00</hdop>
<vdop>0.00</vdop>
<pdop>0.00</pdop>
</trkpt>
<trkpt lat="47.185617" lon="8.474017">
<ele>416.800000</ele>
<time>2008-08-10T13:47:36.000Z</time>
<sat>0</sat>
<fix>3d</fix>
<hdop>0.00</hdop>
<vdop>0.00</vdop>
<pdop>0.00</pdop>
</trkpt>
<trkpt lat="47.186382" lon="8.472488">
<ele>417.100000</ele>
<time>2008-08-10T13:47:44.000Z</time>
<sat>0</sat>
<fix>3d</fix>
<hdop>0.00</hdop>
<vdop>0.00</vdop>
<pdop>0.00</pdop>
</trkpt>
<trkpt lat="47.187885" lon="8.471483">
<ele>415.800000</ele>
<time>2008-08-10T13:47:52.000Z</time>
<sat>0</sat>
<fix>3d</fix>
<hdop>0.00</hdop>
<vdop>0.00</vdop>
<pdop>0.00</pdop>
</trkpt>
<trkpt lat="47.192628" lon="8.473093">
<ele>423.400000</ele>
<time>2008-08-10T13:48:16.000Z</time>
<sat>0</sat>
<fix>3d</fix>
<hdop>0.00</hdop>
<vdop>0.00</vdop>
<pdop>0.00</pdop>
</trkpt>
<trkpt lat="47.192915" lon="8.473847">
<ele>423.200000</ele>
<time>2008-08-10T13:48:20.000Z</time>
<sat>0</sat>
<fix>3d</fix>
<hdop>0.00</hdop>
<vdop>0.00</vdop>
<pdop>0.00</pdop>
</trkpt>
<trkpt lat="47.191847" lon="8.474665">
<ele>419.200000</ele>
<time>2008-08-10T13:48:28.000Z</time>
<sat>0</sat>
<fix>3d</fix>
<hdop>0.00</hdop>
<vdop>0.00</vdop>
<pdop>0.00</pdop>
</trkpt>
<trkpt lat="47.191338" lon="8.473840">
<ele>415.500000</ele>
<time>2008-08-10T13:48:32.000Z</time>
<sat>0</sat>
<fix>3d</fix>
<hdop>0.00</hdop>
<vdop>0.00</vdop>
<pdop>0.00</pdop>
</trkpt>
<trkpt lat="47.200115" lon="8.461793">
<ele>431.500000</ele>
<time>2008-08-10T13:49:24.000Z</time>
<sat>0</sat>
<fix>3d</fix>
<hdop>0.00</hdop>
<vdop>0.00</vdop>
<pdop>0.00</pdop>
</trkpt>
<trkpt lat="47.200038" lon="8.459867">
<ele>434.500000</ele>
<time>2008-08-10T13:49:32.000Z</time>
<sat>0</sat>
<fix>3d</fix>
<hdop>0.00</hdop>
<vdop>0.00</vdop>
<pdop>0.00</pdop>
</trkpt>
<trkpt lat="47.183242" lon="8.437467">
<ele>448.500000</ele>
<time>2008-08-10T13:50:52.000Z</time>
<sat>0</sat>
<fix>3d</fix>
<hdop>0.00</hdop>
<vdop>0.00</vdop>
<pdop>0.00</pdop>
</trkpt>
<trkpt lat="47.180098" lon="8.434578">
<ele>457.000000</ele>
<time>2008-08-10T13:51:04.000Z</time>
<sat>0</sat>
<fix>3d</fix>
<hdop>0.00</hdop>
<vdop>0.00</vdop>
<pdop>0.00</pdop>
</trkpt>
<trkpt lat="47.174370" lon="8.432072">
<ele>465.800000</ele>
<time>2008-08-10T13:51:24.000Z</time>
<sat>0</sat>
<fix>3d</fix>
<hdop>0.00</hdop>
<vdop>0.00</vdop>
<pdop>0.00</pdop>
</trkpt>
<trkpt lat="47.158587" lon="8.432983">
<ele>444.600000</ele>
<time>2008-08-10T13:52:16.000Z</time>
<sat>0</sat>
<fix>3d</fix>
<hdop>0.00</hdop>
<vdop>0.00</vdop>
<pdop>0.00</pdop>
</trkpt>
<trkpt lat="47.153815" lon="8.431737">
<ele>438.600000</ele>
<time>2008-08-10T13:52:32.000Z</time>
<sat>0</sat>
<fix>3d</fix>
<hdop>0.00</hdop>
<vdop>0.00</vdop>
<pdop>0.00</pdop>
</trkpt>
<trkpt lat="47.150573" lon="8.429118">
<ele>431.600000</ele>
<time>2008-08-10T13:52:44.000Z</time>
<sat>0</sat>
<fix>3d</fix>
<hdop>0.00</hdop>
<vdop>0.00</vdop>
<pdop>0.00</pdop>
</trkpt>
<trkpt lat="47.147922" lon="8.425322">
<ele>431.000000</ele>
<time>2008-08-10T13:52:56.000Z</time>
<sat>0</sat>
<fix>3d</fix>
<hdop>0.00</hdop>
<vdop>0.00</vdop>
<pdop>0.00</pdop>
</trkpt>
<trkpt lat="47.142537" lon="8.410910">
<ele>408.700000</ele>
<time>2008-08-10T13:53:32.000Z</time>
<sat>0</sat>
<fix>3d</fix>
<hdop>0.00</hdop>
<vdop>0.00</vdop>
<pdop>0.00</pdop>
</trkpt>
<trkpt lat="47.135768" lon="8.400685">
<ele>407.300000</ele>
<time>2008-08-10T13:54:04.000Z</time>
<sat>0</sat>
<fix>3d</fix>
<hdop>0.00</hdop>
<vdop>0.00</vdop>
<pdop>0.00</pdop>
</trkpt>
<trkpt lat="47.133795" lon="8.398698">
<ele>407.100000</ele>
<time>2008-08-10T13:54:12.000Z</time>
<sat>0</sat>
<fix>3d</fix>
<hdop>0.00</hdop>
<vdop>0.00</vdop>
<pdop>0.00</pdop>
</trkpt>
<trkpt lat="47.123520" lon="8.393052">
<ele>411.200000</ele>
<time>2008-08-10T13:54:48.000Z</time>
<sat>0</sat>
<fix>3d</fix>
<hdop>0.00</hdop>
<vdop>0.00</vdop>
<pdop>0.00</pdop>
</trkpt>
<trkpt lat="47.120127" lon="8.388068">
<ele>411.300000</ele>
<time>2008-08-10T13:55:04.000Z</time>
<sat>0</sat>
<fix>3d</fix>
<hdop>0.00</hdop>
<vdop>0.00</vdop>
<pdop>0.00</pdop>
</trkpt>
<trkpt lat="47.119057" lon="8.383047">
<ele>413.100000</ele>
<time>2008-08-10T13:55:16.000Z</time>
<sat>0</sat>
<fix>3d</fix>
<hdop>0.00</hdop>
<vdop>0.00</vdop>
<pdop>0.00</pdop>
</trkpt>
<trkpt lat="47.118877" lon="8.365502">
<ele>417.300000</ele>
<time>2008-08-10T13:55:56.000Z</time>
<sat>0</sat>
<fix>3d</fix>
<hdop>0.00</hdop>
<vdop>0.00</vdop>
<pdop>0.00</pdop>
</trkpt>
<trkpt lat="47.118182" lon="8.362142">
<ele>418.500000</ele>
<time>2008-08-10T13:56:04.000Z</time>
<sat>0</sat>
<fix>3d</fix>
<hdop>0.00</hdop>
<vdop>0.00</vdop>
<pdop>0.00</pdop>
</trkpt>
<trkpt lat="47.116045" lon="8.357763">
<ele>418.600000</ele>
<time>2008-08-10T13:56:16.000Z</time>
<sat>0</sat>
<fix>3d</fix>
<hdop>0.00</hdop>
<vdop>0.00</vdop>
<pdop>0.00</pdop>
</trkpt>
<trkpt lat="47.112132" lon="8.353363">
<ele>417.400000</ele>
<time>2008-08-10T13:56:32.000Z</time>
<sat>0</sat>
<fix>3d</fix>
<hdop>0.00</hdop>
<vdop>0.00</vdop>
<pdop>0.00</pdop>
</trkpt>
<trkpt lat="47.105730" lon="8.348023">
<ele>417.900000</ele>
<time>2008-08-10T13:56:56.000Z</time>
<sat>0</sat>
<fix>3d</fix>
<hdop>0.00</hdop>
<vdop>0.00</vdop>
<pdop>0.00</pdop>
</trkpt>
<trkpt lat="47.100970" lon="8.342255">
<ele>421.600000</ele>
<time>2008-08-10T13:57:16.000Z</time>
<sat>0</sat>
<fix>3d</fix>
<hdop>0.00</hdop>
<vdop>0.00</vdop>
<pdop>0.00</pdop>
</trkpt>
<trkpt lat="47.095468" lon="8.337772">
<ele>422.900000</ele>
<time>2008-08-10T13:57:36.000Z</time>
<sat>0</sat>
<fix>3d</fix>
<hdop>0.00</hdop>
<vdop>0.00</vdop>
<pdop>0.00</pdop>
</trkpt>
<trkpt lat="47.093608" lon="8.335342">
<ele>425.600000</ele>
<time>2008-08-10T13:57:44.000Z</time>
<sat>0</sat>
<fix>3d</fix>
<hdop>0.00</hdop>
<vdop>0.00</vdop>
<pdop>0.00</pdop>
</trkpt>
<trkpt lat="47.089055" lon="8.326593">
<ele>432.700000</ele>
<time>2008-08-10T13:58:08.000Z</time>
<sat>0</sat>
<fix>3d</fix>
<hdop>0.00</hdop>
<vdop>0.00</vdop>
<pdop>0.00</pdop>
</trkpt>
<trkpt lat="47.080560" lon="8.316345">
<ele>427.100000</ele>
<time>2008-08-10T13:58:44.000Z</time>
<sat>0</sat>
<fix>3d</fix>
<hdop>0.00</hdop>
<vdop>0.00</vdop>
<pdop>0.00</pdop>
</trkpt>
<trkpt lat="47.074683" lon="8.303855">
<ele>439.100000</ele>
<time>2008-08-10T13:59:28.000Z</time>
<sat>0</sat>
<fix>3d</fix>
<hdop>0.00</hdop>
<vdop>0.00</vdop>
<pdop>0.00</pdop>
</trkpt>
<trkpt lat="47.065510" lon="8.287047">
<ele>438.300000</ele>
<time>2008-08-10T14:00:44.000Z</time>
<sat>0</sat>
<fix>3d</fix>
<hdop>0.00</hdop>
<vdop>0.00</vdop>
<pdop>0.00</pdop>
</trkpt>
<trkpt lat="47.063102" lon="8.286397">
<ele>441.600000</ele>
<time>2008-08-10T14:00:56.000Z</time>
<sat>0</sat>
<fix>3d</fix>
<hdop>0.00</hdop>
<vdop>0.00</vdop>
<pdop>0.00</pdop>
</trkpt>
<trkpt lat="47.058698" lon="8.289442">
<ele>447.300000</ele>
<time>2008-08-10T14:01:20.000Z</time>
<sat>0</sat>
<fix>3d</fix>
<hdop>0.00</hdop>
<vdop>0.00</vdop>
<pdop>0.00</pdop>
</trkpt>
<trkpt lat="47.035215" lon="8.295432">
<ele>486.100000</ele>
<time>2008-08-10T14:03:24.000Z</time>
<sat>0</sat>
<fix>3d</fix>
<hdop>0.00</hdop>
<vdop>0.00</vdop>
<pdop>0.00</pdop>
</trkpt>
<trkpt lat="47.027623" lon="8.294052">
<ele>468.600000</ele>
<time>2008-08-10T14:03:56.000Z</time>
<sat>0</sat>
<fix>3d</fix>
<hdop>0.00</hdop>
<vdop>0.00</vdop>
<pdop>0.00</pdop>
</trkpt>
<trkpt lat="47.016712" lon="8.298710">
<ele>453.200000</ele>
<time>2008-08-10T14:04:44.000Z</time>
<sat>0</sat>
<fix>3d</fix>
<hdop>0.00</hdop>
<vdop>0.00</vdop>
<pdop>0.00</pdop>
</trkpt>
<trkpt lat="47.015577" lon="8.300883">
<ele>455.300000</ele>
<time>2008-08-10T14:04:52.000Z</time>
<sat>0</sat>
<fix>3d</fix>
<hdop>0.00</hdop>
<vdop>0.00</vdop>
<pdop>0.00</pdop>
</trkpt>
<trkpt lat="47.000217" lon="8.311375">
<ele>447.000000</ele>
<time>2008-08-10T14:06:04.000Z</time>
<sat>0</sat>
<fix>3d</fix>
<hdop>0.00</hdop>
<vdop>0.00</vdop>
<pdop>0.00</pdop>
</trkpt>
<trkpt lat="46.995612" lon="8.310032">
<ele>465.300000</ele>
<time>2008-08-10T14:06:24.000Z</time>
<sat>0</sat>
<fix>3d</fix>
<hdop>0.00</hdop>
<vdop>0.00</vdop>
<pdop>0.00</pdop>
</trkpt>
<trkpt lat="46.993167" lon="8.307973">
<ele>465.100000</ele>
<time>2008-08-10T14:06:36.000Z</time>
<sat>0</sat>
<fix>3d</fix>
<hdop>0.00</hdop>
<vdop>0.00</vdop>
<pdop>0.00</pdop>
</trkpt>
<trkpt lat="46.991442" lon="8.307863">
<ele>466.000000</ele>
<time>2008-08-10T14:06:44.000Z</time>
<sat>0</sat>
<fix>3d</fix>
<hdop>0.00</hdop>
<vdop>0.00</vdop>
<pdop>0.00</pdop>
</trkpt>
<trkpt lat="46.989230" lon="8.308945">
<ele>476.800000</ele>
<time>2008-08-10T14:06:56.000Z</time>
<sat>0</sat>
<fix>3d</fix>
<hdop>0.00</hdop>
<vdop>0.00</vdop>
<pdop>0.00</pdop>
</trkpt>
<trkpt lat="46.980848" lon="8.307667">
<ele>451.300000</ele>
<time>2008-08-10T14:07:40.000Z</time>
<sat>0</sat>
<fix>3d</fix>
<hdop>0.00</hdop>
<vdop>0.00</vdop>
<pdop>0.00</pdop>
</trkpt>
<trkpt lat="46.966642" lon="8.294565">
<ele>439.800000</ele>
<time>2008-08-10T14:09:12.000Z</time>
<sat>0</sat>
<fix>3d</fix>
<hdop>0.00</hdop>
<vdop>0.00</vdop>
<pdop>0.00</pdop>
</trkpt>
<trkpt lat="46.961295" lon="8.287867">
<ele>444.600000</ele>
<time>2008-08-10T14:09:40.000Z</time>
<sat>0</sat>
<fix>3d</fix>
<hdop>0.00</hdop>
<vdop>0.00</vdop>
<pdop>0.00</pdop>
</trkpt>
<trkpt lat="46.958027" lon="8.280760">
<ele>439.900000</ele>
<time>2008-08-10T14:10:04.000Z</time>
<sat>0</sat>
<fix>3d</fix>
<hdop>0.00</hdop>
<vdop>0.00</vdop>
<pdop>0.00</pdop>
</trkpt>
<trkpt lat="46.955755" lon="8.278565">
<ele>439.100000</ele>
<time>2008-08-10T14:10:16.000Z</time>
<sat>0</sat>
<fix>3d</fix>
<hdop>0.00</hdop>
<vdop>0.00</vdop>
<pdop>0.00</pdop>
</trkpt>
<trkpt lat="46.948278" lon="8.276713">
<ele>450.000000</ele>
<time>2008-08-10T14:10:48.000Z</time>
<sat>0</sat>
<fix>3d</fix>
<hdop>0.00</hdop>
<vdop>0.00</vdop>
<pdop>0.00</pdop>
</trkpt>
<trkpt lat="46.943578" lon="8.277770">
<ele>460.400000</ele>
<time>2008-08-10T14:11:08.000Z</time>
<sat>0</sat>
<fix>3d</fix>
<hdop>0.00</hdop>
<vdop>0.00</vdop>
<pdop>0.00</pdop>
</trkpt>
<trkpt lat="46.930197" lon="8.276872">
<ele>465.100000</ele>
<time>2008-08-10T14:12:04.000Z</time>
<sat>0</sat>
<fix>3d</fix>
<hdop>0.00</hdop>
<vdop>0.00</vdop>
<pdop>0.00</pdop>
</trkpt>
<trkpt lat="46.925517" lon="8.275085">
<ele>471.000000</ele>
<time>2008-08-10T14:12:24.000Z</time>
<sat>0</sat>
<fix>3d</fix>
<hdop>0.00</hdop>
<vdop>0.00</vdop>
<pdop>0.00</pdop>
</trkpt>
<trkpt lat="46.917152" lon="8.267972">
<ele>467.100000</ele>
<time>2008-08-10T14:13:04.000Z</time>
<sat>0</sat>
<fix>3d</fix>
<hdop>0.00</hdop>
<vdop>0.00</vdop>
<pdop>0.00</pdop>
</trkpt>
<trkpt lat="46.910475" lon="8.263525">
<ele>472.300000</ele>
<time>2008-08-10T14:13:36.000Z</time>
<sat>0</sat>
<fix>3d</fix>
<hdop>0.00</hdop>
<vdop>0.00</vdop>
<pdop>0.00</pdop>
</trkpt>
<trkpt lat="46.904013" lon="8.261660">
<ele>468.900000</ele>
<time>2008-08-10T14:14:04.000Z</time>
<sat>0</sat>
<fix>3d</fix>
<hdop>0.00</hdop>
<vdop>0.00</vdop>
<pdop>0.00</pdop>
</trkpt>
<trkpt lat="46.896657" lon="8.256173">
<ele>486.300000</ele>
<time>2008-08-10T14:14:48.000Z</time>
<sat>0</sat>
<fix>3d</fix>
<hdop>0.00</hdop>
<vdop>0.00</vdop>
<pdop>0.00</pdop>
</trkpt>
<trkpt lat="46.896717" lon="8.254460">
<ele>478.900000</ele>
<time>2008-08-10T14:14:56.000Z</time>
<sat>0</sat>
<fix>3d</fix>
<hdop>0.00</hdop>
<vdop>0.00</vdop>
<pdop>0.00</pdop>
</trkpt>
<trkpt lat="46.898730" lon="8.248185">
<ele>465.900000</ele>
<time>2008-08-10T14:15:36.000Z</time>
<sat>0</sat>
<fix>3d</fix>
<hdop>0.00</hdop>
<vdop>0.00</vdop>
<pdop>0.00</pdop>
</trkpt>
<trkpt lat="46.898645" lon="8.244635">
<ele>472.000000</ele>
<time>2008-08-10T14:16:08.000Z</time>
<sat>0</sat>
<fix>3d</fix>
<hdop>0.00</hdop>
<vdop>0.00</vdop>
<pdop>0.00</pdop>
</trkpt>
<trkpt lat="46.896045" lon="8.241807">
<ele>501.200000</ele>
<time>2008-08-10T14:16:32.000Z</time>
<sat>0</sat>
<fix>3d</fix>
<hdop>0.00</hdop>
<vdop>0.00</vdop>
<pdop>0.00</pdop>
</trkpt>
<trkpt lat="46.895587" lon="8.238417">
<ele>534.400000</ele>
<time>2008-08-10T14:16:52.000Z</time>
<sat>0</sat>
<fix>3d</fix>
<hdop>0.00</hdop>
<vdop>0.00</vdop>
<pdop>0.00</pdop>
</trkpt>
<trkpt lat="46.894035" lon="8.235168">
<ele>568.200000</ele>
<time>2008-08-10T14:17:12.000Z</time>
<sat>0</sat>
<fix>3d</fix>
<hdop>0.00</hdop>
<vdop>0.00</vdop>
<pdop>0.00</pdop>
</trkpt>
<trkpt lat="46.895147" lon="8.233195">
<ele>589.000000</ele>
<time>2008-08-10T14:17:24.000Z</time>
<sat>0</sat>
<fix>3d</fix>
<hdop>0.00</hdop>
<vdop>0.00</vdop>
<pdop>0.00</pdop>
</trkpt>
<trkpt lat="46.895170" lon="8.231878">
<ele>605.200000</ele>
<time>2008-08-10T14:17:32.000Z</time>
<sat>0</sat>
<fix>3d</fix>
<hdop>0.00</hdop>
<vdop>0.00</vdop>
<pdop>0.00</pdop>
</trkpt>
<trkpt lat="46.894418" lon="8.232388">
<ele>617.600000</ele>
<time>2008-08-10T14:17:40.000Z</time>
<sat>0</sat>
<fix>3d</fix>
<hdop>0.00</hdop>
<vdop>0.00</vdop>
<pdop>0.00</pdop>
</trkpt>
<trkpt lat="46.889960" lon="8.221655">
<ele>712.400000</ele>
<time>2008-08-10T14:18:28.000Z</time>
<sat>0</sat>
<fix>3d</fix>
<hdop>0.00</hdop>
<vdop>0.00</vdop>
<pdop>0.00</pdop>
</trkpt>
<trkpt lat="46.888123" lon="8.220112">
<ele>738.700000</ele>
<time>2008-08-10T14:18:40.000Z</time>
<sat>0</sat>
<fix>3d</fix>
<hdop>0.00</hdop>
<vdop>0.00</vdop>
<pdop>0.00</pdop>
</trkpt>
<trkpt lat="46.887428" lon="8.213835">
<ele>777.800000</ele>
<time>2008-08-10T14:19:04.000Z</time>
<sat>0</sat>
<fix>3d</fix>
<hdop>0.00</hdop>
<vdop>0.00</vdop>
<pdop>0.00</pdop>
</trkpt>
<trkpt lat="46.886477" lon="8.211248">
<ele>804.700000</ele>
<time>2008-08-10T14:19:20.000Z</time>
<sat>0</sat>
<fix>3d</fix>
<hdop>0.00</hdop>
<vdop>0.00</vdop>
<pdop>0.00</pdop>
</trkpt>
<trkpt lat="46.886548" lon="8.209582">
<ele>806.400000</ele>
<time>2008-08-10T14:19:28.000Z</time>
<sat>0</sat>
<fix>3d</fix>
<hdop>0.00</hdop>
<vdop>0.00</vdop>
<pdop>0.00</pdop>
</trkpt>
<trkpt lat="46.882302" lon="8.195373">
<ele>826.400000</ele>
<time>2008-08-10T14:20:28.000Z</time>
<sat>0</sat>
<fix>3d</fix>
<hdop>0.00</hdop>
<vdop>0.00</vdop>
<pdop>0.00</pdop>
</trkpt>
<trkpt lat="46.881508" lon="8.190130">
<ele>854.200000</ele>
<time>2008-08-10T14:20:48.000Z</time>
<sat>0</sat>
<fix>3d</fix>
<hdop>0.00</hdop>
<vdop>0.00</vdop>
<pdop>0.00</pdop>
</trkpt>
<trkpt lat="46.879902" lon="8.187132">
<ele>870.200000</ele>
<time>2008-08-10T14:21:04.000Z</time>
<sat>0</sat>
<fix>3d</fix>
<hdop>0.00</hdop>
<vdop>0.00</vdop>
<pdop>0.00</pdop>
</trkpt>
<trkpt lat="46.878342" lon="8.182012">
<ele>895.300000</ele>
<time>2008-08-10T14:21:24.000Z</time>
<sat>0</sat>
<fix>3d</fix>
<hdop>0.00</hdop>
<vdop>0.00</vdop>
<pdop>0.00</pdop>
</trkpt>
<trkpt lat="46.879657" lon="8.178858">
<ele>912.700000</ele>
<time>2008-08-10T14:21:44.000Z</time>
<sat>0</sat>
<fix>3d</fix>
<hdop>0.00</hdop>
<vdop>0.00</vdop>
<pdop>0.00</pdop>
</trkpt>
<trkpt lat="46.881660" lon="8.179058">
<ele>950.000000</ele>
<time>2008-08-10T14:22:04.000Z</time>
<sat>0</sat>
<fix>3d</fix>
<hdop>0.00</hdop>
<vdop>0.00</vdop>
<pdop>0.00</pdop>
</trkpt>
<trkpt lat="46.881853" lon="8.177597">
<ele>945.000000</ele>
<time>2008-08-10T14:22:12.000Z</time>
<sat>0</sat>
<fix>3d</fix>
<hdop>0.00</hdop>
<vdop>0.00</vdop>
<pdop>0.00</pdop>
</trkpt>
<trkpt lat="46.878908" lon="8.171188">
<ele>989.000000</ele>
<time>2008-08-10T14:22:48.000Z</time>
<sat>0</sat>
<fix>3d</fix>
<hdop>0.00</hdop>
<vdop>0.00</vdop>
<pdop>0.00</pdop>
</trkpt>
<trkpt lat="46.877392" lon="8.164502">
<ele>1018.300000</ele>
<time>2008-08-10T14:23:28.000Z</time>
<sat>0</sat>
<fix>3d</fix>
<hdop>0.00</hdop>
<vdop>0.00</vdop>
<pdop>0.00</pdop>
</trkpt>
<trkpt lat="46.878757" lon="8.166040">
<ele>1040.300000</ele>
<time>2008-08-10T14:23:44.000Z</time>
<sat>0</sat>
<fix>3d</fix>
<hdop>0.00</hdop>
<vdop>0.00</vdop>
<pdop>0.00</pdop>
</trkpt>
<trkpt lat="46.878817" lon="8.159915">
<ele>1087.000000</ele>
<time>2008-08-10T14:24:12.000Z</time>
<sat>0</sat>
<fix>3d</fix>
<hdop>0.00</hdop>
<vdop>0.00</vdop>
<pdop>0.00</pdop>
</trkpt>
<trkpt lat="46.879965" lon="8.156600">
<ele>1112.100000</ele>
<time>2008-08-10T14:24:28.000Z</time>
<sat>0</sat>
<fix>3d</fix>
<hdop>0.00</hdop>
<vdop>0.00</vdop>
<pdop>0.00</pdop>
</trkpt>
<trkpt lat="46.879647" lon="8.150315">
<ele>1171.200000</ele>
<time>2008-08-10T14:25:00.000Z</time>
<sat>0</sat>
<fix>3d</fix>
<hdop>0.00</hdop>
<vdop>0.00</vdop>
<pdop>0.00</pdop>
</trkpt>
<trkpt lat="46.880352" lon="8.149357">
<ele>1186.700000</ele>
<time>2008-08-10T14:25:08.000Z</time>
<sat>0</sat>
<fix>3d</fix>
<hdop>0.00</hdop>
<vdop>0.00</vdop>
<pdop>0.00</pdop>
</trkpt>
<trkpt lat="46.880123" lon="8.146905">
<ele>1206.300000</ele>
<time>2008-08-10T14:25:20.000Z</time>
<sat>0</sat>
<fix>3d</fix>
<hdop>0.00</hdop>
<vdop>0.00</vdop>
<pdop>0.00</pdop>
</trkpt>
<trkpt lat="46.879510" lon="8.146082">
<ele>1218.500000</ele>
<time>2008-08-10T14:25:28.000Z</time>
<sat>0</sat>
<fix>3d</fix>
<hdop>0.00</hdop>
<vdop>0.00</vdop>
<pdop>0.00</pdop>
</trkpt>
<trkpt lat="46.880165" lon="8.146172">
<ele>1214.600000</ele>
<time>2008-08-10T14:31:48.000Z</time>
<sat>0</sat>
<fix>3d</fix>
<hdop>0.00</hdop>
<vdop>0.00</vdop>
<pdop>0.00</pdop>
</trkpt>
<trkpt lat="46.882945" lon="8.150523">
<ele>1278.000000</ele>
<time>2008-08-10T14:32:16.000Z</time>
<sat>0</sat>
<fix>3d</fix>
<hdop>0.00</hdop>
<vdop>0.00</vdop>
<pdop>0.00</pdop>
</trkpt>
<trkpt lat="46.882473" lon="8.146807">
<ele>1298.200000</ele>
<time>2008-08-10T14:32:36.000Z</time>
<sat>0</sat>
<fix>3d</fix>
<hdop>0.00</hdop>
<vdop>0.00</vdop>
<pdop>0.00</pdop>
</trkpt>
<trkpt lat="46.882795" lon="8.144902">
<ele>1311.600000</ele>
<time>2008-08-10T14:32:48.000Z</time>
<sat>0</sat>
<fix>3d</fix>
<hdop>0.00</hdop>
<vdop>0.00</vdop>
<pdop>0.00</pdop>
</trkpt>
<trkpt lat="46.884308" lon="8.143045">
<ele>1328.500000</ele>
<time>2008-08-10T14:33:00.000Z</time>
<sat>0</sat>
<fix>3d</fix>
<hdop>0.00</hdop>
<vdop>0.00</vdop>
<pdop>0.00</pdop>
</trkpt>
<trkpt lat="46.884435" lon="8.141070">
<ele>1342.400000</ele>
<time>2008-08-10T14:33:08.000Z</time>
<sat>0</sat>
<fix>3d</fix>
<hdop>0.00</hdop>
<vdop>0.00</vdop>
<pdop>0.00</pdop>
</trkpt>
<trkpt lat="46.886473" lon="8.137212">
<ele>1365.400000</ele>
<time>2008-08-10T14:33:28.000Z</time>
<sat>0</sat>
<fix>3d</fix>
<hdop>0.00</hdop>
<vdop>0.00</vdop>
<pdop>0.00</pdop>
</trkpt>
<trkpt lat="46.889355" lon="8.136258">
<ele>1378.700000</ele>
<time>2008-08-10T14:33:48.000Z</time>
<sat>0</sat>
<fix>3d</fix>
<hdop>0.00</hdop>
<vdop>0.00</vdop>
<pdop>0.00</pdop>
</trkpt>
<trkpt lat="46.891358" lon="8.132817">
<ele>1412.700000</ele>
<time>2008-08-10T14:34:08.000Z</time>
<sat>0</sat>
<fix>3d</fix>
<hdop>0.00</hdop>
<vdop>0.00</vdop>
<pdop>0.00</pdop>
</trkpt>
<trkpt lat="46.892843" lon="8.125118">
<ele>1446.100000</ele>
<time>2008-08-10T14:34:48.000Z</time>
<sat>0</sat>
<fix>3d</fix>
<hdop>0.00</hdop>
<vdop>0.00</vdop>
<pdop>0.00</pdop>
</trkpt>
<trkpt lat="46.890112" lon="8.119965">
<ele>1449.000000</ele>
<time>2008-08-10T14:35:16.000Z</time>
<sat>0</sat>
<fix>3d</fix>
<hdop>0.00</hdop>
<vdop>0.00</vdop>
<pdop>0.00</pdop>
</trkpt>
<trkpt lat="46.888865" lon="8.115685">
<ele>1465.600000</ele>
<time>2008-08-10T14:35:40.000Z</time>
<sat>0</sat>
<fix>3d</fix>
<hdop>0.00</hdop>
<vdop>0.00</vdop>
<pdop>0.00</pdop>
</trkpt>
<trkpt lat="46.889447" lon="8.112035">
<ele>1498.900000</ele>
<time>2008-08-10T14:36:04.000Z</time>
<sat>0</sat>
<fix>3d</fix>
<hdop>0.00</hdop>
<vdop>0.00</vdop>
<pdop>0.00</pdop>
</trkpt>
<trkpt lat="46.891238" lon="8.107992">
<ele>1536.500000</ele>
<time>2008-08-10T14:36:24.000Z</time>
<sat>0</sat>
<fix>3d</fix>
<hdop>0.00</hdop>
<vdop>0.00</vdop>
<pdop>0.00</pdop>
</trkpt>
<trkpt lat="46.892603" lon="8.107633">
<ele>1555.500000</ele>
<time>2008-08-10T14:36:40.000Z</time>
<sat>0</sat>
<fix>3d</fix>
<hdop>0.00</hdop>
<vdop>0.00</vdop>
<pdop>0.00</pdop>
</trkpt>
<trkpt lat="46.896583" lon="8.111052">
<ele>1499.300000</ele>
<time>2008-08-10T14:37:28.000Z</time>
<sat>0</sat>
<fix>3d</fix>
<hdop>0.00</hdop>
<vdop>0.00</vdop>
<pdop>0.00</pdop>
</trkpt>
<trkpt lat="46.903248" lon="8.113103">
<ele>1406.600000</ele>
<time>2008-08-10T14:38:08.000Z</time>
<sat>0</sat>
<fix>3d</fix>
<hdop>0.00</hdop>
<vdop>0.00</vdop>
<pdop>0.00</pdop>
</trkpt>
<trkpt lat="46.902002" lon="8.110352">
<ele>1383.200000</ele>
<time>2008-08-10T14:38:24.000Z</time>
<sat>0</sat>
<fix>3d</fix>
<hdop>0.00</hdop>
<vdop>0.00</vdop>
<pdop>0.00</pdop>
</trkpt>
<trkpt lat="46.902662" lon="8.109435">
<ele>1377.400000</ele>
<time>2008-08-10T14:38:32.000Z</time>
<sat>0</sat>
<fix>3d</fix>
<hdop>0.00</hdop>
<vdop>0.00</vdop>
<pdop>0.00</pdop>
</trkpt>
<trkpt lat="46.905020" lon="8.110945">
<ele>1375.000000</ele>
<time>2008-08-10T14:38:44.000Z</time>
<sat>0</sat>
<fix>3d</fix>
<hdop>0.00</hdop>
<vdop>0.00</vdop>
<pdop>0.00</pdop>
</trkpt>
<trkpt lat="46.908925" lon="8.111178">
<ele>1367.000000</ele>
<time>2008-08-10T14:39:04.000Z</time>
<sat>0</sat>
<fix>3d</fix>
<hdop>0.00</hdop>
<vdop>0.00</vdop>
<pdop>0.00</pdop>
</trkpt>
<trkpt lat="46.911465" lon="8.112602">
<ele>1353.900000</ele>
<time>2008-08-10T14:39:20.000Z</time>
<sat>0</sat>
<fix>3d</fix>
<hdop>0.00</hdop>
<vdop>0.00</vdop>
<pdop>0.00</pdop>
</trkpt>
<trkpt lat="46.915802" lon="8.117917">
<ele>1290.500000</ele>
<time>2008-08-10T14:39:52.000Z</time>
<sat>0</sat>
<fix>3d</fix>
<hdop>0.00</hdop>
<vdop>0.00</vdop>
<pdop>0.00</pdop>
</trkpt>
<trkpt lat="46.920022" lon="8.121618">
<ele>1272.800000</ele>
<time>2008-08-10T14:40:20.000Z</time>
<sat>0</sat>
<fix>3d</fix>
<hdop>0.00</hdop>
<vdop>0.00</vdop>
<pdop>0.00</pdop>
</trkpt>
<trkpt lat="46.922233" lon="8.121188">
<ele>1273.700000</ele>
<time>2008-08-10T14:40:36.000Z</time>
<sat>0</sat>
<fix>3d</fix>
<hdop>0.00</hdop>
<vdop>0.00</vdop>
<pdop>0.00</pdop>
</trkpt>
<trkpt lat="46.929018" lon="8.122848">
<ele>1180.700000</ele>
<time>2008-08-10T14:41:32.000Z</time>
<sat>0</sat>
<fix>3d</fix>
<hdop>0.00</hdop>
<vdop>0.00</vdop>
<pdop>0.00</pdop>
</trkpt>
<trkpt lat="46.928628" lon="8.121562">
<ele>1169.300000</ele>
<time>2008-08-10T14:41:40.000Z</time>
<sat>0</sat>
<fix>3d</fix>
<hdop>0.00</hdop>
<vdop>0.00</vdop>
<pdop>0.00</pdop>
</trkpt>
<trkpt lat="46.930772" lon="8.123547">
<ele>1138.500000</ele>
<time>2008-08-10T14:42:04.000Z</time>
<sat>0</sat>
<fix>3d</fix>
<hdop>0.00</hdop>
<vdop>0.00</vdop>
<pdop>0.00</pdop>
</trkpt>
<trkpt lat="46.931278" lon="8.125130">
<ele>1131.600000</ele>
<time>2008-08-10T14:42:12.000Z</time>
<sat>0</sat>
<fix>3d</fix>
<hdop>0.00</hdop>
<vdop>0.00</vdop>
<pdop>0.00</pdop>
</trkpt>
<trkpt lat="46.936097" lon="8.131937">
<ele>1117.200000</ele>
<time>2008-08-10T14:42:52.000Z</time>
<sat>0</sat>
<fix>3d</fix>
<hdop>0.00</hdop>
<vdop>0.00</vdop>
<pdop>0.00</pdop>
</trkpt>
<trkpt lat="46.939278" lon="8.133673">
<ele>1098.500000</ele>
<time>2008-08-10T14:43:12.000Z</time>
<sat>0</sat>
<fix>3d</fix>
<hdop>0.00</hdop>
<vdop>0.00</vdop>
<pdop>0.00</pdop>
</trkpt>
<trkpt lat="46.940197" lon="8.135202">
<ele>1084.400000</ele>
<time>2008-08-10T14:43:24.000Z</time>
<sat>0</sat>
<fix>3d</fix>
<hdop>0.00</hdop>
<vdop>0.00</vdop>
<pdop>0.00</pdop>
</trkpt>
<trkpt lat="46.939997" lon="8.133998">
<ele>1074.700000</ele>
<time>2008-08-10T14:43:32.000Z</time>
<sat>0</sat>
<fix>3d</fix>
<hdop>0.00</hdop>
<vdop>0.00</vdop>
<pdop>0.00</pdop>
</trkpt>
<trkpt lat="46.941505" lon="8.134948">
<ele>1068.900000</ele>
<time>2008-08-10T14:43:44.000Z</time>
<sat>0</sat>
<fix>3d</fix>
<hdop>0.00</hdop>
<vdop>0.00</vdop>
<pdop>0.00</pdop>
</trkpt>
<trkpt lat="46.943467" lon="8.134877">
<ele>1065.500000</ele>
<time>2008-08-10T14:43:56.000Z</time>
<sat>0</sat>
<fix>3d</fix>
<hdop>0.00</hdop>
<vdop>0.00</vdop>
<pdop>0.00</pdop>
</trkpt>
<trkpt lat="46.944050" lon="8.132892">
<ele>1048.900000</ele>
<time>2008-08-10T14:44:04.000Z</time>
<sat>0</sat>
<fix>3d</fix>
<hdop>0.00</hdop>
<vdop>0.00</vdop>
<pdop>0.00</pdop>
</trkpt>
<trkpt lat="46.948343" lon="8.130162">
<ele>1018.500000</ele>
<time>2008-08-10T14:44:32.000Z</time>
<sat>0</sat>
<fix>3d</fix>
<hdop>0.00</hdop>
<vdop>0.00</vdop>
<pdop>0.00</pdop>
</trkpt>
<trkpt lat="46.949055" lon="8.130355">
<ele>1013.900000</ele>
<time>2008-08-10T14:44:40.000Z</time>
<sat>0</sat>
<fix>3d</fix>
<hdop>0.00</hdop>
<vdop>0.00</vdop>
<pdop>0.00</pdop>
</trkpt>
<trkpt lat="46.950012" lon="8.129115">
<ele>1008.500000</ele>
<time>2008-08-10T14:44:48.000Z</time>
<sat>0</sat>
<fix>3d</fix>
<hdop>0.00</hdop>
<vdop>0.00</vdop>
<pdop>0.00</pdop>
</trkpt>
<trkpt lat="46.955180" lon="8.126892">
<ele>1004.400000</ele>
<time>2008-08-10T14:45:16.000Z</time>
<sat>0</sat>
<fix>3d</fix>
<hdop>0.00</hdop>
<vdop>0.00</vdop>
<pdop>0.00</pdop>
</trkpt>
<trkpt lat="46.958658" lon="8.126910">
<ele>1008.400000</ele>
<time>2008-08-10T14:45:40.000Z</time>
<sat>0</sat>
<fix>3d</fix>
<hdop>0.00</hdop>
<vdop>0.00</vdop>
<pdop>0.00</pdop>
</trkpt>
<trkpt lat="46.964390" lon="8.117870">
<ele>1005.900000</ele>
<time>2008-08-10T14:46:24.000Z</time>
<sat>0</sat>
<fix>3d</fix>
<hdop>0.00</hdop>
<vdop>0.00</vdop>
<pdop>0.00</pdop>
</trkpt>
<trkpt lat="46.965932" lon="8.111148">
<ele>1012.500000</ele>
<time>2008-08-10T14:46:48.000Z</time>
<sat>0</sat>
<fix>3d</fix>
<hdop>0.00</hdop>
<vdop>0.00</vdop>
<pdop>0.00</pdop>
</trkpt>
<trkpt lat="46.966218" lon="8.106935">
<ele>1023.700000</ele>
<time>2008-08-10T14:47:04.000Z</time>
<sat>0</sat>
<fix>3d</fix>
<hdop>0.00</hdop>
<vdop>0.00</vdop>
<pdop>0.00</pdop>
</trkpt>
<trkpt lat="46.967955" lon="8.104500">
<ele>1049.500000</ele>
<time>2008-08-10T14:47:20.000Z</time>
<sat>0</sat>
<fix>3d</fix>
<hdop>0.00</hdop>
<vdop>0.00</vdop>
<pdop>0.00</pdop>
</trkpt>
<trkpt lat="46.969198" lon="8.105067">
<ele>1059.600000</ele>
<time>2008-08-10T14:47:32.000Z</time>
<sat>0</sat>
<fix>3d</fix>
<hdop>0.00</hdop>
<vdop>0.00</vdop>
<pdop>0.00</pdop>
</trkpt>
<trkpt lat="46.971222" lon="8.103903">
<ele>1067.700000</ele>
<time>2008-08-10T14:47:44.000Z</time>
<sat>0</sat>
<fix>3d</fix>
<hdop>0.00</hdop>
<vdop>0.00</vdop>
<pdop>0.00</pdop>
</trkpt>
<trkpt lat="46.972922" lon="8.104260">
<ele>1061.400000</ele>
<time>2008-08-10T14:47:56.000Z</time>
<sat>0</sat>
<fix>3d</fix>
<hdop>0.00</hdop>
<vdop>0.00</vdop>
<pdop>0.00</pdop>
</trkpt>
<trkpt lat="46.974462" lon="8.091457">
<ele>983.800000</ele>
<time>2008-08-10T14:48:48.000Z</time>
<sat>0</sat>
<fix>3d</fix>
<hdop>0.00</hdop>
<vdop>0.00</vdop>
<pdop>0.00</pdop>
</trkpt>
<trkpt lat="46.979723" lon="8.078627">
<ele>912.000000</ele>
<time>2008-08-10T14:50:00.000Z</time>
<sat>0</sat>
<fix>3d</fix>
<hdop>0.00</hdop>
<vdop>0.00</vdop>
<pdop>0.00</pdop>
</trkpt>
<trkpt lat="46.980745" lon="8.070573">
<ele>846.600000</ele>
<time>2008-08-10T14:50:32.000Z</time>
<sat>0</sat>
<fix>3d</fix>
<hdop>0.00</hdop>
<vdop>0.00</vdop>
<pdop>0.00</pdop>
</trkpt>
<trkpt lat="46.982102" lon="8.068400">
<ele>824.000000</ele>
<time>2008-08-10T14:50:48.000Z</time>
<sat>0</sat>
<fix>3d</fix>
<hdop>0.00</hdop>
<vdop>0.00</vdop>
<pdop>0.00</pdop>
</trkpt>
<trkpt lat="46.983742" lon="8.069442">
<ele>808.300000</ele>
<time>2008-08-10T14:51:04.000Z</time>
<sat>0</sat>
<fix>3d</fix>
<hdop>0.00</hdop>
<vdop>0.00</vdop>
<pdop>0.00</pdop>
</trkpt>
<trkpt lat="46.988048" lon="8.069202">
<ele>763.100000</ele>
<time>2008-08-10T14:51:48.000Z</time>
<sat>0</sat>
<fix>3d</fix>
<hdop>0.00</hdop>
<vdop>0.00</vdop>
<pdop>0.00</pdop>
</trkpt>
<trkpt lat="46.991090" lon="8.066997">
<ele>734.200000</ele>
<time>2008-08-10T14:52:16.000Z</time>
<sat>0</sat>
<fix>3d</fix>
<hdop>0.00</hdop>
<vdop>0.00</vdop>
<pdop>0.00</pdop>
</trkpt>
<trkpt lat="46.991797" lon="8.064712">
<ele>721.400000</ele>
<time>2008-08-10T14:52:52.000Z</time>
<sat>0</sat>
<fix>3d</fix>
<hdop>0.00</hdop>
<vdop>0.00</vdop>
<pdop>0.00</pdop>
</trkpt>
<trkpt lat="46.989345" lon="8.061587">
<ele>718.200000</ele>
<time>2008-08-10T14:53:24.000Z</time>
<sat>0</sat>
<fix>3d</fix>
<hdop>0.00</hdop>
<vdop>0.00</vdop>
<pdop>0.00</pdop>
</trkpt>
<trkpt lat="46.984817" lon="8.061208">
<ele>712.500000</ele>
<time>2008-08-10T14:54:00.000Z</time>
<sat>0</sat>
<fix>3d</fix>
<hdop>0.00</hdop>
<vdop>0.00</vdop>
<pdop>0.00</pdop>
</trkpt>
<trkpt lat="46.984280" lon="8.059695">
<ele>709.800000</ele>
<time>2008-08-10T14:54:12.000Z</time>
<sat>0</sat>
<fix>3d</fix>
<hdop>0.00</hdop>
<vdop>0.00</vdop>
<pdop>0.00</pdop>
</trkpt>
<trkpt lat="46.983470" lon="8.060247">
<ele>712.900000</ele>
<time>2008-08-10T14:54:20.000Z</time>
<sat>0</sat>
<fix>3d</fix>
<hdop>0.00</hdop>
<vdop>0.00</vdop>
<pdop>0.00</pdop>
</trkpt>
<trkpt lat="46.981093" lon="8.056765">
<ele>725.000000</ele>
<time>2008-08-10T14:54:44.000Z</time>
<sat>0</sat>
<fix>3d</fix>
<hdop>0.00</hdop>
<vdop>0.00</vdop>
<pdop>0.00</pdop>
</trkpt>
<trkpt lat="46.979420" lon="8.050110">
<ele>707.000000</ele>
<time>2008-08-10T14:55:24.000Z</time>
<sat>0</sat>
<fix>3d</fix>
<hdop>0.00</hdop>
<vdop>0.00</vdop>
<pdop>0.00</pdop>
</trkpt>
<trkpt lat="46.975743" lon="8.046093">
<ele>702.200000</ele>
<time>2008-08-10T14:55:56.000Z</time>
<sat>0</sat>
<fix>3d</fix>
<hdop>0.00</hdop>
<vdop>0.00</vdop>
<pdop>0.00</pdop>
</trkpt>
<trkpt lat="46.973927" lon="8.041937">
<ele>709.600000</ele>
<time>2008-08-10T14:56:16.000Z</time>
<sat>0</sat>
<fix>3d</fix>
<hdop>0.00</hdop>
<vdop>0.00</vdop>
<pdop>0.00</pdop>
</trkpt>
<trkpt lat="46.970395" lon="8.038782">
<ele>696.600000</ele>
<time>2008-08-10T14:56:44.000Z</time>
<sat>0</sat>
<fix>3d</fix>
<hdop>0.00</hdop>
<vdop>0.00</vdop>
<pdop>0.00</pdop>
</trkpt>
<trkpt lat="46.964903" lon="8.031020">
<ele>701.800000</ele>
<time>2008-08-10T14:57:24.000Z</time>
<sat>0</sat>
<fix>3d</fix>
<hdop>0.00</hdop>
<vdop>0.00</vdop>
<pdop>0.00</pdop>
</trkpt>
<trkpt lat="46.964235" lon="8.027672">
<ele>704.700000</ele>
<time>2008-08-10T14:57:36.000Z</time>
<sat>0</sat>
<fix>3d</fix>
<hdop>0.00</hdop>
<vdop>0.00</vdop>
<pdop>0.00</pdop>
</trkpt>
<trkpt lat="46.961238" lon="8.023335">
<ele>707.700000</ele>
<time>2008-08-10T14:57:56.000Z</time>
<sat>0</sat>
<fix>3d</fix>
<hdop>0.00</hdop>
<vdop>0.00</vdop>
<pdop>0.00</pdop>
</trkpt>
<trkpt lat="46.957065" lon="8.018988">
<ele>708.900000</ele>
<time>2008-08-10T14:58:24.000Z</time>
<sat>0</sat>
<fix>3d</fix>
<hdop>0.00</hdop>
<vdop>0.00</vdop>
<pdop>0.00</pdop>
</trkpt>
<trkpt lat="46.953165" lon="8.018593">
<ele>720.700000</ele>
<time>2008-08-10T14:58:52.000Z</time>
<sat>0</sat>
<fix>3d</fix>
<hdop>0.00</hdop>
<vdop>0.00</vdop>
<pdop>0.00</pdop>
</trkpt>
<trkpt lat="46.950813" lon="8.016773">
<ele>725.100000</ele>
<time>2008-08-10T14:59:12.000Z</time>
<sat>0</sat>
<fix>3d</fix>
<hdop>0.00</hdop>
<vdop>0.00</vdop>
<pdop>0.00</pdop>
</trkpt>
<trkpt lat="46.948550" lon="8.012137">
<ele>727.500000</ele>
<time>2008-08-10T14:59:40.000Z</time>
<sat>0</sat>
<fix>3d</fix>
<hdop>0.00</hdop>
<vdop>0.00</vdop>
<pdop>0.00</pdop>
</trkpt>
<trkpt lat="46.945255" lon="8.007758">
<ele>723.700000</ele>
<time>2008-08-10T15:00:08.000Z</time>
<sat>0</sat>
<fix>3d</fix>
<hdop>0.00</hdop>
<vdop>0.00</vdop>
<pdop>0.00</pdop>
</trkpt>
<trkpt lat="46.943405" lon="8.007275">
<ele>728.400000</ele>
<time>2008-08-10T15:00:20.000Z</time>
<sat>0</sat>
<fix>3d</fix>
<hdop>0.00</hdop>
<vdop>0.00</vdop>
<pdop>0.00</pdop>
</trkpt>
<trkpt lat="46.942310" lon="8.003943">
<ele>728.200000</ele>
<time>2008-08-10T15:00:36.000Z</time>
<sat>0</sat>
<fix>3d</fix>
<hdop>0.00</hdop>
<vdop>0.00</vdop>
<pdop>0.00</pdop>
</trkpt>
<trkpt lat="46.941037" lon="8.002508">
<ele>730.300000</ele>
<time>2008-08-10T15:00:44.000Z</time>
<sat>0</sat>
<fix>3d</fix>
<hdop>0.00</hdop>
<vdop>0.00</vdop>
<pdop>0.00</pdop>
</trkpt>
<trkpt lat="46.936845" lon="8.000572">
<ele>740.100000</ele>
<time>2008-08-10T15:01:04.000Z</time>
<sat>0</sat>
<fix>3d</fix>
<hdop>0.00</hdop>
<vdop>0.00</vdop>
<pdop>0.00</pdop>
</trkpt>
<trkpt lat="46.935858" lon="7.991210">
<ele>751.400000</ele>
<time>2008-08-10T15:01:36.000Z</time>
<sat>0</sat>
<fix>3d</fix>
<hdop>0.00</hdop>
<vdop>0.00</vdop>
<pdop>0.00</pdop>
</trkpt>
<trkpt lat="46.932930" lon="7.983817">
<ele>760.200000</ele>
<time>2008-08-10T15:02:04.000Z</time>
<sat>0</sat>
<fix>3d</fix>
<hdop>0.00</hdop>
<vdop>0.00</vdop>
<pdop>0.00</pdop>
</trkpt>
<trkpt lat="46.932008" lon="7.977940">
<ele>768.600000</ele>
<time>2008-08-10T15:02:24.000Z</time>
<sat>0</sat>
<fix>3d</fix>
<hdop>0.00</hdop>
<vdop>0.00</vdop>
<pdop>0.00</pdop>
</trkpt>
<trkpt lat="46.919937" lon="7.939422">
<ele>844.200000</ele>
<time>2008-08-10T15:04:52.000Z</time>
<sat>0</sat>
<fix>3d</fix>
<hdop>0.00</hdop>
<vdop>0.00</vdop>
<pdop>0.00</pdop>
</trkpt>
<trkpt lat="46.918232" lon="7.936980">
<ele>846.100000</ele>
<time>2008-08-10T15:05:08.000Z</time>
<sat>0</sat>
<fix>3d</fix>
<hdop>0.00</hdop>
<vdop>0.00</vdop>
<pdop>0.00</pdop>
</trkpt>
<trkpt lat="46.914645" lon="7.935100">
<ele>860.300000</ele>
<time>2008-08-10T15:05:36.000Z</time>
<sat>0</sat>
<fix>3d</fix>
<hdop>0.00</hdop>
<vdop>0.00</vdop>
<pdop>0.00</pdop>
</trkpt>
<trkpt lat="46.912973" lon="7.933145">
<ele>856.400000</ele>
<time>2008-08-10T15:05:52.000Z</time>
<sat>0</sat>
<fix>3d</fix>
<hdop>0.00</hdop>
<vdop>0.00</vdop>
<pdop>0.00</pdop>
</trkpt>
<trkpt lat="46.904827" lon="7.929537">
<ele>823.300000</ele>
<time>2008-08-10T15:08:36.000Z</time>
<sat>0</sat>
<fix>3d</fix>
<hdop>0.00</hdop>
<vdop>0.00</vdop>
<pdop>0.00</pdop>
</trkpt>
<trkpt lat="46.902518" lon="7.926268">
<ele>817.400000</ele>
<time>2008-08-10T15:08:52.000Z</time>
<sat>0</sat>
<fix>3d</fix>
<hdop>0.00</hdop>
<vdop>0.00</vdop>
<pdop>0.00</pdop>
</trkpt>
<trkpt lat="46.897745" lon="7.916107">
<ele>797.300000</ele>
<time>2008-08-10T15:09:32.000Z</time>
<sat>0</sat>
<fix>3d</fix>
<hdop>0.00</hdop>
<vdop>0.00</vdop>
<pdop>0.00</pdop>
</trkpt>
<trkpt lat="46.895625" lon="7.908752">
<ele>788.100000</ele>
<time>2008-08-10T15:10:04.000Z</time>
<sat>0</sat>
<fix>3d</fix>
<hdop>0.00</hdop>
<vdop>0.00</vdop>
<pdop>0.00</pdop>
</trkpt>
<trkpt lat="46.887232" lon="7.912365">
<ele>804.000000</ele>
<time>2008-08-10T15:10:48.000Z</time>
<sat>0</sat>
<fix>3d</fix>
<hdop>0.00</hdop>
<vdop>0.00</vdop>
<pdop>0.00</pdop>
</trkpt>
<trkpt lat="46.885192" lon="7.914482">
<ele>807.700000</ele>
<time>2008-08-10T15:11:00.000Z</time>
<sat>0</sat>
<fix>3d</fix>
<hdop>0.00</hdop>
<vdop>0.00</vdop>
<pdop>0.00</pdop>
</trkpt>
<trkpt lat="46.881837" lon="7.915117">
<ele>816.500000</ele>
<time>2008-08-10T15:11:16.000Z</time>
<sat>0</sat>
<fix>3d</fix>
<hdop>0.00</hdop>
<vdop>0.00</vdop>
<pdop>0.00</pdop>
</trkpt>
<trkpt lat="46.878945" lon="7.912480">
<ele>818.300000</ele>
<time>2008-08-10T15:11:32.000Z</time>
<sat>0</sat>
<fix>3d</fix>
<hdop>0.00</hdop>
<vdop>0.00</vdop>
<pdop>0.00</pdop>
</trkpt>
<trkpt lat="46.874053" lon="7.911247">
<ele>827.700000</ele>
<time>2008-08-10T15:11:56.000Z</time>
<sat>0</sat>
<fix>3d</fix>
<hdop>0.00</hdop>
<vdop>0.00</vdop>
<pdop>0.00</pdop>
</trkpt>
<trkpt lat="46.872515" lon="7.910153">
<ele>828.100000</ele>
<time>2008-08-10T15:12:04.000Z</time>
<sat>0</sat>
<fix>3d</fix>
<hdop>0.00</hdop>
<vdop>0.00</vdop>
<pdop>0.00</pdop>
</trkpt>
<trkpt lat="46.869987" lon="7.910098">
<ele>831.100000</ele>
<time>2008-08-10T15:12:16.000Z</time>
<sat>0</sat>
<fix>3d</fix>
<hdop>0.00</hdop>
<vdop>0.00</vdop>
<pdop>0.00</pdop>
</trkpt>
<trkpt lat="46.864767" lon="7.905245">
<ele>839.700000</ele>
<time>2008-08-10T15:12:44.000Z</time>
<sat>0</sat>
<fix>3d</fix>
<hdop>0.00</hdop>
<vdop>0.00</vdop>
<pdop>0.00</pdop>
</trkpt>
<trkpt lat="46.863037" lon="7.902428">
<ele>843.700000</ele>
<time>2008-08-10T15:12:56.000Z</time>
<sat>0</sat>
<fix>3d</fix>
<hdop>0.00</hdop>
<vdop>0.00</vdop>
<pdop>0.00</pdop>
</trkpt>
<trkpt lat="46.859980" lon="7.899987">
<ele>853.100000</ele>
<time>2008-08-10T15:13:12.000Z</time>
<sat>0</sat>
<fix>3d</fix>
<hdop>0.00</hdop>
<vdop>0.00</vdop>
<pdop>0.00</pdop>
</trkpt>
<trkpt lat="46.854090" lon="7.900120">
<ele>876.400000</ele>
<time>2008-08-10T15:13:56.000Z</time>
<sat>0</sat>
<fix>3d</fix>
<hdop>0.00</hdop>
<vdop>0.00</vdop>
<pdop>0.00</pdop>
</trkpt>
<trkpt lat="46.844588" lon="7.889257">
<ele>917.000000</ele>
<time>2008-08-10T15:15:28.000Z</time>
<sat>0</sat>
<fix>3d</fix>
<hdop>0.00</hdop>
<vdop>0.00</vdop>
<pdop>0.00</pdop>
</trkpt>
<trkpt lat="46.844640" lon="7.888137">
<ele>919.100000</ele>
<time>2008-08-10T15:15:36.000Z</time>
<sat>0</sat>
<fix>3d</fix>
<hdop>0.00</hdop>
<vdop>0.00</vdop>
<pdop>0.00</pdop>
</trkpt>
<trkpt lat="46.842878" lon="7.886492">
<ele>929.300000</ele>
<time>2008-08-10T15:15:48.000Z</time>
<sat>0</sat>
<fix>3d</fix>
<hdop>0.00</hdop>
<vdop>0.00</vdop>
<pdop>0.00</pdop>
</trkpt>
<trkpt lat="46.838242" lon="7.878740">
<ele>956.100000</ele>
<time>2008-08-10T15:16:24.000Z</time>
<sat>0</sat>
<fix>3d</fix>
<hdop>0.00</hdop>
<vdop>0.00</vdop>
<pdop>0.00</pdop>
</trkpt>
<trkpt lat="46.835395" lon="7.875307">
<ele>968.400000</ele>
<time>2008-08-10T15:16:44.000Z</time>
<sat>0</sat>
<fix>3d</fix>
<hdop>0.00</hdop>
<vdop>0.00</vdop>
<pdop>0.00</pdop>
</trkpt>
<trkpt lat="46.832140" lon="7.868550">
<ele>985.700000</ele>
<time>2008-08-10T15:17:16.000Z</time>
<sat>0</sat>
<fix>3d</fix>
<hdop>0.00</hdop>
<vdop>0.00</vdop>
<pdop>0.00</pdop>
</trkpt>
<trkpt lat="46.828718" lon="7.863907">
<ele>950.800000</ele>
<time>2008-08-10T15:17:48.000Z</time>
<sat>0</sat>
<fix>3d</fix>
<hdop>0.00</hdop>
<vdop>0.00</vdop>
<pdop>0.00</pdop>
</trkpt>
<trkpt lat="46.828813" lon="7.862602">
<ele>941.800000</ele>
<time>2008-08-10T15:17:56.000Z</time>
<sat>0</sat>
<fix>3d</fix>
<hdop>0.00</hdop>
<vdop>0.00</vdop>
<pdop>0.00</pdop>
</trkpt>
<trkpt lat="46.827963" lon="7.861803">
<ele>933.200000</ele>
<time>2008-08-10T15:18:04.000Z</time>
<sat>0</sat>
<fix>3d</fix>
<hdop>0.00</hdop>
<vdop>0.00</vdop>
<pdop>0.00</pdop>
</trkpt>
<trkpt lat="46.826442" lon="7.857848">
<ele>910.800000</ele>
<time>2008-08-10T15:18:28.000Z</time>
<sat>0</sat>
<fix>3d</fix>
<hdop>0.00</hdop>
<vdop>0.00</vdop>
<pdop>0.00</pdop>
</trkpt>
<trkpt lat="46.823932" lon="7.854778">
<ele>879.800000</ele>
<time>2008-08-10T15:18:48.000Z</time>
<sat>0</sat>
<fix>3d</fix>
<hdop>0.00</hdop>
<vdop>0.00</vdop>
<pdop>0.00</pdop>
</trkpt>
<trkpt lat="46.822730" lon="7.849793">
<ele>857.100000</ele>
<time>2008-08-10T15:19:12.000Z</time>
<sat>0</sat>
<fix>3d</fix>
<hdop>0.00</hdop>
<vdop>0.00</vdop>
<pdop>0.00</pdop>
</trkpt>
<trkpt lat="46.820978" lon="7.847653">
<ele>843.900000</ele>
<time>2008-08-10T15:19:24.000Z</time>
<sat>0</sat>
<fix>3d</fix>
<hdop>0.00</hdop>
<vdop>0.00</vdop>
<pdop>0.00</pdop>
</trkpt>
<trkpt lat="46.818960" lon="7.835435">
<ele>886.300000</ele>
<time>2008-08-10T15:20:12.000Z</time>
<sat>0</sat>
<fix>3d</fix>
<hdop>0.00</hdop>
<vdop>0.00</vdop>
<pdop>0.00</pdop>
</trkpt>
<trkpt lat="46.819238" lon="7.833792">
<ele>898.100000</ele>
<time>2008-08-10T15:20:20.000Z</time>
<sat>0</sat>
<fix>3d</fix>
<hdop>0.00</hdop>
<vdop>0.00</vdop>
<pdop>0.00</pdop>
</trkpt>
<trkpt lat="46.817463" lon="7.828730">
<ele>922.500000</ele>
<time>2008-08-10T15:20:40.000Z</time>
<sat>0</sat>
<fix>3d</fix>
<hdop>0.00</hdop>
<vdop>0.00</vdop>
<pdop>0.00</pdop>
</trkpt>
<trkpt lat="46.819455" lon="7.825335">
<ele>939.600000</ele>
<time>2008-08-10T15:21:00.000Z</time>
<sat>0</sat>
<fix>3d</fix>
<hdop>0.00</hdop>
<vdop>0.00</vdop>
<pdop>0.00</pdop>
</trkpt>
<trkpt lat="46.820912" lon="7.825082">
<ele>950.600000</ele>
<time>2008-08-10T15:21:08.000Z</time>
<sat>0</sat>
<fix>3d</fix>
<hdop>0.00</hdop>
<vdop>0.00</vdop>
<pdop>0.00</pdop>
</trkpt>
<trkpt lat="46.822102" lon="7.823743">
<ele>963.300000</ele>
<time>2008-08-10T15:21:16.000Z</time>
<sat>0</sat>
<fix>3d</fix>
<hdop>0.00</hdop>
<vdop>0.00</vdop>
<pdop>0.00</pdop>
</trkpt>
<trkpt lat="46.823620" lon="7.823478">
<ele>970.800000</ele>
<time>2008-08-10T15:21:24.000Z</time>
<sat>0</sat>
<fix>3d</fix>
<hdop>0.00</hdop>
<vdop>0.00</vdop>
<pdop>0.00</pdop>
</trkpt>
<trkpt lat="46.825542" lon="7.820662">
<ele>977.600000</ele>
<time>2008-08-10T15:21:36.000Z</time>
<sat>0</sat>
<fix>3d</fix>
<hdop>0.00</hdop>
<vdop>0.00</vdop>
<pdop>0.00</pdop>
</trkpt>
<trkpt lat="46.827930" lon="7.818657">
<ele>979.000000</ele>
<time>2008-08-10T15:21:48.000Z</time>
<sat>0</sat>
<fix>3d</fix>
<hdop>0.00</hdop>
<vdop>0.00</vdop>
<pdop>0.00</pdop>
</trkpt>
<trkpt lat="46.828748" lon="7.816842">
<ele>980.500000</ele>
<time>2008-08-10T15:21:56.000Z</time>
<sat>0</sat>
<fix>3d</fix>
<hdop>0.00</hdop>
<vdop>0.00</vdop>
<pdop>0.00</pdop>
</trkpt>
<trkpt lat="46.827562" lon="7.814967">
<ele>985.100000</ele>
<time>2008-08-10T15:22:08.000Z</time>
<sat>0</sat>
<fix>3d</fix>
<hdop>0.00</hdop>
<vdop>0.00</vdop>
<pdop>0.00</pdop>
</trkpt>
<trkpt lat="46.827232" lon="7.812145">
<ele>992.500000</ele>
<time>2008-08-10T15:22:28.000Z</time>
<sat>0</sat>
<fix>3d</fix>
<hdop>0.00</hdop>
<vdop>0.00</vdop>
<pdop>0.00</pdop>
</trkpt>
<trkpt lat="46.828783" lon="7.803050">
<ele>1041.600000</ele>
<time>2008-08-10T15:23:20.000Z</time>
<sat>0</sat>
<fix>3d</fix>
<hdop>0.00</hdop>
<vdop>0.00</vdop>
<pdop>0.00</pdop>
</trkpt>
<trkpt lat="46.824353" lon="7.808237">
<ele>1094.900000</ele>
<time>2008-08-10T15:23:56.000Z</time>
<sat>0</sat>
<fix>3d</fix>
<hdop>0.00</hdop>
<vdop>0.00</vdop>
<pdop>0.00</pdop>
</trkpt>
<trkpt lat="46.825877" lon="7.802258">
<ele>1135.400000</ele>
<time>2008-08-10T15:24:24.000Z</time>
<sat>0</sat>
<fix>3d</fix>
<hdop>0.00</hdop>
<vdop>0.00</vdop>
<pdop>0.00</pdop>
</trkpt>
<trkpt lat="46.826190" lon="7.796985">
<ele>1168.500000</ele>
<time>2008-08-10T15:24:52.000Z</time>
<sat>0</sat>
<fix>3d</fix>
<hdop>0.00</hdop>
<vdop>0.00</vdop>
<pdop>0.00</pdop>
</trkpt>
<trkpt lat="46.825198" lon="7.792353">
<ele>1143.200000</ele>
<time>2008-08-10T15:25:12.000Z</time>
<sat>0</sat>
<fix>3d</fix>
<hdop>0.00</hdop>
<vdop>0.00</vdop>
<pdop>0.00</pdop>
</trkpt>
<trkpt lat="46.824398" lon="7.791123">
<ele>1129.500000</ele>
<time>2008-08-10T15:25:20.000Z</time>
<sat>0</sat>
<fix>3d</fix>
<hdop>0.00</hdop>
<vdop>0.00</vdop>
<pdop>0.00</pdop>
</trkpt>
<trkpt lat="46.825233" lon="7.783768">
<ele>1088.500000</ele>
<time>2008-08-10T15:26:00.000Z</time>
<sat>0</sat>
<fix>3d</fix>
<hdop>0.00</hdop>
<vdop>0.00</vdop>
<pdop>0.00</pdop>
</trkpt>
<trkpt lat="46.823432" lon="7.788540">
<ele>1066.800000</ele>
<time>2008-08-10T15:26:32.000Z</time>
<sat>0</sat>
<fix>3d</fix>
<hdop>0.00</hdop>
<vdop>0.00</vdop>
<pdop>0.00</pdop>
</trkpt>
<trkpt lat="46.822793" lon="7.781940">
<ele>1025.800000</ele>
<time>2008-08-10T15:27:00.000Z</time>
<sat>0</sat>
<fix>3d</fix>
<hdop>0.00</hdop>
<vdop>0.00</vdop>
<pdop>0.00</pdop>
</trkpt>
<trkpt lat="46.820878" lon="7.782717">
<ele>1008.400000</ele>
<time>2008-08-10T15:27:16.000Z</time>
<sat>0</sat>
<fix>3d</fix>
<hdop>0.00</hdop>
<vdop>0.00</vdop>
<pdop>0.00</pdop>
</trkpt>
<trkpt lat="46.820393" lon="7.784773">
<ele>995.700000</ele>
<time>2008-08-10T15:27:24.000Z</time>
<sat>0</sat>
<fix>3d</fix>
<hdop>0.00</hdop>
<vdop>0.00</vdop>
<pdop>0.00</pdop>
</trkpt>
<trkpt lat="46.819615" lon="7.785512">
<ele>983.600000</ele>
<time>2008-08-10T15:27:32.000Z</time>
<sat>0</sat>
<fix>3d</fix>
<hdop>0.00</hdop>
<vdop>0.00</vdop>
<pdop>0.00</pdop>
</trkpt>
<trkpt lat="46.820048" lon="7.780417">
<ele>963.600000</ele>
<time>2008-08-10T15:27:52.000Z</time>
<sat>0</sat>
<fix>3d</fix>
<hdop>0.00</hdop>
<vdop>0.00</vdop>
<pdop>0.00</pdop>
</trkpt>
<trkpt lat="46.822292" lon="7.773455">
<ele>936.600000</ele>
<time>2008-08-10T15:28:16.000Z</time>
<sat>0</sat>
<fix>3d</fix>
<hdop>0.00</hdop>
<vdop>0.00</vdop>
<pdop>0.00</pdop>
</trkpt>
<trkpt lat="46.822183" lon="7.771102">
<ele>929.700000</ele>
<time>2008-08-10T15:28:24.000Z</time>
<sat>0</sat>
<fix>3d</fix>
<hdop>0.00</hdop>
<vdop>0.00</vdop>
<pdop>0.00</pdop>
</trkpt>
<trkpt lat="46.821078" lon="7.769508">
<ele>925.700000</ele>
<time>2008-08-10T15:28:32.000Z</time>
<sat>0</sat>
<fix>3d</fix>
<hdop>0.00</hdop>
<vdop>0.00</vdop>
<pdop>0.00</pdop>
</trkpt>
<trkpt lat="46.819967" lon="7.764725">
<ele>914.500000</ele>
<time>2008-08-10T15:28:48.000Z</time>
<sat>0</sat>
<fix>3d</fix>
<hdop>0.00</hdop>
<vdop>0.00</vdop>
<pdop>0.00</pdop>
</trkpt>
<trkpt lat="46.820063" lon="7.761162">
<ele>908.900000</ele>
<time>2008-08-10T15:29:04.000Z</time>
<sat>0</sat>
<fix>3d</fix>
<hdop>0.00</hdop>
<vdop>0.00</vdop>
<pdop>0.00</pdop>
</trkpt>
<trkpt lat="46.816977" lon="7.753307">
<ele>906.600000</ele>
<time>2008-08-10T15:29:44.000Z</time>
<sat>0</sat>
<fix>3d</fix>
<hdop>0.00</hdop>
<vdop>0.00</vdop>
<pdop>0.00</pdop>
</trkpt>
<trkpt lat="46.813973" lon="7.748633">
<ele>913.000000</ele>
<time>2008-08-10T15:30:04.000Z</time>
<sat>0</sat>
<fix>3d</fix>
<hdop>0.00</hdop>
<vdop>0.00</vdop>
<pdop>0.00</pdop>
</trkpt>
<trkpt lat="46.811450" lon="7.748252">
<ele>917.000000</ele>
<time>2008-08-10T15:30:16.000Z</time>
<sat>0</sat>
<fix>3d</fix>
<hdop>0.00</hdop>
<vdop>0.00</vdop>
<pdop>0.00</pdop>
</trkpt>
<trkpt lat="46.808612" lon="7.746515">
<ele>924.700000</ele>
<time>2008-08-10T15:30:36.000Z</time>
<sat>0</sat>
<fix>3d</fix>
<hdop>0.00</hdop>
<vdop>0.00</vdop>
<pdop>0.00</pdop>
</trkpt>
<trkpt lat="46.806847" lon="7.742738">
<ele>928.900000</ele>
<time>2008-08-10T15:31:00.000Z</time>
<sat>0</sat>
<fix>3d</fix>
<hdop>0.00</hdop>
<vdop>0.00</vdop>
<pdop>0.00</pdop>
</trkpt>
<trkpt lat="46.802937" lon="7.740487">
<ele>932.500000</ele>
<time>2008-08-10T15:31:32.000Z</time>
<sat>0</sat>
<fix>3d</fix>
<hdop>0.00</hdop>
<vdop>0.00</vdop>
<pdop>0.00</pdop>
</trkpt>
<trkpt lat="46.799087" lon="7.740127">
<ele>946.400000</ele>
<time>2008-08-10T15:32:00.000Z</time>
<sat>0</sat>
<fix>3d</fix>
<hdop>0.00</hdop>
<vdop>0.00</vdop>
<pdop>0.00</pdop>
</trkpt>
<trkpt lat="46.795245" lon="7.735393">
<ele>949.000000</ele>
<time>2008-08-10T15:32:24.000Z</time>
<sat>0</sat>
<fix>3d</fix>
<hdop>0.00</hdop>
<vdop>0.00</vdop>
<pdop>0.00</pdop>
</trkpt>
<trkpt lat="46.793657" lon="7.728272">
<ele>930.000000</ele>
<time>2008-08-10T15:32:48.000Z</time>
<sat>0</sat>
<fix>3d</fix>
<hdop>0.00</hdop>
<vdop>0.00</vdop>
<pdop>0.00</pdop>
</trkpt>
<trkpt lat="46.793453" lon="7.723762">
<ele>914.500000</ele>
<time>2008-08-10T15:33:08.000Z</time>
<sat>0</sat>
<fix>3d</fix>
<hdop>0.00</hdop>
<vdop>0.00</vdop>
<pdop>0.00</pdop>
</trkpt>
<trkpt lat="46.795013" lon="7.717877">
<ele>912.100000</ele>
<time>2008-08-10T15:33:40.000Z</time>
<sat>0</sat>
<fix>3d</fix>
<hdop>0.00</hdop>
<vdop>0.00</vdop>
<pdop>0.00</pdop>
</trkpt>
<trkpt lat="46.793998" lon="7.712403">
<ele>902.400000</ele>
<time>2008-08-10T15:34:08.000Z</time>
<sat>0</sat>
<fix>3d</fix>
<hdop>0.00</hdop>
<vdop>0.00</vdop>
<pdop>0.00</pdop>
</trkpt>
<trkpt lat="46.797062" lon="7.704793">
<ele>868.600000</ele>
<time>2008-08-10T15:34:48.000Z</time>
<sat>0</sat>
<fix>3d</fix>
<hdop>0.00</hdop>
<vdop>0.00</vdop>
<pdop>0.00</pdop>
</trkpt>
<trkpt lat="46.796218" lon="7.701268">
<ele>859.400000</ele>
<time>2008-08-10T15:35:08.000Z</time>
<sat>0</sat>
<fix>3d</fix>
<hdop>0.00</hdop>
<vdop>0.00</vdop>
<pdop>0.00</pdop>
</trkpt>
<trkpt lat="46.795972" lon="7.695733">
<ele>853.000000</ele>
<time>2008-08-10T15:35:32.000Z</time>
<sat>0</sat>
<fix>3d</fix>
<hdop>0.00</hdop>
<vdop>0.00</vdop>
<pdop>0.00</pdop>
</trkpt>
<trkpt lat="46.796498" lon="7.688958">
<ele>845.100000</ele>
<time>2008-08-10T15:36:00.000Z</time>
<sat>0</sat>
<fix>3d</fix>
<hdop>0.00</hdop>
<vdop>0.00</vdop>
<pdop>0.00</pdop>
</trkpt>
<trkpt lat="46.797833" lon="7.684968">
<ele>831.100000</ele>
<time>2008-08-10T15:36:20.000Z</time>
<sat>0</sat>
<fix>3d</fix>
<hdop>0.00</hdop>
<vdop>0.00</vdop>
<pdop>0.00</pdop>
</trkpt>
<trkpt lat="46.797122" lon="7.681780">
<ele>821.800000</ele>
<time>2008-08-10T15:36:36.000Z</time>
<sat>0</sat>
<fix>3d</fix>
<hdop>0.00</hdop>
<vdop>0.00</vdop>
<pdop>0.00</pdop>
</trkpt>
<trkpt lat="46.797155" lon="7.678433">
<ele>811.300000</ele>
<time>2008-08-10T15:36:52.000Z</time>
<sat>0</sat>
<fix>3d</fix>
<hdop>0.00</hdop>
<vdop>0.00</vdop>
<pdop>0.00</pdop>
</trkpt>
<trkpt lat="46.796112" lon="7.678370">
<ele>805.500000</ele>
<time>2008-08-10T15:37:00.000Z</time>
<sat>0</sat>
<fix>3d</fix>
<hdop>0.00</hdop>
<vdop>0.00</vdop>
<pdop>0.00</pdop>
</trkpt>
<trkpt lat="46.795905" lon="7.676292">
<ele>801.300000</ele>
<time>2008-08-10T15:37:08.000Z</time>
<sat>0</sat>
<fix>3d</fix>
<hdop>0.00</hdop>
<vdop>0.00</vdop>
<pdop>0.00</pdop>
</trkpt>
<trkpt lat="46.792745" lon="7.670598">
<ele>772.900000</ele>
<time>2008-08-10T15:37:32.000Z</time>
<sat>0</sat>
<fix>3d</fix>
<hdop>0.00</hdop>
<vdop>0.00</vdop>
<pdop>0.00</pdop>
</trkpt>
<trkpt lat="46.790627" lon="7.668223">
<ele>756.700000</ele>
<time>2008-08-10T15:37:44.000Z</time>
<sat>0</sat>
<fix>3d</fix>
<hdop>0.00</hdop>
<vdop>0.00</vdop>
<pdop>0.00</pdop>
</trkpt>
<trkpt lat="46.788410" lon="7.663103">
<ele>753.000000</ele>
<time>2008-08-10T15:38:04.000Z</time>
<sat>0</sat>
<fix>3d</fix>
<hdop>0.00</hdop>
<vdop>0.00</vdop>
<pdop>0.00</pdop>
</trkpt>
<trkpt lat="46.787760" lon="7.658310">
<ele>730.800000</ele>
<time>2008-08-10T15:38:20.000Z</time>
<sat>0</sat>
<fix>3d</fix>
<hdop>0.00</hdop>
<vdop>0.00</vdop>
<pdop>0.00</pdop>
</trkpt>
<trkpt lat="46.786520" lon="7.655372">
<ele>721.500000</ele>
<time>2008-08-10T15:38:32.000Z</time>
<sat>0</sat>
<fix>3d</fix>
<hdop>0.00</hdop>
<vdop>0.00</vdop>
<pdop>0.00</pdop>
</trkpt>
<trkpt lat="46.786828" lon="7.653630">
<ele>713.800000</ele>
<time>2008-08-10T15:38:40.000Z</time>
<sat>0</sat>
<fix>3d</fix>
<hdop>0.00</hdop>
<vdop>0.00</vdop>
<pdop>0.00</pdop>
</trkpt>
<trkpt lat="46.785965" lon="7.652380">
<ele>701.600000</ele>
<time>2008-08-10T15:38:48.000Z</time>
<sat>0</sat>
<fix>3d</fix>
<hdop>0.00</hdop>
<vdop>0.00</vdop>
<pdop>0.00</pdop>
</trkpt>
<trkpt lat="46.784330" lon="7.645617">
<ele>672.900000</ele>
<time>2008-08-10T15:39:20.000Z</time>
<sat>0</sat>
<fix>3d</fix>
<hdop>0.00</hdop>
<vdop>0.00</vdop>
<pdop>0.00</pdop>
</trkpt>
<trkpt lat="46.781918" lon="7.640015">
<ele>636.400000</ele>
<time>2008-08-10T15:39:48.000Z</time>
<sat>0</sat>
<fix>3d</fix>
<hdop>0.00</hdop>
<vdop>0.00</vdop>
<pdop>0.00</pdop>
</trkpt>
<trkpt lat="46.781782" lon="7.634780">
<ele>600.000000</ele>
<time>2008-08-10T15:40:12.000Z</time>
<sat>0</sat>
<fix>3d</fix>
<hdop>0.00</hdop>
<vdop>0.00</vdop>
<pdop>0.00</pdop>
</trkpt>
<trkpt lat="46.781117" lon="7.633872">
<ele>592.200000</ele>
<time>2008-08-10T15:40:20.000Z</time>
<sat>0</sat>
<fix>3d</fix>
<hdop>0.00</hdop>
<vdop>0.00</vdop>
<pdop>0.00</pdop>
</trkpt>
<trkpt lat="46.778735" lon="7.634603">
<ele>588.000000</ele>
<time>2008-08-10T15:40:52.000Z</time>
<sat>0</sat>
<fix>3d</fix>
<hdop>0.00</hdop>
<vdop>0.00</vdop>
<pdop>0.00</pdop>
</trkpt>
<trkpt lat="46.776367" lon="7.629943">
<ele>579.900000</ele>
<time>2008-08-10T15:41:24.000Z</time>
<sat>0</sat>
<fix>3d</fix>
<hdop>0.00</hdop>
<vdop>0.00</vdop>
<pdop>0.00</pdop>
</trkpt>
<trkpt lat="46.774463" lon="7.623340">
<ele>571.600000</ele>
<time>2008-08-10T15:42:04.000Z</time>
<sat>0</sat>
<fix>3d</fix>
<hdop>0.00</hdop>
<vdop>0.00</vdop>
<pdop>0.00</pdop>
</trkpt>
<trkpt lat="46.774727" lon="7.617237">
<ele>565.100000</ele>
<time>2008-08-10T15:42:36.000Z</time>
<sat>0</sat>
<fix>3d</fix>
<hdop>0.00</hdop>
<vdop>0.00</vdop>
<pdop>0.00</pdop>
</trkpt>
<trkpt lat="46.773998" lon="7.616372">
<ele>566.200000</ele>
<time>2008-08-10T15:42:56.000Z</time>
<sat>0</sat>
<fix>3d</fix>
<hdop>0.00</hdop>
<vdop>0.00</vdop>
<pdop>0.00</pdop>
</trkpt>
<trkpt lat="46.770695" lon="7.618612">
<ele>564.500000</ele>
<time>2008-08-10T15:43:28.000Z</time>
<sat>0</sat>
<fix>3d</fix>
<hdop>0.00</hdop>
<vdop>0.00</vdop>
<pdop>0.00</pdop>
</trkpt>
<trkpt lat="46.770720" lon="7.619887">
<ele>561.500000</ele>
<time>2008-08-10T15:43:52.000Z</time>
<sat>0</sat>
<fix>3d</fix>
<hdop>0.00</hdop>
<vdop>0.00</vdop>
<pdop>0.00</pdop>
</trkpt>
<trkpt lat="46.770298" lon="7.619658">
<ele>558.600000</ele>
<time>2008-08-10T15:43:56.000Z</time>
<sat>0</sat>
<fix>3d</fix>
<hdop>0.00</hdop>
<vdop>0.00</vdop>
<pdop>0.00</pdop>
</trkpt>
<trkpt lat="46.770198" lon="7.616688">
<ele>556.900000</ele>
<time>2008-08-10T15:44:08.000Z</time>
<sat>0</sat>
<fix>3d</fix>
<hdop>0.00</hdop>
<vdop>0.00</vdop>
<pdop>0.00</pdop>
</trkpt>
<trkpt lat="46.770930" lon="7.614437">
<ele>558.800000</ele>
<time>2008-08-10T15:44:16.000Z</time>
<sat>0</sat>
<fix>3d</fix>
<hdop>0.00</hdop>
<vdop>0.00</vdop>
<pdop>0.00</pdop>
</trkpt>
<trkpt lat="46.772888" lon="7.612062">
<ele>563.700000</ele>
<time>2008-08-10T15:44:28.000Z</time>
<sat>0</sat>
<fix>3d</fix>
<hdop>0.00</hdop>
<vdop>0.00</vdop>
<pdop>0.00</pdop>
</trkpt>
<trkpt lat="46.776285" lon="7.604207">
<ele>550.000000</ele>
<time>2008-08-10T15:44:56.000Z</time>
<sat>0</sat>
<fix>3d</fix>
<hdop>0.00</hdop>
<vdop>0.00</vdop>
<pdop>0.00</pdop>
</trkpt>
<trkpt lat="46.777858" lon="7.603053">
<ele>548.700000</ele>
<time>2008-08-10T15:45:04.000Z</time>
<sat>0</sat>
<fix>3d</fix>
<hdop>0.00</hdop>
<vdop>0.00</vdop>
<pdop>0.00</pdop>
</trkpt>
<trkpt lat="46.782643" lon="7.602663">
<ele>547.000000</ele>
<time>2008-08-10T15:45:24.000Z</time>
<sat>0</sat>
<fix>3d</fix>
<hdop>0.00</hdop>
<vdop>0.00</vdop>
<pdop>0.00</pdop>
</trkpt>
<trkpt lat="46.786160" lon="7.600655">
<ele>544.700000</ele>
<time>2008-08-10T15:45:36.000Z</time>
<sat>0</sat>
<fix>3d</fix>
<hdop>0.00</hdop>
<vdop>0.00</vdop>
<pdop>0.00</pdop>
</trkpt>
<trkpt lat="46.791162" lon="7.595625">
<ele>540.900000</ele>
<time>2008-08-10T15:45:56.000Z</time>
<sat>0</sat>
<fix>3d</fix>
<hdop>0.00</hdop>
<vdop>0.00</vdop>
<pdop>0.00</pdop>
</trkpt>
<trkpt lat="46.797257" lon="7.584318">
<ele>540.800000</ele>
<time>2008-08-10T15:46:28.000Z</time>
<sat>0</sat>
<fix>3d</fix>
<hdop>0.00</hdop>
<vdop>0.00</vdop>
<pdop>0.00</pdop>
</trkpt>
<trkpt lat="46.799265" lon="7.582057">
<ele>540.700000</ele>
<time>2008-08-10T15:46:36.000Z</time>
<sat>0</sat>
<fix>3d</fix>
<hdop>0.00</hdop>
<vdop>0.00</vdop>
<pdop>0.00</pdop>
</trkpt>
<trkpt lat="46.801508" lon="7.580918">
<ele>541.800000</ele>
<time>2008-08-10T15:46:44.000Z</time>
<sat>0</sat>
<fix>3d</fix>
<hdop>0.00</hdop>
<vdop>0.00</vdop>
<pdop>0.00</pdop>
</trkpt>
<trkpt lat="46.808450" lon="7.580298">
<ele>546.900000</ele>
<time>2008-08-10T15:47:08.000Z</time>
<sat>0</sat>
<fix>3d</fix>
<hdop>0.00</hdop>
<vdop>0.00</vdop>
<pdop>0.00</pdop>
</trkpt>
<trkpt lat="46.810702" lon="7.579135">
<ele>542.800000</ele>
<time>2008-08-10T15:47:16.000Z</time>
<sat>0</sat>
<fix>3d</fix>
<hdop>0.00</hdop>
<vdop>0.00</vdop>
<pdop>0.00</pdop>
</trkpt>
<trkpt lat="46.814508" lon="7.574708">
<ele>534.900000</ele>
<time>2008-08-10T15:47:32.000Z</time>
<sat>0</sat>
<fix>3d</fix>
<hdop>0.00</hdop>
<vdop>0.00</vdop>
<pdop>0.00</pdop>
</trkpt>
<trkpt lat="46.820428" lon="7.572897">
<ele>534.100000</ele>
<time>2008-08-10T15:47:52.000Z</time>
<sat>0</sat>
<fix>3d</fix>
<hdop>0.00</hdop>
<vdop>0.00</vdop>
<pdop>0.00</pdop>
</trkpt>
<trkpt lat="46.824200" lon="7.570458">
<ele>533.000000</ele>
<time>2008-08-10T15:48:08.000Z</time>
<sat>0</sat>
<fix>3d</fix>
<hdop>0.00</hdop>
<vdop>0.00</vdop>
<pdop>0.00</pdop>
</trkpt>
<trkpt lat="46.830532" lon="7.564708">
<ele>531.700000</ele>
<time>2008-08-10T15:48:36.000Z</time>
<sat>0</sat>
<fix>3d</fix>
<hdop>0.00</hdop>
<vdop>0.00</vdop>
<pdop>0.00</pdop>
</trkpt>
<trkpt lat="46.838437" lon="7.560368">
<ele>529.000000</ele>
<time>2008-08-10T15:49:04.000Z</time>
<sat>0</sat>
<fix>3d</fix>
<hdop>0.00</hdop>
<vdop>0.00</vdop>
<pdop>0.00</pdop>
</trkpt>
<trkpt lat="46.848653" lon="7.559095">
<ele>525.700000</ele>
<time>2008-08-10T15:49:36.000Z</time>
<sat>0</sat>
<fix>3d</fix>
<hdop>0.00</hdop>
<vdop>0.00</vdop>
<pdop>0.00</pdop>
</trkpt>
<trkpt lat="46.855213" lon="7.556795">
<ele>523.700000</ele>
<time>2008-08-10T15:49:56.000Z</time>
<sat>0</sat>
<fix>3d</fix>
<hdop>0.00</hdop>
<vdop>0.00</vdop>
<pdop>0.00</pdop>
</trkpt>
<trkpt lat="46.876498" lon="7.542660">
<ele>518.000000</ele>
<time>2008-08-10T15:51:16.000Z</time>
<sat>0</sat>
<fix>3d</fix>
<hdop>0.00</hdop>
<vdop>0.00</vdop>
<pdop>0.00</pdop>
</trkpt>
<trkpt lat="46.886590" lon="7.541052">
<ele>517.800000</ele>
<time>2008-08-10T15:51:56.000Z</time>
<sat>0</sat>
<fix>3d</fix>
<hdop>0.00</hdop>
<vdop>0.00</vdop>
<pdop>0.00</pdop>
</trkpt>
<trkpt lat="46.890610" lon="7.539300">
<ele>516.300000</ele>
<time>2008-08-10T15:52:12.000Z</time>
<sat>0</sat>
<fix>3d</fix>
<hdop>0.00</hdop>
<vdop>0.00</vdop>
<pdop>0.00</pdop>
</trkpt>
<trkpt lat="46.896372" lon="7.533882">
<ele>514.600000</ele>
<time>2008-08-10T15:52:36.000Z</time>
<sat>0</sat>
<fix>3d</fix>
<hdop>0.00</hdop>
<vdop>0.00</vdop>
<pdop>0.00</pdop>
</trkpt>
<trkpt lat="46.900818" lon="7.532175">
<ele>517.700000</ele>
<time>2008-08-10T15:52:52.000Z</time>
<sat>0</sat>
<fix>3d</fix>
<hdop>0.00</hdop>
<vdop>0.00</vdop>
<pdop>0.00</pdop>
</trkpt>
<trkpt lat="46.903410" lon="7.529127">
<ele>527.400000</ele>
<time>2008-08-10T15:53:04.000Z</time>
<sat>0</sat>
<fix>3d</fix>
<hdop>0.00</hdop>
<vdop>0.00</vdop>
<pdop>0.00</pdop>
</trkpt>
<trkpt lat="46.906198" lon="7.522488">
<ele>547.300000</ele>
<time>2008-08-10T15:53:24.000Z</time>
<sat>0</sat>
<fix>3d</fix>
<hdop>0.00</hdop>
<vdop>0.00</vdop>
<pdop>0.00</pdop>
</trkpt>
<trkpt lat="46.910212" lon="7.518405">
<ele>562.100000</ele>
<time>2008-08-10T15:53:44.000Z</time>
<sat>0</sat>
<fix>3d</fix>
<hdop>0.00</hdop>
<vdop>0.00</vdop>
<pdop>0.00</pdop>
</trkpt>
</trkseg>
</trk>
</gpx>
